DL5637 / N878RW 7700 Squawk Report (25th of May, 2022)

Aircraft E170 Reg No. N878RW Age N/A
Model Emb-170 Jet engines 2 First flight 10-07
Registered 21-04-17 Rollout 10-07 Delivered 07-11-07
Construction No. 17000191 Line No. N/A Series 100LR
ADSHEX AC159A Airline name Delta Connection Owner Republic Airways
Airfield based Indianapolis-International~IN~N First tracked N/A

Flight history for N878RW

Route Flight No Date Playback
Logan International Airport (BOS) - Ronald Reagan Washington Natl (DCA) DL5779 2022-06-28 04:42:00
Ronald Reagan Washington Natl (DCA) - Logan International Airport (BOS) DL5742 2022-06-28 01:54:00
La Guardia (LGA) - Ronald Reagan Washington Natl (DCA) DL5735 2022-06-27 18:22:00
Ronald Reagan Washington Natl (DCA) - La Guardia (LGA) DL5669 2022-06-27 17:09:00
La Guardia (LGA) - Ronald Reagan Washington Natl (DCA) DL5605 2022-06-27 13:57:00
Port Columbus (CMH) - La Guardia (LGA) DL5598 2022-06-27 11:37:00
La Guardia (LGA) - Port Columbus (CMH) DL5777 2022-06-27 10:02:00
Port Columbus (CMH) - La Guardia (LGA) DL5631 2022-06-26 21:57:00
La Guardia (LGA) - Port Columbus (CMH) DL5739 2022-06-25 21:12:00
Ronald Reagan Washington Natl (DCA) - La Guardia (LGA) DL5669 2022-06-25 19:31:00
La Guardia (LGA) - Ronald Reagan Washington Natl (DCA) DL5605 2022-06-25 13:34:00
Ronald Reagan Washington Natl (DCA) - La Guardia (LGA) DL5791 2022-06-25 02:47:00
Ronald Reagan Washington Natl (DCA) - Dane Co Rgnl Truax Fld (MSN) - Ronald Reagan Washington Natl (DCA) DL5650 2022-06-25 00:38:00
Ronald Reagan Washington Natl (DCA) - Eppley Airfield (OMA) - Ronald Reagan Washington Natl (DCA) DL5853 2022-06-24 18:28:00
Blue Grass (LEX) - Ronald Reagan Washington Natl (DCA) DL5801 2022-06-24 11:43:00
Ronald Reagan Washington Natl (DCA) - Blue Grass (LEX) DL5814 2022-06-24 02:21:00
Logan International Airport (BOS) - Ronald Reagan Washington Natl (DCA) DL5779 2022-06-24 00:38:00
Ronald Reagan Washington Natl (DCA) - Logan International Airport (BOS) DL5742 2022-06-23 20:57:00
La Guardia (LGA) - Ronald Reagan Washington Natl (DCA) DL5735 2022-06-23 18:41:00
Ronald Reagan Washington Natl (DCA) - La Guardia (LGA) DL5669 2022-06-23 15:43:00
Time Lat Lon Altitude Heading Speed Vertical Rate
2022-05-26 00:21:39 GMT 40.498360 -80.241341 0 41 0 0
2022-05-26 00:21:36 GMT 40.498360 -80.241333 0 41 0 0
2022-05-26 00:21:34 GMT 40.498348 -80.241333 0 41 0 0
2022-05-26 00:21:30 GMT 40.498348 -80.241318 0 41 0 0
2022-05-26 00:21:27 GMT 40.498348 -80.241310 0 41 0 0
2022-05-26 00:21:25 GMT 40.498348 -80.241302 0 41 1 0
2022-05-26 00:21:18 GMT 40.498360 -80.241310 0 41 1 0
2022-05-26 00:21:17 GMT 40.498371 -80.241310 0 41 2 0
2022-05-26 00:21:15 GMT 40.498348 -80.241333 0 41 8 0
2022-05-26 00:21:14 GMT 40.498360 -80.241333 0 238 1 0
2022-05-26 00:21:12 GMT 40.498360 -80.241341 0 238 2 0
2022-05-26 00:21:10 GMT 40.498360 -80.241333 0 238 3 0
2022-05-26 00:21:09 GMT 40.498360 -80.241318 0 238 3 0
2022-05-26 00:21:06 GMT 40.498371 -80.241287 0 239 5 0
2022-05-26 00:21:04 GMT 40.498390 -80.241241 0 237 5 0
2022-05-26 00:21:03 GMT 40.498402 -80.241219 0 238 5 0
2022-05-26 00:21:02 GMT 40.498421 -80.241180 0 240 6 0
2022-05-26 00:21:00 GMT 40.498440 -80.241150 0 240 6 0
2022-05-26 00:20:59 GMT 40.498451 -80.241127 0 240 7 0
2022-05-26 00:20:57 GMT 40.498470 -80.241058 0 238 7 0
2022-05-26 00:20:56 GMT 40.498489 -80.241020 0 237 7 0
2022-05-26 00:20:55 GMT 40.498501 -80.240990 0 238 7 0
2022-05-26 00:20:53 GMT 40.498539 -80.240921 0 238 7 0
2022-05-26 00:20:52 GMT 40.498550 -80.240883 0 236 7 0
2022-05-26 00:20:51 GMT 40.498562 -80.240860 0 236 7 0
2022-05-26 00:20:49 GMT 40.498589 -80.240791 0 229 8 0
2022-05-26 00:20:48 GMT 40.498600 -80.240738 0 225 8 0
2022-05-26 00:20:46 GMT 40.498638 -80.240662 0 221 9 0
2022-05-26 00:20:45 GMT 40.498669 -80.240608 0 219 8 0
2022-05-26 00:20:44 GMT 40.498699 -80.240578 0 217 8 0
2022-05-26 00:20:43 GMT 40.498749 -80.240509 0 217 9 0
2022-05-26 00:20:41 GMT 40.498791 -80.240494 0 219 10 0
2022-05-26 00:20:40 GMT 40.498821 -80.240463 0 226 10 0
2022-05-26 00:20:39 GMT 40.498890 -80.240356 0 226 10 0
2022-05-26 00:20:37 GMT 40.498951 -80.240349 0 245 9 0
2022-05-26 00:20:35 GMT 40.499001 -80.240257 0 257 9 0
2022-05-26 00:20:34 GMT 40.499020 -80.240196 0 261 8 0
2022-05-26 00:20:33 GMT 40.499039 -80.240150 0 266 8 0
2022-05-26 00:20:32 GMT 40.499062 -80.240059 0 273 8 0
2022-05-26 00:20:30 GMT 40.499062 -80.240013 0 272 8 0
2022-05-26 00:20:29 GMT 40.499062 -80.239967 0 273 9 0
2022-05-26 00:20:27 GMT 40.499062 -80.239883 0 273 10 0
2022-05-26 00:20:26 GMT 40.499062 -80.239830 0 273 10 0
2022-05-26 00:20:25 GMT 40.499050 -80.239769 0 273 10 0
2022-05-26 00:20:23 GMT 40.499039 -80.239647 0 271 10 0
2022-05-26 00:20:22 GMT 40.499039 -80.239594 0 270 10 0
2022-05-26 00:20:21 GMT 40.499039 -80.239540 0 271 11 0
2022-05-26 00:20:20 GMT 40.499050 -80.239403 0 278 11 0
2022-05-26 00:20:18 GMT 40.499050 -80.239326 0 284 11 0
2022-05-26 00:20:16 GMT 40.499039 -80.239197 0 294 10 0
2022-05-26 00:20:15 GMT 40.499031 -80.239151 0 296 12 0
2022-05-26 00:20:14 GMT 40.499008 -80.239067 0 301 10 0
2022-05-26 00:20:12 GMT 40.498959 -80.238953 0 323 10 0
2022-05-26 00:20:11 GMT 40.498940 -80.238876 0 334 10 0
2022-05-26 00:20:10 GMT 40.498901 -80.238838 0 340 9 0
2022-05-26 00:20:08 GMT 40.498821 -80.238800 0 341 9 0
2022-05-26 00:20:07 GMT 40.498779 -80.238777 0 343 10 0
2022-05-26 00:20:06 GMT 40.498741 -80.238762 0 346 10 0
2022-05-26 00:20:04 GMT 40.498692 -80.238708 0 2 14 0
2022-05-26 00:20:03 GMT 40.498631 -80.238701 0 3 15 0
2022-05-26 00:20:02 GMT 40.498562 -80.238708 0 2 15 0
2022-05-26 00:20:01 GMT 40.498428 -80.238724 0 1 16 0
2022-05-26 00:19:59 GMT 40.498360 -80.238731 0 0 16 0
2022-05-26 00:19:58 GMT 40.498291 -80.238724 0 2 16 0
2022-05-26 00:19:56 GMT 40.498150 -80.238724 0 2 17 0
2022-05-26 00:19:55 GMT 40.498089 -80.238739 0 2 18 0
2022-05-26 00:19:54 GMT 40.498009 -80.238739 0 1 18 0
2022-05-26 00:19:52 GMT 40.497849 -80.238747 0 2 18 0
2022-05-26 00:19:51 GMT 40.497768 -80.238747 0 2 18 0
2022-05-26 00:19:50 GMT 40.497681 -80.238762 0 1 18 0
2022-05-26 00:19:48 GMT 40.497520 -80.238770 0 1 18 0
2022-05-26 00:19:47 GMT 40.497440 -80.238777 0 1 18 0
2022-05-26 00:19:45 GMT 40.497269 -80.238792 0 1 18 0
2022-05-26 00:19:44 GMT 40.497181 -80.238792 0 1 18 0
2022-05-26 00:19:43 GMT 40.497101 -80.238800 0 1 18 0
2022-05-26 00:19:42 GMT 40.496941 -80.238800 0 1 18 0
2022-05-26 00:19:40 GMT 40.496849 -80.238800 0 1 18 0
2022-05-26 00:19:39 GMT 40.496769 -80.238800 0 1 18 0
2022-05-26 00:19:37 GMT 40.496601 -80.238800 0 1 18 0
2022-05-26 00:19:36 GMT 40.496521 -80.238808 0 1 18 0
2022-05-26 00:19:34 GMT 40.496349 -80.238823 0 0 17 0
2022-05-26 00:19:33 GMT 40.496262 -80.238823 0 1 16 0
2022-05-26 00:19:32 GMT 40.496181 -80.238823 0 1 16 0
2022-05-26 00:19:31 GMT 40.496029 -80.238823 0 1 16 0
2022-05-26 00:19:29 GMT 40.495949 -80.238823 0 1 16 0
2022-05-26 00:19:27 GMT 40.495800 -80.238831 0 1 16 0
2022-05-26 00:19:26 GMT 40.495731 -80.238831 0 1 16 0
2022-05-26 00:19:25 GMT 40.495579 -80.238831 0 1 16 0
2022-05-26 00:19:23 GMT 40.495499 -80.238838 0 1 16 0
2022-05-26 00:19:22 GMT 40.495430 -80.238838 0 1 16 0
2022-05-26 00:19:21 GMT 40.495270 -80.238838 0 1 16 0
2022-05-26 00:19:19 GMT 40.495201 -80.238853 0 2 16 0
2022-05-26 00:19:18 GMT 40.495121 -80.238838 0 2 16 0
2022-05-26 00:19:16 GMT 40.494968 -80.238853 0 2 16 0
2022-05-26 00:19:15 GMT 40.494900 -80.238853 0 2 16 0
2022-05-26 00:19:13 GMT 40.494751 -80.238869 0 1 16 0
2022-05-26 00:19:12 GMT 40.494678 -80.238869 0 2 16 0
2022-05-26 00:19:10 GMT 40.494530 -80.238869 0 2 16 0
2022-05-26 00:19:09 GMT 40.494450 -80.238876 0 2 16 0
2022-05-26 00:19:08 GMT 40.494308 -80.238892 0 2 16 0
2022-05-26 00:19:06 GMT 40.494240 -80.238892 0 2 17 0
2022-05-26 00:19:05 GMT 40.494160 -80.238899 0 2 17 0
2022-05-26 00:19:03 GMT 40.494011 -80.238907 0 2 17 0
2022-05-26 00:19:02 GMT 40.493931 -80.238907 0 2 16 0
2022-05-26 00:19:01 GMT 40.493771 -80.238907 0 2 16 0
2022-05-26 00:18:59 GMT 40.493690 -80.238922 0 2 16 0
2022-05-26 00:18:58 GMT 40.493622 -80.238922 0 2 16 0
2022-05-26 00:18:57 GMT 40.493462 -80.238930 0 2 16 0
2022-05-26 00:18:55 GMT 40.493389 -80.238953 0 1 16 0
2022-05-26 00:18:53 GMT 40.493240 -80.238953 0 1 16 0
2022-05-26 00:18:52 GMT 40.493160 -80.238960 0 1 16 0
2022-05-26 00:18:51 GMT 40.493019 -80.238953 0 2 16 0
2022-05-26 00:18:49 GMT 40.492939 -80.238960 0 2 16 0
2022-05-26 00:18:48 GMT 40.492870 -80.238960 0 2 16 0
2022-05-26 00:18:46 GMT 40.492710 -80.238983 0 1 16 0
2022-05-26 00:18:45 GMT 40.492641 -80.238991 0 359 16 0
2022-05-26 00:18:43 GMT 40.492489 -80.238983 0 1 16 0
2022-05-26 00:18:42 GMT 40.492409 -80.238968 0 3 16 0
2022-05-26 00:18:41 GMT 40.492260 -80.238983 0 4 16 0
2022-05-26 00:18:39 GMT 40.492191 -80.238991 0 2 16 0
2022-05-26 00:18:38 GMT 40.492119 -80.238998 0 2 16 0
2022-05-26 00:18:36 GMT 40.491970 -80.239014 0 2 16 0
2022-05-26 00:18:35 GMT 40.491890 -80.239014 0 2 16 0
2022-05-26 00:18:34 GMT 40.491821 -80.239021 0 0 16 0
2022-05-26 00:18:33 GMT 40.491741 -80.239029 0 359 15 0
2022-05-26 00:18:31 GMT 40.491589 -80.239037 0 355 15 0
2022-05-26 00:18:30 GMT 40.491520 -80.239052 0 352 15 0
2022-05-26 00:18:29 GMT 40.491440 -80.239052 0 350 15 0
2022-05-26 00:18:27 GMT 40.491299 -80.239029 0 345 14 0
2022-05-26 00:18:26 GMT 40.491241 -80.239021 0 344 14 0
2022-05-26 00:18:25 GMT 40.491169 -80.239014 0 341 14 0
2022-05-26 00:18:23 GMT 40.491039 -80.238960 0 339 14 0
2022-05-26 00:18:22 GMT 40.490978 -80.238930 0 338 14 0
2022-05-26 00:18:20 GMT 40.490860 -80.238876 0 338 15 0
2022-05-26 00:18:19 GMT 40.490799 -80.238838 0 338 15 0
2022-05-26 00:18:18 GMT 40.490730 -80.238808 0 338 15 0
2022-05-26 00:18:16 GMT 40.490608 -80.238731 0 342 14 0
2022-05-26 00:18:15 GMT 40.490551 -80.238701 0 344 14 0
2022-05-26 00:18:14 GMT 40.490429 -80.238640 0 348 15 0
2022-05-26 00:18:12 GMT 40.490360 -80.238617 0 349 14 0
2022-05-26 00:18:11 GMT 40.490211 -80.238564 0 356 12 0
2022-05-26 00:18:09 GMT 40.490162 -80.238548 0 357 12 0
2022-05-26 00:18:08 GMT 40.490101 -80.238548 0 357 12 0
2022-05-26 00:18:06 GMT 40.489979 -80.238533 0 358 12 0
2022-05-26 00:18:05 GMT 40.489922 -80.238518 0 359 12 0
2022-05-26 00:18:03 GMT 40.489799 -80.238518 0 359 11 0
2022-05-26 00:18:02 GMT 40.489750 -80.238518 0 0 11 0
2022-05-26 00:18:01 GMT 40.489712 -80.238518 0 0 11 0
2022-05-26 00:17:59 GMT 40.489609 -80.238510 0 1 11 0
2022-05-26 00:17:58 GMT 40.489552 -80.238518 0 2 11 0
2022-05-26 00:17:56 GMT 40.489449 -80.238518 0 1 10 0
2022-05-26 00:17:55 GMT 40.489399 -80.238518 0 2 10 0
2022-05-26 00:17:54 GMT 40.489300 -80.238533 0 3 10 0
2022-05-26 00:17:52 GMT 40.489262 -80.238533 0 3 10 0
2022-05-26 00:17:51 GMT 40.489220 -80.238533 0 3 10 0
2022-05-26 00:17:50 GMT 40.489128 -80.238541 0 1 10 0
2022-05-26 00:17:48 GMT 40.489090 -80.238541 0 2 10 0
2022-05-26 00:17:47 GMT 40.489040 -80.238541 0 4 11 0
2022-05-26 00:17:45 GMT 40.488949 -80.238541 0 4 11 0
2022-05-26 00:17:44 GMT 40.488899 -80.238548 0 3 11 0
2022-05-26 00:17:43 GMT 40.488850 -80.238564 0 3 11 0
2022-05-26 00:17:41 GMT 40.488750 -80.238571 0 2 11 0
2022-05-26 00:17:40 GMT 40.488689 -80.238571 0 1 10 0
2022-05-26 00:17:38 GMT 40.488590 -80.238579 0 0 10 0
2022-05-26 00:17:37 GMT 40.488548 -80.238579 0 357 10 0
2022-05-26 00:17:36 GMT 40.488449 -80.238586 0 347 10 0
2022-05-26 00:17:34 GMT 40.488400 -80.238602 0 341 9 0
2022-05-26 00:17:33 GMT 40.488319 -80.238579 0 329 9 0
2022-05-26 00:17:32 GMT 40.488270 -80.238564 0 320 9 0
2022-05-26 00:17:30 GMT 40.488251 -80.238541 0 310 11 0
2022-05-26 00:17:29 GMT 40.488152 -80.238472 0 291 9 0
2022-05-26 00:17:27 GMT 40.488110 -80.238426 0 286 9 0
2022-05-26 00:17:26 GMT 40.488091 -80.238380 0 285 9 0
2022-05-26 00:17:24 GMT 40.488071 -80.238274 0 281 10 0
2022-05-26 00:17:23 GMT 40.488049 -80.238228 0 279 10 0
2022-05-26 00:17:22 GMT 40.488022 -80.238121 0 269 11 0
2022-05-26 00:17:20 GMT 40.487999 -80.238060 0 267 11 0
2022-05-26 00:17:18 GMT 40.488010 -80.237930 0 269 12 0
2022-05-26 00:17:17 GMT 40.488022 -80.237869 0 272 12 0
2022-05-26 00:17:16 GMT 40.488022 -80.237801 0 273 13 0
2022-05-26 00:17:15 GMT 40.487999 -80.237663 0 270 14 0
2022-05-26 00:17:13 GMT 40.487999 -80.237579 0 269 14 0
2022-05-26 00:17:11 GMT 40.487999 -80.237419 0 269 14 0
2022-05-26 00:17:10 GMT 40.487999 -80.237328 0 269 15 0
2022-05-26 00:17:09 GMT 40.488010 -80.237251 0 270 15 0
2022-05-26 00:17:07 GMT 40.488010 -80.237061 0 271 14 0
2022-05-26 00:17:06 GMT 40.488010 -80.236877 0 274 14 0
2022-05-26 00:17:05 GMT 40.488010 -80.236794 0 274 13 0
2022-05-26 00:17:03 GMT 40.487999 -80.236702 0 273 13 0
2022-05-26 00:17:02 GMT 40.487999 -80.236618 0 273 13 0
2022-05-26 00:17:00 GMT 40.487980 -80.236458 0 272 13 0
2022-05-26 00:16:59 GMT 40.487980 -80.236382 0 271 13 0
2022-05-26 00:16:57 GMT 40.487968 -80.236229 0 271 13 0
2022-05-26 00:16:56 GMT 40.487968 -80.236153 0 271 13 0
2022-05-26 00:16:55 GMT 40.487968 -80.235992 0 271 12 0
2022-05-26 00:16:53 GMT 40.487968 -80.235909 0 271 12 0
2022-05-26 00:16:52 GMT 40.487968 -80.235840 0 272 12 0
2022-05-26 00:16:50 GMT 40.487968 -80.235703 0 272 13 0
2022-05-26 00:16:49 GMT 40.487961 -80.235619 0 270 13 0
2022-05-26 00:16:47 GMT 40.487949 -80.235474 0 270 13 0
2022-05-26 00:16:46 GMT 40.487961 -80.235397 0 271 13 0
2022-05-26 00:16:45 GMT 40.487961 -80.235252 0 273 14 0
2022-05-26 00:16:43 GMT 40.487961 -80.235184 0 274 14 0
2022-05-26 00:16:42 GMT 40.487961 -80.235092 0 275 14 0
2022-05-26 00:16:40 GMT 40.487949 -80.234909 0 276 14 0
2022-05-26 00:16:39 GMT 40.487942 -80.234833 0 276 14 0
2022-05-26 00:16:37 GMT 40.487930 -80.234657 0 276 14 0
2022-05-26 00:16:36 GMT 40.487930 -80.234573 0 279 14 0
2022-05-26 00:16:35 GMT 40.487919 -80.234390 0 283 13 0
2022-05-26 00:16:33 GMT 40.487911 -80.234306 0 284 13 0
2022-05-26 00:16:32 GMT 40.487888 -80.234230 0 286 13 0
2022-05-26 00:16:30 GMT 40.487869 -80.234070 0 291 13 0
2022-05-26 00:16:29 GMT 40.487862 -80.233994 0 296 13 0
2022-05-26 00:16:28 GMT 40.487831 -80.233833 0 301 13 0
2022-05-26 00:16:26 GMT 40.487789 -80.233757 0 301 13 0
2022-05-26 00:16:25 GMT 40.487720 -80.233627 0 301 13 0
2022-05-26 00:16:23 GMT 40.487701 -80.233559 0 302 12 0
2022-05-26 00:16:22 GMT 40.487629 -80.233429 0 300 13 0
2022-05-26 00:16:20 GMT 40.487591 -80.233368 0 298 12 0
2022-05-26 00:16:19 GMT 40.487560 -80.233307 0 298 13 0
2022-05-26 00:16:18 GMT 40.487511 -80.233170 0 301 12 0
2022-05-26 00:16:16 GMT 40.487480 -80.233101 0 301 12 0
2022-05-26 00:16:15 GMT 40.487461 -80.233040 0 301 12 0
2022-05-26 00:16:13 GMT 40.487389 -80.232910 0 301 12 0
2022-05-26 00:16:12 GMT 40.487370 -80.232849 0 301 12 0
2022-05-26 00:16:10 GMT 40.487309 -80.232727 0 301 12 0
2022-05-26 00:16:09 GMT 40.487289 -80.232674 0 303 12 0
2022-05-26 00:16:07 GMT 40.487228 -80.232529 0 305 11 0
2022-05-26 00:16:06 GMT 40.487202 -80.232483 0 305 11 0
2022-05-26 00:16:05 GMT 40.487141 -80.232368 0 302 12 0
2022-05-26 00:16:03 GMT 40.487110 -80.232323 0 300 12 0
2022-05-26 00:16:02 GMT 40.487041 -80.232178 0 300 11 0
2022-05-26 00:16:00 GMT 40.487011 -80.232109 0 300 11 0
2022-05-26 00:15:59 GMT 40.486980 -80.232048 0 298 10 0
2022-05-26 00:15:58 GMT 40.486931 -80.231934 0 297 10 0
2022-05-26 00:15:56 GMT 40.486912 -80.231880 0 297 9 0
2022-05-26 00:15:55 GMT 40.486881 -80.231827 0 298 9 0
2022-05-26 00:15:54 GMT 40.486870 -80.231781 0 299 10 0
2022-05-26 00:15:52 GMT 40.486839 -80.231667 0 313 10 0
2022-05-26 00:15:51 GMT 40.486809 -80.231621 0 313 9 0
2022-05-26 00:15:49 GMT 40.486759 -80.231537 0 331 12 0
2022-05-26 00:15:48 GMT 40.486710 -80.231453 0 345 9 0
2022-05-26 00:15:47 GMT 40.486679 -80.231430 0 351 9 0
2022-05-26 00:15:45 GMT 40.486591 -80.231377 0 5 8 0
2022-05-26 00:15:43 GMT 40.486511 -80.231369 0 20 6 0
2022-05-26 00:15:42 GMT 40.486488 -80.231377 0 21 7 0
2022-05-26 00:15:41 GMT 40.486450 -80.231407 0 27 5 0
2022-05-26 00:15:39 GMT 40.486401 -80.231400 0 49 8 0
2022-05-26 00:15:38 GMT 40.486370 -80.231430 0 55 8 0
2022-05-26 00:15:36 GMT 40.486301 -80.231499 0 68 7 0
2022-05-26 00:15:35 GMT 40.486279 -80.231529 0 71 7 0
2022-05-26 00:15:33 GMT 40.486252 -80.231613 0 79 7 0
2022-05-26 00:15:32 GMT 40.486240 -80.231651 0 83 6 0
2022-05-26 00:15:31 GMT 40.486229 -80.231697 0 87 6 0
2022-05-26 00:15:29 GMT 40.486210 -80.231773 0 93 6 0
2022-05-26 00:15:28 GMT 40.486210 -80.231796 0 94 6 0
2022-05-26 00:15:27 GMT 40.486210 -80.231827 0 94 6 0
2022-05-26 00:15:25 GMT 40.486221 -80.231903 0 93 7 0
2022-05-26 00:15:24 GMT 40.486221 -80.231941 0 92 7 0
2022-05-26 00:15:23 GMT 40.486229 -80.231979 0 90 7 0
2022-05-26 00:15:22 GMT 40.486229 -80.232071 0 89 7 0
2022-05-26 00:15:20 GMT 40.486229 -80.232109 0 87 7 0
2022-05-26 00:15:19 GMT 40.486240 -80.232147 0 86 6 0
2022-05-26 00:15:18 GMT 40.486229 -80.232239 0 88 6 0
2022-05-26 00:15:16 GMT 40.486229 -80.232277 0 91 6 0
2022-05-26 00:15:15 GMT 40.486221 -80.232338 0 94 6 0
2022-05-26 00:15:13 GMT 40.486221 -80.232384 0 91 6 0
2022-05-26 00:15:12 GMT 40.486229 -80.232430 0 88 5 0
2022-05-26 00:15:10 GMT 40.486229 -80.232513 0 93 4 0
2022-05-26 00:15:08 GMT 40.486221 -80.232559 0 105 3 0
2022-05-26 00:15:07 GMT 40.486210 -80.232582 0 112 4 0
2022-05-26 00:15:05 GMT 40.486229 -80.232628 0 93 3 0
2022-05-26 00:15:04 GMT 40.486240 -80.232643 0 83 3 0
2022-05-26 00:15:02 GMT 40.486259 -80.232689 0 77 2 0
2022-05-26 00:15:01 GMT 40.486259 -80.232712 0 77 2 0
2022-05-26 00:15:00 GMT 40.486259 -80.232727 0 77 2 0
2022-05-26 00:14:59 GMT 40.486259 -80.232758 0 77 2 0
2022-05-26 00:14:57 GMT 40.486259 -80.232780 0 77 2 0
2022-05-26 00:14:56 GMT 40.486252 -80.232788 0 77 1 0
2022-05-26 00:14:55 GMT 40.486240 -80.232811 0 77 0 0
2022-05-26 00:14:52 GMT 40.486240 -80.232819 0 77 0 0
2022-05-26 00:14:50 GMT 40.486240 -80.232826 0 77 0 0
2022-05-26 00:14:45 GMT 40.486252 -80.232826 0 77 0 0
2022-05-26 00:14:42 GMT 40.486252 -80.232841 0 77 0 0
2022-05-26 00:14:33 GMT 40.486252 -80.232826 0 77 0 0
2022-05-26 00:14:26 GMT 40.486252 -80.232841 0 77 0 0
2022-05-26 00:14:25 GMT 40.486252 -80.232826 0 77 0 0
2022-05-26 00:14:18 GMT 40.486240 -80.232826 0 77 0 0
2022-05-26 00:14:16 GMT 40.486252 -80.232819 0 77 0 0
2022-05-26 00:14:15 GMT 40.486252 -80.232826 0 77 0 0
2022-05-26 00:14:14 GMT 40.486252 -80.232819 0 77 0 0
2022-05-26 00:14:03 GMT 40.486240 -80.232841 0 77 0 0
2022-05-26 00:14:00 GMT 40.486240 -80.232841 0 77 0 0
2022-05-26 00:13:58 GMT 40.486252 -80.232841 0 77 0 0
2022-05-26 00:13:57 GMT 40.486252 -80.232826 0 77 0 0
2022-05-26 00:13:55 GMT 40.486252 -80.232826 0 77 0 0
2022-05-26 00:13:47 GMT 40.486252 -80.232819 0 77 0 0
2022-05-26 00:13:45 GMT 40.486252 -80.232826 0 77 0 0
2022-05-26 00:13:40 GMT 40.486240 -80.232826 0 77 0 0
2022-05-26 00:13:33 GMT 40.486229 -80.232826 0 77 0 0
2022-05-26 00:13:28 GMT 40.486229 -80.232826 0 77 0 0
2022-05-26 00:13:26 GMT 40.486229 -80.232826 0 77 0 0
2022-05-26 00:13:20 GMT 40.486240 -80.232826 0 77 0 0
2022-05-26 00:13:16 GMT 40.486252 -80.232826 0 77 0 0
2022-05-26 00:13:11 GMT 40.486252 -80.232841 0 77 0 0
2022-05-26 00:13:09 GMT 40.486252 -80.232826 0 77 0 0
2022-05-26 00:13:08 GMT 40.486259 -80.232826 0 77 0 0
2022-05-26 00:13:05 GMT 40.486252 -80.232826 0 77 0 0
2022-05-26 00:13:04 GMT 40.486240 -80.232841 0 77 0 0
2022-05-26 00:13:03 GMT 40.486252 -80.232826 0 77 0 0
2022-05-26 00:13:01 GMT 40.486240 -80.232826 0 77 0 0
2022-05-26 00:13:00 GMT 40.486252 -80.232826 0 77 0 0
2022-05-26 00:12:58 GMT 40.486252 -80.232819 0 77 0 0
2022-05-26 00:12:52 GMT 40.486240 -80.232819 0 77 1 0
2022-05-26 00:12:51 GMT 40.486252 -80.232826 0 77 0 0
2022-05-26 00:12:49 GMT 40.486252 -80.232841 0 77 0 0
2022-05-26 00:12:48 GMT 40.486240 -80.232826 0 77 1 0
2022-05-26 00:12:47 GMT 40.486229 -80.232841 0 77 1 0
2022-05-26 00:12:46 GMT 40.486252 -80.232841 0 77 1 0
2022-05-26 00:12:44 GMT 40.486259 -80.232849 0 77 0 0
2022-05-26 00:12:40 GMT 40.486271 -80.232841 0 77 0 0
2022-05-26 00:12:37 GMT 40.486259 -80.232841 0 77 0 0
2022-05-26 00:12:36 GMT 40.486271 -80.232849 0 77 1 0
2022-05-26 00:12:34 GMT 40.486252 -80.232849 0 77 1 0
2022-05-26 00:12:33 GMT 40.486252 -80.232826 0 77 0 0
2022-05-26 00:12:32 GMT 40.486240 -80.232819 0 77 0 0
2022-05-26 00:12:30 GMT 40.486240 -80.232819 0 77 0 0
2022-05-26 00:12:29 GMT 40.486240 -80.232826 0 77 0 0
2022-05-26 00:12:21 GMT 40.486240 -80.232826 0 77 0 0
2022-05-26 00:12:20 GMT 40.486252 -80.232826 0 77 0 0
2022-05-26 00:12:18 GMT 40.486252 -80.232819 0 77 1 0
2022-05-26 00:12:16 GMT 40.486252 -80.232826 0 77 0 0
2022-05-26 00:12:15 GMT 40.486229 -80.232826 0 77 1 0
2022-05-26 00:12:12 GMT 40.486240 -80.232826 0 77 0 0
2022-05-26 00:12:10 GMT 40.486240 -80.232841 0 77 0 0
2022-05-26 00:12:09 GMT 40.486240 -80.232849 0 77 0 0
2022-05-26 00:12:06 GMT 40.486252 -80.232841 0 77 0 0
2022-05-26 00:12:04 GMT 40.486240 -80.232819 0 77 0 0
2022-05-26 00:12:02 GMT 40.486240 -80.232826 0 77 0 0
2022-05-26 00:12:01 GMT 40.486229 -80.232841 0 77 0 0
2022-05-26 00:11:59 GMT 40.486229 -80.232841 0 77 1 0
2022-05-26 00:11:57 GMT 40.486229 -80.232826 0 77 1 0
2022-05-26 00:11:56 GMT 40.486229 -80.232819 0 77 1 0
2022-05-26 00:11:55 GMT 40.486240 -80.232826 0 77 1 0
2022-05-26 00:11:52 GMT 40.486259 -80.232826 0 77 0 0
2022-05-26 00:11:51 GMT 40.486271 -80.232826 0 77 0 0
2022-05-26 00:11:46 GMT 40.486259 -80.232819 0 77 0 0
2022-05-26 00:11:40 GMT 40.486252 -80.232819 0 77 0 0
2022-05-26 00:11:36 GMT 40.486240 -80.232819 0 77 0 0
2022-05-26 00:11:30 GMT 40.486240 -80.232826 0 77 0 0
2022-05-26 00:11:28 GMT 40.486229 -80.232826 0 77 0 0
2022-05-26 00:11:26 GMT 40.486221 -80.232841 0 77 1 0
2022-05-26 00:11:20 GMT 40.486240 -80.232819 0 77 0 0
2022-05-26 00:11:14 GMT 40.486240 -80.232826 0 77 0 0
2022-05-26 00:11:11 GMT 40.486240 -80.232841 0 77 0 0
2022-05-26 00:11:10 GMT 40.486229 -80.232841 0 77 0 0
2022-05-26 00:11:09 GMT 40.486240 -80.232841 0 77 0 0
2022-05-26 00:11:06 GMT 40.486240 -80.232826 0 77 0 0
2022-05-26 00:11:00 GMT 40.486252 -80.232826 0 77 0 0
2022-05-26 00:10:59 GMT 40.486240 -80.232826 0 77 0 0
2022-05-26 00:10:50 GMT 40.486252 -80.232826 0 77 0 0
2022-05-26 00:10:49 GMT 40.486252 -80.232819 0 77 0 0
2022-05-26 00:10:48 GMT 40.486252 -80.232819 0 77 0 0
2022-05-26 00:10:46 GMT 40.486252 -80.232819 0 77 0 0
2022-05-26 00:10:40 GMT 40.486252 -80.232819 0 77 0 0
2022-05-26 00:10:32 GMT 40.486252 -80.232826 0 77 0 0
2022-05-26 00:10:30 GMT 40.486252 -80.232826 0 77 0 0
2022-05-26 00:10:25 GMT 40.486240 -80.232826 0 77 0 0
2022-05-26 00:10:19 GMT 40.486240 -80.232841 0 77 0 0
2022-05-26 00:10:18 GMT 40.486240 -80.232826 0 77 0 0
2022-05-26 00:10:16 GMT 40.486240 -80.232841 0 77 0 0
2022-05-26 00:10:11 GMT 40.486240 -80.232826 0 77 0 0
2022-05-26 00:10:10 GMT 40.486229 -80.232826 0 77 0 0
2022-05-26 00:10:08 GMT 40.486229 -80.232819 0 77 0 0
2022-05-26 00:10:07 GMT 40.486221 -80.232811 0 77 1 0
2022-05-26 00:10:06 GMT 40.486210 -80.232819 0 77 1 0
2022-05-26 00:09:36 GMT 40.486252 -80.232826 0 77 0 0
2022-05-26 00:09:26 GMT 40.486252 -80.232819 0 77 0 0
2022-05-26 00:09:15 GMT 40.486252 -80.232826 0 77 0 0
2022-05-26 00:09:14 GMT 40.486240 -80.232841 0 77 0 0
2022-05-26 00:09:11 GMT 40.486240 -80.232841 0 77 0 0
2022-05-26 00:09:09 GMT 40.486252 -80.232841 0 77 0 0
2022-05-26 00:09:06 GMT 40.486229 -80.232841 0 77 1 0
2022-05-26 00:08:58 GMT 40.486252 -80.232826 0 77 0 0
2022-05-26 00:08:56 GMT 40.486259 -80.232826 0 77 1 0
2022-05-26 00:08:53 GMT 40.486240 -80.232819 0 77 0 0
2022-05-26 00:08:51 GMT 40.486240 -80.232811 0 77 1 0
2022-05-26 00:08:50 GMT 40.486229 -80.232819 0 77 0 0
2022-05-26 00:08:49 GMT 40.486229 -80.232811 0 77 1 0
2022-05-26 00:08:48 GMT 40.486229 -80.232826 0 77 0 0
2022-05-26 00:08:46 GMT 40.486229 -80.232841 0 77 0 0
2022-05-26 00:08:35 GMT 40.486240 -80.232841 0 77 0 0
2022-05-26 00:08:31 GMT 40.486252 -80.232819 0 77 0 0
2022-05-26 00:08:27 GMT 40.486252 -80.232811 0 77 0 0
2022-05-26 00:08:23 GMT 40.486252 -80.232803 0 77 0 0
2022-05-26 00:08:18 GMT 40.486252 -80.232811 0 77 0 0
2022-05-26 00:08:17 GMT 40.486240 -80.232826 0 77 0 0
2022-05-26 00:08:14 GMT 40.486240 -80.232826 0 77 0 0
2022-05-26 00:08:11 GMT 40.486229 -80.232826 0 77 0 0
2022-05-26 00:08:09 GMT 40.486240 -80.232826 0 77 0 0
2022-05-26 00:08:07 GMT 40.486252 -80.232819 0 77 0 0
2022-05-26 00:08:01 GMT 40.486252 -80.232826 0 77 0 0
2022-05-26 00:08:00 GMT 40.486259 -80.232826 0 77 0 0
2022-05-26 00:07:59 GMT 40.486259 -80.232819 0 77 0 0
2022-05-26 00:07:58 GMT 40.486259 -80.232826 0 77 0 0
2022-05-26 00:07:54 GMT 40.486240 -80.232826 0 77 0 0
2022-05-26 00:07:52 GMT 40.486240 -80.232826 0 77 0 0
2022-05-26 00:07:51 GMT 40.486252 -80.232826 0 77 0 0
2022-05-26 00:07:50 GMT 40.486240 -80.232826 0 77 0 0
2022-05-26 00:07:43 GMT 40.486240 -80.232826 0 77 0 0
2022-05-26 00:07:41 GMT 40.486240 -80.232826 0 77 0 0
2022-05-26 00:07:35 GMT 40.486240 -80.232826 0 77 0 0
2022-05-26 00:07:34 GMT 40.486240 -80.232819 0 77 0 0
2022-05-26 00:07:32 GMT 40.486240 -80.232819 0 77 0 0
2022-05-26 00:07:27 GMT 40.486252 -80.232826 0 77 0 0
2022-05-26 00:07:24 GMT 40.486240 -80.232841 0 77 0 0
2022-05-26 00:07:23 GMT 40.486252 -80.232819 0 77 0 0
2022-05-26 00:07:19 GMT 40.486259 -80.232811 0 77 1 0
2022-05-26 00:07:17 GMT 40.486252 -80.232811 0 77 2 0
2022-05-26 00:07:16 GMT 40.486229 -80.232826 0 77 2 0
2022-05-26 00:07:14 GMT 40.486252 -80.232826 0 79 6 0
2022-05-26 00:07:13 GMT 40.486252 -80.232872 0 79 7 0
2022-05-26 00:07:12 GMT 40.486240 -80.232903 0 88 8 0
2022-05-26 00:07:11 GMT 40.486221 -80.232910 0 96 13 0
2022-05-26 00:07:09 GMT 40.486229 -80.233070 0 98 15 32
2022-05-26 00:07:08 GMT 40.486252 -80.233223 0 95 19 32
2022-05-26 00:07:06 GMT 40.486279 -80.233322 0 88 21 32
2022-05-26 00:07:05 GMT 40.486279 -80.233421 0 90 25 0
2022-05-26 00:07:03 GMT 40.486279 -80.233727 0 90 25 0
2022-05-26 00:07:02 GMT 40.486279 -80.233856 0 90 28 0
2022-05-26 00:07:01 GMT 40.486271 -80.234039 0 93 28 0
2022-05-26 00:06:59 GMT 40.486290 -80.234306 0 91 36 0
2022-05-26 00:06:58 GMT 40.486290 -80.234520 0 91 37 0
2022-05-26 00:06:57 GMT 40.486301 -80.234947 0 90 37 0
2022-05-26 00:06:55 GMT 40.486301 -80.235184 0 91 38 0
2022-05-26 00:06:54 GMT 40.486301 -80.235413 0 91 38 0
2022-05-26 00:06:52 GMT 40.486309 -80.235863 0 91 38 0
2022-05-26 00:06:51 GMT 40.486320 -80.236092 0 91 38 576
2022-05-26 00:06:50 GMT 40.486328 -80.236313 0 91 39 576
2022-05-26 00:06:48 GMT 40.486328 -80.236771 0 92 41 576
2022-05-26 00:06:47 GMT 40.486328 -80.237022 0 92 41 576
2022-05-26 00:06:46 GMT 40.486340 -80.237244 0 92 44 -384
2022-05-26 00:06:45 GMT 40.486382 -80.237610 0 90 60 800
2022-05-26 00:06:43 GMT 40.486382 -80.237938 0 91 64 800
2022-05-26 00:06:42 GMT 40.486389 -80.238312 0 90 66 -352
2022-05-26 00:06:40 GMT 40.486401 -80.239090 925 91 70 -352
2022-05-26 00:06:39 GMT 40.486420 -80.239883 925 91 83 -704
2022-05-26 00:06:37 GMT 40.486420 -80.240349 925 92 87 160
2022-05-26 00:06:36 GMT 40.486420 -80.240868 925 93 89 -960
2022-05-26 00:06:35 GMT 40.486469 -80.241928 925 92 97 -896
2022-05-26 00:06:32 GMT 40.486519 -80.243088 925 91 103 544
2022-05-26 00:06:31 GMT 40.486530 -80.243690 925 92 106 544
2022-05-26 00:06:30 GMT 40.486542 -80.244301 925 92 110 -1568
2022-05-26 00:06:28 GMT 40.486610 -80.245621 925 90 115 352
2022-05-26 00:06:27 GMT 40.486622 -80.246300 925 90 116 352
2022-05-26 00:06:25 GMT 40.486622 -80.247658 950 91 122 352
2022-05-26 00:06:24 GMT 40.486641 -80.248398 950 91 123 352
2022-05-26 00:06:23 GMT 40.486679 -80.249878 975 91 123 352
2022-05-26 00:06:21 GMT 40.486691 -80.250633 975 91 123 352
2022-05-26 00:06:20 GMT 40.486710 -80.251381 1,000 91 123 -544
2022-05-26 00:06:19 GMT 40.486740 -80.252129 1,000 91 123 -544
2022-05-26 00:06:17 GMT 40.486778 -80.253632 1,025 91 122 -544
2022-05-26 00:06:16 GMT 40.486790 -80.254379 1,025 91 122 -544
2022-05-26 00:06:15 GMT 40.486820 -80.255119 1,050 91 122 -544
2022-05-26 00:06:13 GMT 40.486839 -80.256592 1,075 92 122 -544
2022-05-26 00:06:12 GMT 40.486851 -80.257317 1,075 92 123 -544
2022-05-26 00:06:10 GMT 40.486889 -80.258820 1,100 92 122 -544
2022-05-26 00:06:09 GMT 40.486919 -80.259567 1,100 92 121 -544
2022-05-26 00:06:08 GMT 40.486950 -80.260307 1,125 92 121 -544
2022-05-26 00:06:07 GMT 40.487000 -80.261780 1,150 92 120 -544
2022-05-26 00:06:05 GMT 40.487049 -80.263260 1,150 92 119 -640
2022-05-26 00:06:03 GMT 40.487068 -80.264000 1,175 92 118 -640
2022-05-26 00:06:02 GMT 40.487091 -80.264732 1,175 92 117 -640
2022-05-26 00:06:01 GMT 40.487122 -80.265427 1,200 91 117 -640
2022-05-26 00:05:59 GMT 40.487179 -80.266838 1,200 91 117 -640
2022-05-26 00:05:58 GMT 40.487202 -80.267532 1,225 91 118 -640
2022-05-26 00:05:56 GMT 40.487209 -80.268982 1,250 91 117 -640
2022-05-26 00:05:55 GMT 40.487221 -80.269676 1,250 91 117 -640
2022-05-26 00:05:54 GMT 40.487259 -80.271088 1,275 91 118 -640
2022-05-26 00:05:52 GMT 40.487259 -80.271797 1,275 91 119 -640
2022-05-26 00:05:51 GMT 40.487270 -80.272507 1,300 91 119 -640
2022-05-26 00:05:50 GMT 40.487309 -80.273949 1,325 91 119 -640
2022-05-26 00:05:48 GMT 40.487309 -80.274681 1,325 91 119 -640
2022-05-26 00:05:47 GMT 40.487320 -80.275398 1,350 91 119 -640
2022-05-26 00:05:45 GMT 40.487339 -80.276840 1,350 91 119 -640
2022-05-26 00:05:44 GMT 40.487358 -80.277573 1,375 91 119 -640
2022-05-26 00:05:42 GMT 40.487381 -80.279022 1,375 91 119 -640
2022-05-26 00:05:41 GMT 40.487400 -80.279747 1,400 91 119 -640
2022-05-26 00:05:40 GMT 40.487419 -80.280472 1,400 91 118 -640
2022-05-26 00:05:39 GMT 40.487431 -80.281197 1,400 92 118 -640
2022-05-26 00:05:37 GMT 40.487469 -80.282623 1,450 92 119 -640
2022-05-26 00:05:36 GMT 40.487499 -80.283333 1,450 91 119 -640
2022-05-26 00:05:35 GMT 40.487549 -80.284782 1,475 91 119 -640
2022-05-26 00:05:33 GMT 40.487549 -80.285522 1,475 91 118 -640
2022-05-26 00:05:32 GMT 40.487572 -80.286240 1,500 91 118 -640
2022-05-26 00:05:31 GMT 40.487598 -80.287689 1,525 91 117 -640
2022-05-26 00:05:29 GMT 40.487629 -80.288383 1,525 91 118 -640
2022-05-26 00:05:27 GMT 40.487652 -80.289818 1,600 91 118 -640
2022-05-26 00:05:26 GMT 40.487671 -80.290543 1,550 91 118 -640
2022-05-26 00:05:25 GMT 40.487671 -80.291252 1,575 92 118 -640
2022-05-26 00:05:23 GMT 40.487701 -80.292686 1,575 92 118 -640
2022-05-26 00:05:22 GMT 40.487728 -80.293404 1,600 92 118 -640
2022-05-26 00:05:21 GMT 40.487759 -80.294113 1,600 92 118 -640
2022-05-26 00:05:20 GMT 40.487808 -80.295540 1,625 92 118 -640
2022-05-26 00:05:18 GMT 40.487850 -80.296249 1,625 91 118 -640
2022-05-26 00:05:16 GMT 40.487881 -80.297707 1,650 92 117 -640
2022-05-26 00:05:15 GMT 40.487911 -80.298401 1,675 91 118 -640
2022-05-26 00:05:14 GMT 40.487930 -80.299103 1,675 91 118 -640
2022-05-26 00:05:13 GMT 40.487942 -80.299812 1,675 91 118 -640
2022-05-26 00:05:11 GMT 40.487999 -80.301247 1,700 90 118 -640
2022-05-26 00:05:10 GMT 40.487991 -80.302689 1,725 91 118 -640
2022-05-26 00:05:08 GMT 40.487991 -80.303429 1,750 92 118 -640
2022-05-26 00:05:07 GMT 40.488010 -80.304153 1,750 92 117 -640
2022-05-26 00:05:05 GMT 40.488049 -80.305580 1,775 92 117 -640
2022-05-26 00:05:04 GMT 40.488071 -80.306328 1,775 92 115 -640
2022-05-26 00:05:03 GMT 40.488091 -80.307053 1,775 92 115 -576
2022-05-26 00:05:01 GMT 40.488140 -80.308441 1,800 92 114 -576
2022-05-26 00:05:00 GMT 40.488171 -80.309128 1,800 92 114 -576
2022-05-26 00:04:59 GMT 40.488232 -80.310509 1,825 91 115 -576
2022-05-26 00:04:57 GMT 40.488251 -80.311203 1,850 91 115 -576
2022-05-26 00:04:56 GMT 40.488281 -80.312569 1,875 91 116 -576
2022-05-26 00:04:54 GMT 40.488300 -80.313271 1,875 91 116 -576
2022-05-26 00:04:53 GMT 40.488319 -80.313957 1,900 91 116 -576
2022-05-26 00:04:51 GMT 40.488350 -80.315369 1,925 91 115 -576
2022-05-26 00:04:50 GMT 40.488392 -80.316757 1,925 91 116 -576
2022-05-26 00:04:49 GMT 40.488400 -80.317467 1,950 91 116 -576
2022-05-26 00:04:47 GMT 40.488419 -80.318161 1,950 91 116 -576
2022-05-26 00:04:46 GMT 40.488430 -80.319572 2,000 91 116 -576
2022-05-26 00:04:44 GMT 40.488441 -80.320259 1,975 92 116 -576
2022-05-26 00:04:42 GMT 40.488480 -80.321671 2,000 92 116 -576
2022-05-26 00:04:41 GMT 40.488522 -80.322380 2,000 91 116 -576
2022-05-26 00:04:40 GMT 40.488529 -80.323090 2,025 91 116 -576
2022-05-26 00:04:39 GMT 40.488590 -80.324478 2,050 91 117 -576
2022-05-26 00:04:37 GMT 40.488602 -80.325218 2,050 91 116 -576
2022-05-26 00:04:36 GMT 40.488628 -80.326622 2,075 91 116 -576
2022-05-26 00:04:34 GMT 40.488640 -80.327309 2,075 91 116 -576
2022-05-26 00:04:33 GMT 40.488659 -80.328697 2,100 91 117 -576
2022-05-26 00:04:31 GMT 40.488659 -80.329407 2,100 92 116 -576
2022-05-26 00:04:30 GMT 40.488682 -80.330132 2,125 92 116 -576
2022-05-26 00:04:29 GMT 40.488701 -80.331558 2,150 92 115 -576
2022-05-26 00:04:27 GMT 40.488708 -80.332230 2,150 93 116 -576
2022-05-26 00:04:26 GMT 40.488762 -80.333656 2,175 93 115 -576
2022-05-26 00:04:25 GMT 40.488819 -80.334297 2,175 92 120 -576
2022-05-26 00:04:23 GMT 40.488850 -80.334976 2,175 92 121 -576
2022-05-26 00:04:21 GMT 40.488911 -80.336433 2,200 91 122 -576
2022-05-26 00:04:20 GMT 40.488930 -80.337158 2,225 91 122 -576
2022-05-26 00:04:19 GMT 40.488960 -80.337860 2,225 91 124 -576
2022-05-26 00:04:17 GMT 40.488979 -80.339317 2,250 91 125 -576
2022-05-26 00:04:16 GMT 40.489010 -80.340080 2,300 91 125 -576
2022-05-26 00:04:15 GMT 40.489040 -80.341583 2,300 91 125 -576
2022-05-26 00:04:13 GMT 40.489059 -80.342331 2,300 91 126 -576
2022-05-26 00:04:11 GMT 40.489071 -80.343826 2,350 91 127 -576
2022-05-26 00:04:10 GMT 40.489079 -80.344612 2,350 91 126 -576
2022-05-26 00:04:08 GMT 40.489120 -80.346123 2,400 91 128 -576
2022-05-26 00:04:07 GMT 40.489151 -80.346909 2,375 91 127 -576
2022-05-26 00:04:06 GMT 40.489151 -80.347649 2,400 92 128 -576
2022-05-26 00:04:04 GMT 40.489170 -80.349182 2,400 92 130 -576
2022-05-26 00:04:03 GMT 40.489201 -80.349991 2,400 92 129 -672
2022-05-26 00:04:02 GMT 40.489269 -80.351540 2,425 91 129 -672
2022-05-26 00:04:00 GMT 40.489300 -80.352272 2,425 91 131 -672
2022-05-26 00:03:59 GMT 40.489342 -80.353821 2,475 91 133 -672
2022-05-26 00:03:58 GMT 40.489342 -80.354607 2,475 92 135 -672
2022-05-26 00:03:56 GMT 40.489349 -80.355438 2,500 92 134 -672
2022-05-26 00:03:55 GMT 40.489399 -80.357033 2,500 92 136 -672
2022-05-26 00:03:53 GMT 40.489441 -80.357841 2,525 92 136 -672
2022-05-26 00:03:52 GMT 40.489460 -80.358643 2,525 92 137 -672
2022-05-26 00:03:50 GMT 40.489510 -80.360252 2,600 91 140 -672
2022-05-26 00:03:49 GMT 40.489540 -80.361092 2,575 91 140 -672
2022-05-26 00:03:47 GMT 40.489578 -80.362762 2,600 91 141 -672
2022-05-26 00:03:46 GMT 40.489601 -80.363602 2,625 91 141 -672
2022-05-26 00:03:45 GMT 40.489609 -80.364441 2,625 91 142 -672
2022-05-26 00:03:43 GMT 40.489658 -80.366158 2,675 91 142 -672
2022-05-26 00:03:42 GMT 40.489681 -80.367043 2,675 91 141 -672
2022-05-26 00:03:41 GMT 40.489700 -80.367851 2,675 91 143 -672
2022-05-26 00:03:39 GMT 40.489738 -80.369614 2,700 91 141 -672
2022-05-26 00:03:38 GMT 40.489761 -80.370438 2,800 91 143 -672
2022-05-26 00:03:37 GMT 40.489761 -80.371292 2,800 91 143 -672
2022-05-26 00:03:35 GMT 40.489792 -80.373001 2,750 91 144 -672
2022-05-26 00:03:34 GMT 40.489799 -80.373871 2,750 92 144 -672
2022-05-26 00:03:33 GMT 40.489819 -80.374733 2,775 92 145 -672
2022-05-26 00:03:31 GMT 40.489861 -80.376472 2,800 92 145 -672
2022-05-26 00:03:30 GMT 40.489891 -80.377312 2,800 92 147 -672
2022-05-26 00:03:29 GMT 40.489948 -80.379066 2,825 91 148 -672
2022-05-26 00:03:27 GMT 40.489971 -80.379913 2,900 91 152 -672
2022-05-26 00:03:26 GMT 40.490002 -80.380753 2,900 91 157 -672
2022-05-26 00:03:25 GMT 40.490059 -80.382607 2,900 91 160 -672
2022-05-26 00:03:16 GMT 40.490204 -80.389038 2,950 91 152 -832
2022-05-26 00:03:05 GMT 40.490486 -80.400192 3,125 92 164 -960
2022-05-26 00:02:56 GMT 40.490765 -80.409622 3,250 92 164 -960
2022-05-26 00:02:47 GMT 40.491043 -80.418236 3,375 91 175 -896
2022-05-26 00:02:37 GMT 40.491322 -80.429909 3,550 91 186 -1024
2022-05-26 00:02:26 GMT 40.491604 -80.441399 3,725 91 194 -1088
2022-05-26 00:02:14 GMT 40.491974 -80.455437 3,950 91 205 -1216
2022-05-26 00:02:06 GMT 40.492218 -80.465576 4,100 91 207 -1280
2022-05-26 00:01:55 GMT 40.492485 -80.478851 4,325 91 208 -1408
2022-05-26 00:01:42 GMT 40.492859 -80.496452 4,600 91 210 -768
2022-05-26 00:01:33 GMT 40.493137 -80.507317 4,800 91 214 -1600
2022-05-26 00:01:25 GMT 40.493370 -80.518921 5,075 91 219 -1792
2022-05-26 00:01:14 GMT 40.494415 -80.533020 5,375 102 221 -1792
2022-05-26 00:01:04 GMT 40.498077 -80.546143 5,700 119 222 -1664
2022-05-26 00:00:52 GMT 40.504639 -80.557564 5,975 136 223 -1536
2022-05-26 00:00:43 GMT 40.513184 -80.566650 6,250 142 226 -1920
2022-05-26 00:00:31 GMT 40.522373 -80.575851 6,625 142 226 -2048
2022-05-26 00:00:20 GMT 40.531815 -80.585388 7,025 142 226 -1920
2022-05-26 00:00:11 GMT 40.539227 -80.592834 7,275 142 225 -1728
2022-05-25 23:59:59 GMT 40.549347 -80.603088 7,550 142 225 -1216
2022-05-25 23:59:49 GMT 40.557102 -80.610870 7,725 142 226 -1088
2022-05-25 23:59:39 GMT 40.565689 -80.619446 7,875 142 231 -448
2022-05-25 23:59:28 GMT 40.574791 -80.628540 7,925 142 238 -192
2022-05-25 23:59:19 GMT 40.596405 -80.650574 8,075 142 257 -832
2022-05-25 23:59:06 GMT 40.596405 -80.650574 8,225 142 271 -704
2022-05-25 23:58:57 GMT 40.603699 -80.657936 8,300 142 273 -832
2022-05-25 23:58:47 GMT 40.614532 -80.668884 8,500 142 278 -1024
2022-05-25 23:58:43 GMT 40.619202 -80.673607 8,575 142 278 -960
2022-05-25 23:58:36 GMT 40.625347 -80.679848 8,675 142 279 -1024
2022-05-25 23:58:26 GMT 40.637054 -80.691711 8,850 142 280 -1024
2022-05-25 23:58:18 GMT 40.644711 -80.699448 8,975 142 282 -1024
2022-05-25 23:58:13 GMT 40.650391 -80.705254 9,075 142 282 -1024
2022-05-25 23:58:06 GMT 40.657932 -80.712997 9,200 142 284 -1024
2022-05-25 23:58:01 GMT 40.662369 -80.717468 9,275 143 285 -1024
2022-05-25 23:57:56 GMT 40.666672 -80.721497 9,375 147 284 -1024
2022-05-25 23:57:52 GMT 40.672646 -80.726540 9,425 150 283 -960
2022-05-25 23:57:48 GMT 40.677254 -80.729912 9,500 153 283 -960
2022-05-25 23:57:45 GMT 40.680359 -80.731812 9,525 159 281 -1024
2022-05-25 23:57:41 GMT 40.684708 -80.734192 9,600 161 281 -1024
2022-05-25 23:57:36 GMT 40.690659 -80.736572 9,675 166 280 -1024
2022-05-25 23:57:33 GMT 40.693966 -80.737648 9,725 167 280 -1024
2022-05-25 23:57:30 GMT 40.698761 -80.739014 9,775 168 280 -1024
2022-05-25 23:57:23 GMT 40.708023 -80.741585 9,900 168 281 -960
2022-05-25 23:57:17 GMT 40.715561 -80.743652 10,000 168 281 -1024
2022-05-25 23:57:13 GMT 40.720093 -80.744934 10,050 168 281 -1024
2022-05-25 23:57:09 GMT 40.725342 -80.746330 10,125 168 281 -1024
2022-05-25 23:57:04 GMT 40.731579 -80.748077 10,200 168 281 -1024
2022-05-25 23:57:00 GMT 40.737808 -80.749756 10,300 168 281 -1024
2022-05-25 23:56:52 GMT 40.746506 -80.752197 10,400 168 282 -1024
2022-05-25 23:56:48 GMT 40.752777 -80.753906 10,475 167 283 -1024
2022-05-25 23:56:44 GMT 40.757694 -80.755257 10,550 168 284 -1088
2022-05-25 23:56:39 GMT 40.762527 -80.756653 10,600 167 284 -1024
2022-05-25 23:56:35 GMT 40.768753 -80.758423 10,700 167 287 -1024
2022-05-25 23:56:32 GMT 40.773926 -80.759949 10,750 167 287 -1024
2022-05-25 23:56:24 GMT 40.783531 -80.762932 10,900 165 287 -1024
2022-05-25 23:56:20 GMT 40.787117 -80.764183 10,950 164 288 -1024
2022-05-25 23:56:11 GMT 40.800663 -80.770798 11,125 150 293 -1088
2022-05-25 23:56:02 GMT 40.809460 -80.779350 11,250 135 299 -1088
2022-05-25 23:55:58 GMT 40.813278 -80.784653 11,325 132 301 -1152
2022-05-25 23:55:53 GMT 40.818008 -80.792542 11,425 127 305 -1088
2022-05-25 23:55:50 GMT 40.820663 -80.797241 11,475 127 305 -1088
2022-05-25 23:55:42 GMT 40.827431 -80.808876 11,625 127 306 -1088
2022-05-25 23:55:38 GMT 40.830177 -80.813622 11,675 127 306 -1088
2022-05-25 23:55:34 GMT 40.834320 -80.820801 11,775 127 308 -1088
2022-05-25 23:55:29 GMT 40.838928 -80.828735 11,875 127 308 -1088
2022-05-25 23:55:21 GMT 40.845245 -80.839661 12,000 127 309 -1088
2022-05-25 23:55:18 GMT 40.847775 -80.844017 12,050 127 309 -1088
2022-05-25 23:55:11 GMT 40.854103 -80.855003 12,200 127 310 -1088
2022-05-25 23:55:08 GMT 40.857422 -80.860779 12,250 127 310 -1088
2022-05-25 23:55:00 GMT 40.863461 -80.871239 12,375 127 311 -1088
2022-05-25 23:54:56 GMT 40.866486 -80.876465 12,450 127 311 -1088
2022-05-25 23:54:50 GMT 40.872211 -80.886467 12,575 127 311 -1152
2022-05-25 23:54:47 GMT 40.875378 -80.891899 12,625 127 311 -1088
2022-05-25 23:54:42 GMT 40.879150 -80.898453 12,725 127 311 -1088
2022-05-25 23:54:39 GMT 40.881664 -80.902824 12,775 127 311 -1152
2022-05-25 23:54:35 GMT 40.884830 -80.908249 12,825 127 311 -1152
2022-05-25 23:54:29 GMT 40.890564 -80.918213 12,950 127 313 -1152
2022-05-25 23:54:26 GMT 40.893768 -80.923767 13,025 127 314 -1152
2022-05-25 23:54:18 GMT 40.899765 -80.934204 13,150 127 316 -1152
2022-05-25 23:54:15 GMT 40.902878 -80.939575 13,225 127 317 -1216
2022-05-25 23:54:08 GMT 40.908852 -80.949951 13,400 127 331 -1216
2022-05-25 23:54:05 GMT 40.912262 -80.955933 13,425 126 324 -1216
2022-05-25 23:53:58 GMT 40.918159 -80.966301 13,550 127 327 -1152
2022-05-25 23:53:54 GMT 40.921738 -80.972473 13,625 127 329 -1216
2022-05-25 23:53:48 GMT 40.927643 -80.982788 13,750 127 333 -1216
2022-05-25 23:53:44 GMT 40.931717 -80.989807 13,850 127 336 -1216
2022-05-25 23:53:41 GMT 40.933594 -80.993103 13,875 127 336 -1216
2022-05-25 23:53:37 GMT 40.937714 -81.000305 14,075 127 340 -1216
2022-05-25 23:53:33 GMT 40.941437 -81.006752 14,050 127 342 -1216
2022-05-25 23:53:30 GMT 40.944305 -81.011780 14,150 127 345 -1216
2022-05-25 23:53:27 GMT 40.947208 -81.016808 14,275 126 347 -1216
2022-05-25 23:53:24 GMT 40.950119 -81.021912 14,250 126 349 -1280
2022-05-25 23:53:20 GMT 40.954422 -81.029419 14,325 127 352 -1280
2022-05-25 23:53:17 GMT 40.957355 -81.034531 14,400 127 354 -1280
2022-05-25 23:53:13 GMT 40.961685 -81.042145 14,475 127 357 -1280
2022-05-25 23:53:08 GMT 40.965179 -81.048264 14,550 126 360 -1344
2022-05-25 23:53:04 GMT 40.970306 -81.057251 14,675 126 364 -1344
2022-05-25 23:53:01 GMT 40.972904 -81.061874 14,725 126 364 -1344
2022-05-25 23:52:58 GMT 40.975792 -81.066933 14,800 126 368 -1344
2022-05-25 23:52:55 GMT 40.978214 -81.071236 14,850 126 369 -1408
2022-05-25 23:52:52 GMT 40.982941 -81.079590 14,950 126 373 -1408
2022-05-25 23:52:47 GMT 40.986500 -81.085846 15,025 126 375 -1408
2022-05-25 23:52:44 GMT 40.990448 -81.092773 15,125 127 377 -1344
2022-05-25 23:52:41 GMT 40.993835 -81.098694 15,175 127 377 -1344
2022-05-25 23:52:38 GMT 40.998047 -81.106079 15,275 127 378 -1344
2022-05-25 23:52:35 GMT 40.999950 -81.109375 15,400 126 379 -1344
2022-05-25 23:52:31 GMT 41.004684 -81.117920 15,425 125 379 -1280
2022-05-25 23:52:28 GMT 41.007111 -81.122559 15,500 122 380 -1344
2022-05-25 23:52:25 GMT 41.009914 -81.128479 15,525 119 381 -1408
2022-05-25 23:52:19 GMT 41.014664 -81.140900 15,675 113 384 -1408
2022-05-25 23:52:15 GMT 41.017593 -81.151184 15,775 107 387 -1408
2022-05-25 23:52:10 GMT 41.019878 -81.162560 15,900 101 390 -1408
2022-05-25 23:52:07 GMT 41.020668 -81.168365 15,950 98 391 -1408
2022-05-25 23:52:04 GMT 41.021347 -81.175476 16,025 95 392 -1344
2022-05-25 23:52:01 GMT 41.021690 -81.181534 16,075 92 394 -1408
2022-05-25 23:51:54 GMT 41.021179 -81.200073 16,250 83 396 -1408
2022-05-25 23:51:51 GMT 41.020340 -81.207275 16,325 74 400 -1408
2022-05-25 23:51:48 GMT 41.019176 -81.214493 16,400 75 399 -1408
2022-05-25 23:51:44 GMT 41.017132 -81.223862 16,500 70 401 -1408
2022-05-25 23:51:36 GMT 41.011917 -81.239899 16,675 61 402 -1408
2022-05-25 23:51:33 GMT 41.008759 -81.247253 16,725 57 403 -1408
2022-05-25 23:51:26 GMT 41.000000 -81.262810 16,925 48 403 -1408
2022-05-25 23:51:23 GMT 40.996925 -81.267181 16,975 45 404 -1472
2022-05-25 23:51:19 GMT 40.991180 -81.274231 17,075 35 404 -1472
2022-05-25 23:51:16 GMT 40.988297 -81.277344 17,125 36 404 -1472
2022-05-25 23:51:13 GMT 40.981846 -81.283348 17,225 32 404 -1472
2022-05-25 23:51:05 GMT 40.969322 -81.292152 17,475 21 404 -1408
2022-05-25 23:51:02 GMT 40.964264 -81.294739 17,475 19 403 -1472
2022-05-25 23:50:56 GMT 40.953461 -81.298828 17,650 9 403 -1408
2022-05-25 23:50:53 GMT 40.948696 -81.300011 17,650 9 403 -1408
2022-05-25 23:50:49 GMT 40.940411 -81.301140 17,950 0 401 -1472
2022-05-25 23:50:42 GMT 40.926540 -81.300636 17,950 354 398 -1472
2022-05-25 23:50:39 GMT 40.911621 -81.297119 18,125 347 396 -1408
2022-05-25 23:50:33 GMT 40.911621 -81.297119 18,150 346 396 -1408
2022-05-25 23:50:30 GMT 40.907272 -81.295532 18,200 344 395 -1344
2022-05-25 23:50:24 GMT 40.890701 -81.286377 18,425 330 388 -1344
2022-05-25 23:50:20 GMT 40.890701 -81.286377 18,425 330 388 -1344
2022-05-25 23:50:14 GMT 40.880825 -81.277420 18,700 321 385 -1344
2022-05-25 23:50:11 GMT 40.875549 -81.271851 18,675 321 386 -1408
2022-05-25 23:50:08 GMT 40.871422 -81.267303 18,750 321 386 -1408
2022-05-25 23:50:03 GMT 40.865372 -81.260689 18,875 321 387 -1408
2022-05-25 23:50:00 GMT 40.861725 -81.256775 19,000 321 388 -1472
2022-05-25 23:49:56 GMT 40.856186 -81.250793 19,000 321 389 -1408
2022-05-25 23:49:53 GMT 40.850647 -81.244751 19,125 321 390 -1344
2022-05-25 23:49:50 GMT 40.847305 -81.241089 19,150 321 390 -1344
2022-05-25 23:49:46 GMT 40.841721 -81.235046 19,400 321 391 -1408
2022-05-25 23:49:40 GMT 40.832199 -81.224670 19,400 321 392 -1408
2022-05-25 23:49:36 GMT 40.827988 -81.220116 19,475 321 392 -1408
2022-05-25 23:49:29 GMT 40.817886 -81.209312 19,650 321 393 -1600
2022-05-25 23:49:26 GMT 40.813568 -81.204651 19,725 321 394 -1664
2022-05-25 23:49:22 GMT 40.807480 -81.197937 20,075 317 393 -1664
2022-05-25 23:49:18 GMT 40.803314 -81.193146 19,950 319 393 -1664
2022-05-25 23:49:12 GMT 40.793633 -81.181351 20,125 316 393 -1664
2022-05-25 23:49:09 GMT 40.789856 -81.176453 20,225 315 393 -1728
2022-05-25 23:49:05 GMT 40.785904 -81.171234 20,300 314 392 -1728
2022-05-25 23:49:01 GMT 40.780506 -81.163750 20,475 312 392 -1664
2022-05-25 23:48:58 GMT 40.776764 -81.158264 21,025 306 392 -1728
2022-05-25 23:48:54 GMT 40.773010 -81.152405 20,600 310 392 -1664
2022-05-25 23:48:50 GMT 40.767654 -81.143372 20,750 307 391 -1728
2022-05-25 23:48:47 GMT 40.765503 -81.139526 20,800 306 391 -1664
2022-05-25 23:48:44 GMT 40.760769 -81.130791 20,925 306 391 -1664
2022-05-25 23:48:38 GMT 40.754608 -81.119324 21,075 306 392 -1728
2022-05-25 23:48:33 GMT 40.749985 -81.110718 21,200 306 393 -1664
2022-05-25 23:48:29 GMT 40.746056 -81.103508 21,300 306 393 -1664
2022-05-25 23:48:26 GMT 40.742844 -81.097595 21,375 306 393 -1664
2022-05-25 23:48:23 GMT 40.739212 -81.090836 21,475 306 394 -1664
2022-05-25 23:48:18 GMT 40.733505 -81.080200 22,000 306 395 -1728
2022-05-25 23:48:14 GMT 40.729065 -81.071983 21,750 306 396 -1728
2022-05-25 23:48:09 GMT 40.724831 -81.064056 21,875 305 397 -1728
2022-05-25 23:48:06 GMT 40.720825 -81.056519 22,525 305 404 -1728
2022-05-25 23:48:02 GMT 40.718079 -81.051323 22,050 305 400 -1728
2022-05-25 23:47:58 GMT 40.713425 -81.042519 22,300 305 402 -1728
2022-05-25 23:47:55 GMT 40.710709 -81.037476 22,250 305 401 -1728
2022-05-25 23:47:47 GMT 40.700390 -81.017494 22,525 305 404 -1728
2022-05-25 23:47:40 GMT 40.694321 -81.005676 22,675 304 405 -1728
2022-05-25 23:47:36 GMT 40.689331 -80.995850 23,475 304 404 -1728
2022-05-25 23:47:31 GMT 40.685398 -80.988029 22,950 304 404 -1728
2022-05-25 23:47:28 GMT 40.681629 -80.980659 23,050 304 405 -1728
2022-05-25 23:47:25 GMT 40.678528 -80.974548 23,125 304 405 -1728
2022-05-25 23:47:22 GMT 40.674774 -80.967163 23,225 304 405 -1728
2022-05-25 23:47:17 GMT 40.667770 -80.953186 23,475 304 404 -1728
2022-05-25 23:47:11 GMT 40.664154 -80.945984 23,525 304 404 -1728
2022-05-25 23:47:07 GMT 40.660168 -80.937965 23,625 304 404 -1728
2022-05-25 23:47:04 GMT 40.657280 -80.932220 23,725 303 404 -1728
2022-05-25 23:46:56 GMT 40.649181 -80.915871 24,000 303 404 -1728
2022-05-25 23:46:53 GMT 40.646484 -80.910339 24,025 303 404 -1728
2022-05-25 23:46:50 GMT 40.642292 -80.901886 24,125 303 404 -1728
2022-05-25 23:46:47 GMT 40.639359 -80.895950 24,225 303 404 -1728
2022-05-25 23:46:44 GMT 40.635956 -80.889038 24,325 303 404 -1728
2022-05-25 23:46:39 GMT 40.631836 -80.880676 24,425 304 404 -1728
2022-05-25 23:46:36 GMT 40.628326 -80.873672 24,575 304 405 -1728
2022-05-25 23:46:33 GMT 40.625656 -80.868347 24,600 304 405 -1728
2022-05-25 23:46:30 GMT 40.621761 -80.860497 24,725 304 406 -1728
2022-05-25 23:46:26 GMT 40.617874 -80.852844 24,825 304 407 -1728
2022-05-25 23:46:22 GMT 40.614685 -80.846451 25,225 304 409 -1792
2022-05-25 23:46:19 GMT 40.610733 -80.838623 25,025 304 409 -1728
2022-05-25 23:46:16 GMT 40.607346 -80.831970 25,125 304 411 -1728
2022-05-25 23:46:12 GMT 40.603329 -80.824104 25,225 304 413 -1792
2022-05-25 23:46:09 GMT 40.600159 -80.817810 25,325 304 413 -1792
2022-05-25 23:46:06 GMT 40.596111 -80.809875 25,425 304 417 -1792
2022-05-25 23:46:02 GMT 40.592667 -80.803131 25,525 304 419 -1728
2022-05-25 23:45:59 GMT 40.588165 -80.794250 25,650 304 422 -1792
2022-05-25 23:45:54 GMT 40.584988 -80.788025 25,725 304 424 -1856
2022-05-25 23:45:51 GMT 40.581402 -80.780975 25,800 304 427 -1856
2022-05-25 23:45:47 GMT 40.577271 -80.772827 25,950 304 430 -1856
2022-05-25 23:45:41 GMT 40.569019 -80.756561 26,175 304 436 -1920
2022-05-25 23:45:38 GMT 40.566147 -80.750977 26,250 304 440 -1920
2022-05-25 23:45:35 GMT 40.562222 -80.743271 26,375 304 444 -1984
2022-05-25 23:45:31 GMT 40.557449 -80.733948 26,500 304 446 -1920
2022-05-25 23:45:28 GMT 40.553936 -80.727043 26,600 304 448 -1920
2022-05-25 23:45:21 GMT 40.545410 -80.710327 26,825 304 451 -1472
2022-05-25 23:45:17 GMT 40.541878 -80.703445 26,900 304 452 -1408
2022-05-25 23:45:13 GMT 40.537994 -80.695801 26,975 304 452 -1344
2022-05-25 23:45:10 GMT 40.533737 -80.687500 27,075 304 453 -1344
2022-05-25 23:45:07 GMT 40.529984 -80.680176 27,125 305 453 -1408
2022-05-25 23:45:04 GMT 40.526230 -80.672852 27,200 304 454 -1408
2022-05-25 23:44:59 GMT 40.521057 -80.662842 27,375 305 456 -1408
2022-05-25 23:44:53 GMT 40.513962 -80.649109 27,450 305 456 -1408
2022-05-25 23:44:49 GMT 40.508499 -80.638527 27,550 305 458 -1408
2022-05-25 23:44:45 GMT 40.504944 -80.631653 27,625 305 458 -1344
2022-05-25 23:44:42 GMT 40.501144 -80.624268 27,700 305 459 -1408
2022-05-25 23:44:38 GMT 40.496162 -80.614555 27,800 304 460 -1472
2022-05-25 23:44:33 GMT 40.489506 -80.601570 27,925 304 461 -1408
2022-05-25 23:44:28 GMT 40.484245 -80.591331 28,100 304 462 -1408
2022-05-25 23:44:25 GMT 40.480774 -80.584534 28,100 304 462 -1408
2022-05-25 23:44:22 GMT 40.477341 -80.577820 28,150 304 462 -1408
2022-05-25 23:44:18 GMT 40.472328 -80.567986 28,400 304 463 -1408
2022-05-25 23:44:11 GMT 40.464020 -80.551636 28,425 304 463 -1408
2022-05-25 23:44:08 GMT 40.455597 -80.535034 28,500 304 463 -1408
2022-05-25 23:44:05 GMT 40.455597 -80.535034 28,575 304 463 -1408
2022-05-25 23:44:01 GMT 40.451427 -80.526848 28,650 304 463 -1408
2022-05-25 23:43:58 GMT 40.447906 -80.519836 28,725 304 462 -1408
2022-05-25 23:43:54 GMT 40.443886 -80.511871 28,800 304 462 -1344
2022-05-25 23:43:49 GMT 40.438206 -80.500633 28,925 304 461 -1344
2022-05-25 23:43:46 GMT 40.435368 -80.495018 28,950 304 461 -1408
2022-05-25 23:43:42 GMT 40.429733 -80.483841 29,075 304 460 -1408
2022-05-25 23:43:36 GMT 40.422192 -80.468987 29,425 304 460 -1408
2022-05-25 23:43:31 GMT 40.416367 -80.457397 29,350 304 460 -1408
2022-05-25 23:43:25 GMT 40.409775 -80.444336 29,575 304 460 -1408
2022-05-25 23:43:20 GMT 40.404362 -80.433716 29,575 304 460 -1408
2022-05-25 23:43:16 GMT 40.398514 -80.422241 29,725 304 460 -1344
2022-05-25 23:43:13 GMT 40.395584 -80.416504 29,750 304 460 -1344
2022-05-25 23:43:10 GMT 40.392120 -80.409683 29,825 304 460 -1408
2022-05-25 23:43:07 GMT 40.387619 -80.400818 29,900 304 459 -1472
2022-05-25 23:43:04 GMT 40.385239 -80.396179 29,950 304 458 -1344
2022-05-25 23:43:00 GMT 40.379829 -80.385529 30,075 304 457 -1408
2022-05-25 23:42:55 GMT 40.373734 -80.373543 30,175 304 457 -1344
2022-05-25 23:42:52 GMT 40.370892 -80.368050 30,300 304 456 -1344
2022-05-25 23:42:49 GMT 40.367477 -80.361267 30,300 304 456 -1408
2022-05-25 23:42:45 GMT 40.363174 -80.352844 30,450 304 455 -1408
2022-05-25 23:42:42 GMT 40.359055 -80.344727 30,575 304 455 -1344
2022-05-25 23:42:36 GMT 40.351593 -80.330078 30,625 304 454 -1408
2022-05-25 23:42:33 GMT 40.348709 -80.324402 30,675 304 454 -1408
2022-05-25 23:42:29 GMT 40.342915 -80.313057 30,800 304 453 -1408
2022-05-25 23:42:23 GMT 40.336578 -80.300659 30,925 304 452 -1408
2022-05-25 23:42:18 GMT 40.331276 -80.290337 31,025 304 451 -1344
2022-05-25 23:42:15 GMT 40.325130 -80.278412 31,200 304 451 -1344
2022-05-25 23:42:09 GMT 40.321873 -80.272041 31,200 304 451 -1344
2022-05-25 23:42:05 GMT 40.312141 -80.253006 31,325 304 450 -1344
2022-05-25 23:42:02 GMT 40.312141 -80.253006 31,400 304 450 -1344
2022-05-25 23:41:58 GMT 40.307022 -80.243141 31,500 304 449 -1408
2022-05-25 23:41:53 GMT 40.302704 -80.234741 31,575 305 448 -1344
2022-05-25 23:41:50 GMT 40.298080 -80.225769 31,675 305 448 -1344
2022-05-25 23:41:47 GMT 40.295242 -80.220337 31,700 305 447 -1344
2022-05-25 23:41:44 GMT 40.291443 -80.213013 31,775 305 447 -1344
2022-05-25 23:41:41 GMT 40.287983 -80.206253 31,850 305 447 -1344
2022-05-25 23:41:36 GMT 40.282864 -80.196449 31,950 305 447 -1344
2022-05-25 23:41:33 GMT 40.279495 -80.189880 32,000 305 446 -1344
2022-05-25 23:41:29 GMT 40.273689 -80.178658 32,125 305 446 -1344
2022-05-25 23:41:26 GMT 40.269875 -80.171356 32,200 305 446 -1344
2022-05-25 23:41:20 GMT 40.263866 -80.159744 32,925 304 442 -1344
2022-05-25 23:41:17 GMT 40.260864 -80.153992 32,375 305 445 -1344
2022-05-25 23:41:13 GMT 40.255116 -80.142830 32,500 304 444 -1344
2022-05-25 23:41:09 GMT 40.251709 -80.136169 32,550 304 443 -1472
2022-05-25 23:41:05 GMT 40.247681 -80.128174 32,650 304 442 -1344
2022-05-25 23:41:02 GMT 40.243942 -80.120605 32,725 302 441 -1344
2022-05-25 23:40:59 GMT 40.240677 -80.113647 32,825 300 440 -1280
2022-05-25 23:40:56 GMT 40.237240 -80.105812 32,875 298 439 -1344
2022-05-25 23:40:51 GMT 40.233284 -80.095390 32,950 295 437 -1344
2022-05-25 23:40:46 GMT 40.229645 -80.084290 33,050 291 436 -1088
2022-05-25 23:40:42 GMT 40.225708 -80.069275 33,200 287 435 -1664
2022-05-25 23:40:37 GMT 40.223415 -80.057747 33,325 283 435 -1984
2022-05-25 23:40:31 GMT 40.221554 -80.045204 33,500 279 435 -1984
2022-05-25 23:40:28 GMT 40.220718 -80.037415 33,750 273 435 -1920
2022-05-25 23:40:25 GMT 40.219986 -80.026978 33,800 271 434 -1728
2022-05-25 23:40:21 GMT 40.219688 -80.018173 33,800 271 435 -1792
2022-05-25 23:40:17 GMT 40.219597 -80.005684 33,975 270 432 -832
2022-05-25 23:40:14 GMT 40.219620 -79.990356 34,000 270 431 0
2022-05-25 23:40:11 GMT 40.219620 -79.990356 34,000 270 431 -128
2022-05-25 23:40:07 GMT 40.219666 -79.983032 34,000 270 431 -64
2022-05-25 23:40:04 GMT 40.219666 -79.970642 34,000 270 431 64
2022-05-25 23:40:00 GMT 40.219666 -79.961243 34,000 271 431 64
2022-05-25 23:39:57 GMT 40.219643 -79.953438 34,000 271 431 64
2022-05-25 23:39:53 GMT 40.219620 -79.942505 34,000 271 431 -64
2022-05-25 23:39:49 GMT 40.219597 -79.935715 34,000 271 431 -64
2022-05-25 23:39:46 GMT 40.219574 -79.928101 34,000 271 431 -64
2022-05-25 23:39:43 GMT 40.219551 -79.919106 34,000 271 430 0
2022-05-25 23:39:40 GMT 40.219528 -79.910278 34,000 271 430 64
2022-05-25 23:39:37 GMT 40.219505 -79.901505 34,000 271 430 0
2022-05-25 23:39:34 GMT 40.219460 -79.895203 34,000 271 430 64
2022-05-25 23:39:29 GMT 40.219410 -79.882774 34,000 271 430 0
2022-05-25 23:39:25 GMT 40.219391 -79.869812 34,000 271 430 0
2022-05-25 23:39:21 GMT 40.219345 -79.861511 34,000 271 430 0
2022-05-25 23:39:18 GMT 40.219318 -79.855751 34,000 271 430 0
2022-05-25 23:39:15 GMT 40.219318 -79.847633 34,000 271 430 0
2022-05-25 23:39:12 GMT 40.219254 -79.838623 34,000 271 430 64
2022-05-25 23:39:08 GMT 40.219227 -79.825912 34,000 271 430 0
2022-05-25 23:39:04 GMT 40.219162 -79.816833 34,000 271 430 0
2022-05-25 23:39:01 GMT 40.219131 -79.807999 34,000 271 430 64
2022-05-25 23:38:56 GMT 40.219116 -79.798157 34,000 271 430 -64
2022-05-25 23:38:53 GMT 40.219070 -79.789856 34,000 271 430 0
2022-05-25 23:38:49 GMT 40.219040 -79.778969 34,000 271 430 64
2022-05-25 23:38:46 GMT 40.218979 -79.771423 34,000 271 430 64
2022-05-25 23:38:43 GMT 40.218945 -79.762367 34,000 271 430 64
2022-05-25 23:38:40 GMT 40.218887 -79.753540 34,000 271 429 0
2022-05-25 23:38:37 GMT 40.218853 -79.748009 34,000 271 429 -64
2022-05-25 23:38:32 GMT 40.218796 -79.734863 34,000 271 429 0
2022-05-25 23:38:28 GMT 40.218758 -79.723228 34,000 271 429 64
2022-05-25 23:38:24 GMT 40.218666 -79.711617 34,000 271 429 0
2022-05-25 23:38:21 GMT 40.218658 -79.707947 34,000 271 429 0
2022-05-25 23:38:17 GMT 40.218567 -79.693665 34,000 271 429 0
2022-05-25 23:38:14 GMT 40.218521 -79.681335 34,000 271 429 0
2022-05-25 23:38:11 GMT 40.218521 -79.681335 34,000 271 429 -64
2022-05-25 23:38:08 GMT 40.218475 -79.672791 34,000 271 429 64
2022-05-25 23:38:04 GMT 40.218433 -79.663986 34,000 271 429 0
2022-05-25 23:38:01 GMT 40.218388 -79.654686 34,000 271 429 64
2022-05-25 23:37:58 GMT 40.218338 -79.645874 34,000 271 429 0
2022-05-25 23:37:53 GMT 40.218292 -79.635498 34,000 271 429 -64
2022-05-25 23:37:49 GMT 40.218246 -79.625183 34,000 271 429 -64
2022-05-25 23:37:46 GMT 40.218155 -79.613426 34,000 271 429 -64
2022-05-25 23:37:43 GMT 40.218155 -79.609863 34,000 271 429 0
2022-05-25 23:37:39 GMT 40.218063 -79.599304 34,000 271 429 64
2022-05-25 23:37:35 GMT 40.218014 -79.588455 34,000 271 429 64
2022-05-25 23:37:30 GMT 40.217926 -79.573364 34,000 271 429 0
2022-05-25 23:37:25 GMT 40.217789 -79.553711 34,000 271 429 0
2022-05-25 23:37:18 GMT 40.217743 -79.545471 34,000 271 429 0
2022-05-25 23:37:15 GMT 40.217651 -79.534241 34,000 271 429 0
2022-05-25 23:37:09 GMT 40.217560 -79.517517 34,000 271 429 64
2022-05-25 23:37:04 GMT 40.217457 -79.505623 34,000 271 428 64
2022-05-25 23:36:58 GMT 40.217331 -79.483398 34,000 271 428 0
2022-05-25 23:36:55 GMT 40.217331 -79.483398 34,000 271 428 0
2022-05-25 23:36:52 GMT 40.217224 -79.468414 34,000 271 428 64
2022-05-25 23:36:49 GMT 40.217224 -79.468414 34,000 271 428 0
2022-05-25 23:36:46 GMT 40.217129 -79.458122 34,000 271 428 64
2022-05-25 23:36:43 GMT 40.217102 -79.450378 34,000 271 428 0
2022-05-25 23:36:39 GMT 40.217010 -79.442078 34,000 271 427 -64
2022-05-25 23:36:36 GMT 40.216965 -79.436951 34,000 271 427 0
2022-05-25 23:36:33 GMT 40.216919 -79.426819 34,000 271 427 64
2022-05-25 23:36:29 GMT 40.216873 -79.419373 34,000 271 427 64
2022-05-25 23:36:26 GMT 40.216759 -79.406494 34,000 271 427 0
2022-05-25 23:36:23 GMT 40.216644 -79.393616 34,000 271 427 0
2022-05-25 23:36:19 GMT 40.216644 -79.393616 34,000 271 427 0
2022-05-25 23:36:16 GMT 40.216476 -79.373657 34,000 271 427 -64
2022-05-25 23:36:13 GMT 40.216476 -79.373657 34,000 271 427 -64
2022-05-25 23:36:10 GMT 40.216431 -79.368355 34,000 271 427 0
2022-05-25 23:36:06 GMT 40.216339 -79.354935 34,000 271 427 -64
2022-05-25 23:36:03 GMT 40.216293 -79.348755 34,000 271 427 0
2022-05-25 23:35:58 GMT 40.216198 -79.335648 34,000 271 427 64
2022-05-25 23:35:55 GMT 40.216152 -79.329468 34,000 271 427 64
2022-05-25 23:35:51 GMT 40.216061 -79.320168 34,000 271 427 0
2022-05-25 23:35:47 GMT 40.215958 -79.309326 34,000 271 427 0
2022-05-25 23:35:44 GMT 40.215919 -79.301376 34,000 271 427 0
2022-05-25 23:35:42 GMT 40.215820 -79.292603 34,000 271 427 0
2022-05-25 23:35:36 GMT 40.215733 -79.279716 34,000 271 428 -64
2022-05-25 23:35:33 GMT 40.215683 -79.273254 34,000 271 428 -64
2022-05-25 23:35:29 GMT 40.215546 -79.259766 34,000 271 427 0
2022-05-25 23:35:26 GMT 40.215500 -79.254456 34,000 271 427 64
2022-05-25 23:35:22 GMT 40.215454 -79.246216 34,000 271 427 0
2022-05-25 23:35:16 GMT 40.215267 -79.228157 34,000 271 427 0
2022-05-25 23:35:13 GMT 40.215176 -79.219101 34,000 271 427 -64
2022-05-25 23:35:10 GMT 40.215134 -79.213196 34,000 271 427 -64
2022-05-25 23:35:06 GMT 40.215034 -79.201309 34,000 271 426 64
2022-05-25 23:35:03 GMT 40.214943 -79.195320 34,000 271 427 -64
2022-05-25 23:35:00 GMT 40.214859 -79.187378 34,000 271 427 -64
2022-05-25 23:34:57 GMT 40.214767 -79.177307 34,000 271 426 0
2022-05-25 23:34:54 GMT 40.214756 -79.173470 34,000 271 426 64
2022-05-25 23:34:51 GMT 40.214615 -79.162109 34,000 271 426 0
2022-05-25 23:34:48 GMT 40.214569 -79.156998 34,000 271 426 0
2022-05-25 23:34:43 GMT 40.214478 -79.144882 34,000 271 426 0
2022-05-25 23:34:40 GMT 40.214355 -79.134888 34,000 271 426 0
2022-05-25 23:34:36 GMT 40.214264 -79.124634 34,000 271 426 0
2022-05-25 23:34:32 GMT 40.214104 -79.108925 34,000 271 426 0
2022-05-25 23:34:29 GMT 40.214012 -79.102562 34,000 271 426 0
2022-05-25 23:34:23 GMT 40.213917 -79.093323 34,000 271 426 64
2022-05-25 23:34:20 GMT 40.213871 -79.087143 34,000 271 426 64
2022-05-25 23:34:17 GMT 40.213760 -79.077576 34,000 271 426 64
2022-05-25 23:34:14 GMT 40.213684 -79.067734 34,000 271 426 64
2022-05-25 23:34:11 GMT 40.213623 -79.060059 34,000 271 426 64
2022-05-25 23:34:08 GMT 40.213547 -79.055244 34,000 271 426 64
2022-05-25 23:34:03 GMT 40.213314 -79.032524 34,000 271 427 64
2022-05-25 23:34:00 GMT 40.213314 -79.032524 34,000 271 428 0
2022-05-25 23:33:56 GMT 40.213173 -79.021164 34,000 271 428 0
2022-05-25 23:33:51 GMT 40.213074 -79.011353 34,000 271 428 -64
2022-05-25 23:33:48 GMT 40.213032 -79.004684 34,000 271 427 -64
2022-05-25 23:33:45 GMT 40.212940 -78.996567 34,000 271 428 -64
2022-05-25 23:33:42 GMT 40.212803 -78.987144 34,000 271 428 -64
2022-05-25 23:33:36 GMT 40.212662 -78.973724 34,000 271 429 0
2022-05-25 23:33:32 GMT 40.212524 -78.961792 34,000 271 429 64
2022-05-25 23:33:29 GMT 40.212433 -78.951477 34,000 271 429 0
2022-05-25 23:33:26 GMT 40.212334 -78.945755 34,000 271 429 64
2022-05-25 23:33:20 GMT 40.212158 -78.930725 34,000 271 429 64
2022-05-25 23:33:17 GMT 40.212067 -78.921692 34,000 271 429 0
2022-05-25 23:33:12 GMT 40.211918 -78.908737 34,000 271 428 -64
2022-05-25 23:33:08 GMT 40.211792 -78.898682 34,000 271 428 -64
2022-05-25 23:33:06 GMT 40.211731 -78.895134 34,000 271 428 64
2022-05-25 23:33:03 GMT 40.211590 -78.884773 34,000 271 428 64
2022-05-25 23:33:00 GMT 40.211472 -78.872864 34,000 271 427 64
2022-05-25 23:32:58 GMT 40.211472 -78.872864 34,000 271 427 64
2022-05-25 23:32:56 GMT 40.211380 -78.868774 34,000 271 427 64
2022-05-25 23:32:51 GMT 40.211079 -78.843506 34,000 271 426 -64
2022-05-25 23:32:47 GMT 40.210968 -78.835815 34,000 271 426 -64
2022-05-25 23:32:44 GMT 40.210968 -78.835815 34,000 271 426 -64
2022-05-25 23:32:39 GMT 40.210831 -78.823547 34,000 271 425 0
2022-05-25 23:32:35 GMT 40.210739 -78.815247 34,000 271 425 0
2022-05-25 23:32:33 GMT 40.210659 -78.809616 34,000 271 425 -64
2022-05-25 23:32:29 GMT 40.210522 -78.797379 34,000 271 426 0
2022-05-25 23:32:26 GMT 40.210426 -78.790199 34,000 271 426 -64
2022-05-25 23:32:23 GMT 40.210335 -78.782768 34,000 271 426 -64
2022-05-25 23:32:20 GMT 40.210144 -78.769958 34,000 271 426 0
2022-05-25 23:32:14 GMT 40.210007 -78.759644 34,000 271 426 64
2022-05-25 23:32:10 GMT 40.209869 -78.748352 34,000 271 426 64
2022-05-25 23:32:06 GMT 40.209774 -78.739822 34,000 271 427 0
2022-05-25 23:32:04 GMT 40.209728 -78.735771 34,000 271 427 0
2022-05-25 23:32:01 GMT 40.209587 -78.726402 34,000 272 427 0
2022-05-25 23:31:58 GMT 40.209503 -78.720703 34,000 272 427 -64
2022-05-25 23:31:55 GMT 40.209354 -78.709740 34,000 272 427 -64
2022-05-25 23:31:51 GMT 40.209263 -78.701500 34,000 272 428 -64
2022-05-25 23:31:47 GMT 40.209076 -78.689323 34,000 272 428 -64
2022-05-25 23:31:44 GMT 40.208954 -78.681335 34,000 272 426 -64
2022-05-25 23:31:40 GMT 40.208817 -78.671265 34,000 272 428 64
2022-05-25 23:31:36 GMT 40.208706 -78.663544 34,000 272 428 0
2022-05-25 23:31:33 GMT 40.208588 -78.654480 34,000 272 428 0
2022-05-25 23:31:30 GMT 40.208469 -78.646751 34,000 272 426 0
2022-05-25 23:31:26 GMT 40.208313 -78.635925 34,000 272 427 64
2022-05-25 23:31:23 GMT 40.208221 -78.628967 34,000 272 427 0
2022-05-25 23:31:20 GMT 40.207993 -78.612244 34,000 272 427 0
2022-05-25 23:31:16 GMT 40.207993 -78.612244 34,000 272 426 64
2022-05-25 23:31:13 GMT 40.207821 -78.600433 34,000 272 426 64
2022-05-25 23:31:07 GMT 40.207626 -78.588562 34,000 272 426 -64
2022-05-25 23:31:04 GMT 40.207493 -78.579834 34,000 272 426 -64
2022-05-25 23:31:01 GMT 40.207397 -78.573181 34,000 272 426 -64
2022-05-25 23:30:57 GMT 40.207214 -78.561096 34,000 272 425 64
2022-05-25 23:30:54 GMT 40.206982 -78.544945 34,000 272 425 64
2022-05-25 23:30:51 GMT 40.206982 -78.544945 34,000 272 425 0
2022-05-25 23:30:48 GMT 40.206886 -78.538765 34,000 272 425 64
2022-05-25 23:30:45 GMT 40.206749 -78.528526 34,000 272 424 0
2022-05-25 23:30:42 GMT 40.206665 -78.524963 34,000 272 424 0
2022-05-25 23:30:38 GMT 40.206470 -78.512169 34,000 272 424 0
2022-05-25 23:30:34 GMT 40.206329 -78.502869 34,000 272 424 -64
2022-05-25 23:30:31 GMT 40.206188 -78.493629 34,000 272 425 -64
2022-05-25 23:30:23 GMT 40.205933 -78.475769 34,000 272 425 64
2022-05-25 23:30:20 GMT 40.205818 -78.467224 34,000 272 430 0
2022-05-25 23:30:16 GMT 40.205612 -78.456238 34,000 272 426 0
2022-05-25 23:30:13 GMT 40.205540 -78.449562 34,000 272 426 0
2022-05-25 23:30:10 GMT 40.205399 -78.441322 34,000 272 426 64
2022-05-25 23:30:07 GMT 40.205257 -78.432083 34,000 272 427 0
2022-05-25 23:30:03 GMT 40.205109 -78.423340 34,000 272 427 0
2022-05-25 23:29:59 GMT 40.204926 -78.413147 34,000 272 428 -64
2022-05-25 23:29:55 GMT 40.204796 -78.403244 34,000 272 428 -64
2022-05-25 23:29:52 GMT 40.204559 -78.391945 34,000 272 429 -64
2022-05-25 23:29:49 GMT 40.204514 -78.386887 34,000 272 429 -64
2022-05-25 23:29:45 GMT 40.204327 -78.375465 34,000 272 429 -64
2022-05-25 23:29:41 GMT 40.204144 -78.364914 34,000 272 430 64
2022-05-25 23:29:37 GMT 40.203964 -78.354065 34,000 272 430 0
2022-05-25 23:29:32 GMT 40.203781 -78.341614 34,000 272 431 -64
2022-05-25 23:29:29 GMT 40.203690 -78.336609 34,000 272 431 0
2022-05-25 23:29:26 GMT 40.203537 -78.328773 34,000 272 431 -64
2022-05-25 23:29:21 GMT 40.203304 -78.315102 34,000 272 432 64
2022-05-25 23:29:18 GMT 40.203186 -78.308289 34,000 272 432 64
2022-05-25 23:29:14 GMT 40.202957 -78.294739 34,000 272 432 -64
2022-05-25 23:29:11 GMT 40.202744 -78.281960 34,000 272 432 -64
2022-05-25 23:29:08 GMT 40.202744 -78.281960 34,000 272 432 0
2022-05-25 23:29:05 GMT 40.202637 -78.275146 34,000 272 432 -64
2022-05-25 23:29:02 GMT 40.202419 -78.262978 34,000 272 432 -64
2022-05-25 23:28:59 GMT 40.202316 -78.256226 34,000 272 432 64
2022-05-25 23:28:56 GMT 40.202141 -78.247498 34,000 272 432 128
2022-05-25 23:28:49 GMT 40.201862 -78.230705 34,000 272 432 -192
2022-05-25 23:28:46 GMT 40.201721 -78.223938 34,000 272 432 -192
2022-05-25 23:28:42 GMT 40.201538 -78.214539 34,000 272 432 64
2022-05-25 23:28:39 GMT 40.201393 -78.206741 34,000 272 432 0
2022-05-25 23:28:36 GMT 40.201218 -78.196838 34,000 272 432 -64
2022-05-25 23:28:33 GMT 40.201115 -78.191193 34,000 272 432 -64
2022-05-25 23:28:30 GMT 40.200943 -78.182190 34,000 272 433 -64
2022-05-25 23:28:27 GMT 40.200836 -78.174469 34,000 272 433 0
2022-05-25 23:28:25 GMT 40.200714 -78.168640 34,000 272 433 64
2022-05-25 23:28:21 GMT 40.200577 -78.160278 34,000 272 433 -64
2022-05-25 23:28:18 GMT 40.200233 -78.140823 34,000 272 433 64
2022-05-25 23:28:14 GMT 40.200233 -78.140823 34,000 272 433 128
2022-05-25 23:28:10 GMT 40.200027 -78.129883 34,000 272 434 0
2022-05-25 23:28:07 GMT 40.199890 -78.122559 34,000 272 434 -64
2022-05-25 23:28:04 GMT 40.199718 -78.114670 34,000 272 435 64
2022-05-25 23:28:01 GMT 40.199570 -78.106873 34,000 272 433 64
2022-05-25 23:27:58 GMT 40.199440 -78.097939 34,000 272 433 64
2022-05-25 23:27:56 GMT 40.199116 -78.082268 34,000 272 433 0
2022-05-25 23:27:53 GMT 40.199116 -78.082268 34,000 272 433 64
2022-05-25 23:27:49 GMT 40.198975 -78.075500 34,000 272 433 -64
2022-05-25 23:27:45 GMT 40.198696 -78.061356 34,000 272 434 0
2022-05-25 23:27:40 GMT 40.198463 -78.048813 34,000 272 434 0
2022-05-25 23:27:37 GMT 40.198334 -78.040955 34,000 272 434 64
2022-05-25 23:27:34 GMT 40.198231 -78.036201 34,000 272 434 0
2022-05-25 23:27:31 GMT 40.198044 -78.026772 34,000 272 434 64
2022-05-25 23:27:28 GMT 40.197693 -78.008423 34,000 272 435 64
2022-05-25 23:27:24 GMT 40.197693 -78.008423 34,000 272 435 64
2022-05-25 23:27:22 GMT 40.197624 -78.003677 34,000 272 435 0
2022-05-25 23:27:19 GMT 40.197418 -77.993713 34,000 272 435 -64
2022-05-25 23:27:16 GMT 40.197327 -77.989563 34,000 272 435 64
2022-05-25 23:27:14 GMT 40.197205 -77.984825 34,000 272 435 -64
2022-05-25 23:27:11 GMT 40.197018 -77.975464 34,000 272 435 -64
2022-05-25 23:27:08 GMT 40.196869 -77.967712 34,000 272 435 64
2022-05-25 23:27:05 GMT 40.196686 -77.960144 34,000 272 435 0
2022-05-25 23:27:01 GMT 40.196503 -77.949707 34,000 272 435 0
2022-05-25 23:26:58 GMT 40.196365 -77.943359 34,000 272 435 0
2022-05-25 23:26:55 GMT 40.196136 -77.932388 34,000 272 435 0
2022-05-25 23:26:52 GMT 40.195995 -77.926025 34,000 272 435 -64
2022-05-25 23:26:47 GMT 40.195724 -77.912903 34,000 272 435 -64
2022-05-25 23:26:43 GMT 40.195496 -77.902405 34,000 272 435 64
2022-05-25 23:26:41 GMT 40.195438 -77.898750 34,000 272 435 64
2022-05-25 23:26:38 GMT 40.195267 -77.889771 34,000 272 435 0
2022-05-25 23:26:34 GMT 40.194901 -77.872986 34,000 272 435 0
2022-05-25 23:26:29 GMT 40.194691 -77.864105 34,000 272 435 0
2022-05-25 23:26:25 GMT 40.194489 -77.854126 34,000 272 434 64
2022-05-25 23:26:22 GMT 40.194260 -77.844727 34,000 272 434 0
2022-05-25 23:26:18 GMT 40.193993 -77.833702 34,000 272 434 0
2022-05-25 23:26:15 GMT 40.193848 -77.826904 34,000 272 434 0
2022-05-25 23:26:12 GMT 40.193714 -77.821159 34,000 272 434 0
2022-05-25 23:26:08 GMT 40.193481 -77.810181 34,000 272 434 0
2022-05-25 23:26:04 GMT 40.193253 -77.799927 34,000 272 433 0
2022-05-25 23:26:01 GMT 40.193024 -77.789246 34,000 272 433 0
2022-05-25 23:25:57 GMT 40.192875 -77.782455 34,000 272 434 0
2022-05-25 23:25:54 GMT 40.192612 -77.772522 34,000 272 434 0
2022-05-25 23:25:51 GMT 40.192520 -77.767273 34,000 272 434 0
2022-05-25 23:25:49 GMT 40.192200 -77.751648 34,000 272 434 0
2022-05-25 23:25:46 GMT 40.192200 -77.751648 34,000 272 434 64
2022-05-25 23:25:42 GMT 40.191944 -77.741570 34,000 272 434 0
2022-05-25 23:25:39 GMT 40.191742 -77.732666 34,000 272 434 0
2022-05-25 23:25:36 GMT 40.191620 -77.727211 34,000 272 434 -64
2022-05-25 23:25:33 GMT 40.191433 -77.717537 34,000 272 434 -64
2022-05-25 23:25:29 GMT 40.191246 -77.710419 34,000 272 434 -64
2022-05-25 23:25:26 GMT 40.191013 -77.700745 34,000 272 434 -64
2022-05-25 23:25:23 GMT 40.190781 -77.690796 34,000 272 434 0
2022-05-25 23:25:20 GMT 40.190643 -77.684509 34,000 272 434 0
2022-05-25 23:25:18 GMT 40.190502 -77.677711 34,000 272 434 0
2022-05-25 23:25:15 GMT 40.190411 -77.672462 34,000 272 434 0
2022-05-25 23:25:12 GMT 40.190140 -77.661499 34,000 272 434 0
2022-05-25 23:25:09 GMT 40.190048 -77.656250 34,000 272 434 0
2022-05-25 23:25:06 GMT 40.189865 -77.647888 34,000 272 434 0
2022-05-25 23:25:02 GMT 40.189636 -77.637390 34,000 272 434 0
2022-05-25 23:24:59 GMT 40.189480 -77.630585 34,000 272 434 0
2022-05-25 23:24:54 GMT 40.189178 -77.615417 34,000 272 434 0
2022-05-25 23:24:50 GMT 40.188950 -77.603882 34,000 272 434 64
2022-05-25 23:24:47 GMT 40.188782 -77.598122 34,000 273 434 0
2022-05-25 23:24:44 GMT 40.188595 -77.590820 34,000 274 434 -64
2022-05-25 23:24:41 GMT 40.188267 -77.582451 34,000 274 434 64
2022-05-25 23:24:38 GMT 40.187897 -77.574768 34,000 274 434 64
2022-05-25 23:24:35 GMT 40.187439 -77.565430 34,000 274 434 64
2022-05-25 23:24:32 GMT 40.187164 -77.559143 34,000 273 434 64
2022-05-25 23:24:29 GMT 40.186962 -77.548866 34,000 271 435 -64
2022-05-25 23:24:23 GMT 40.187199 -77.533325 34,000 268 434 0
2022-05-25 23:24:20 GMT 40.187347 -77.528442 34,000 268 434 0
2022-05-25 23:24:17 GMT 40.187614 -77.519531 34,000 268 434 0
2022-05-25 23:24:15 GMT 40.187851 -77.512756 34,000 268 434 0
2022-05-25 23:24:12 GMT 40.188080 -77.505432 34,000 268 434 0
2022-05-25 23:24:09 GMT 40.188267 -77.499619 34,000 268 435 -64
2022-05-25 23:24:06 GMT 40.188492 -77.492798 34,000 268 435 -64
2022-05-25 23:24:02 GMT 40.188858 -77.482300 34,000 268 434 64
2022-05-25 23:23:59 GMT 40.189152 -77.472343 34,000 268 434 64
2022-05-25 23:23:56 GMT 40.189407 -77.465637 34,000 268 434 0
2022-05-25 23:23:52 GMT 40.189850 -77.451363 34,000 268 434 64
2022-05-25 23:23:49 GMT 40.190083 -77.444061 34,000 268 434 64
2022-05-25 23:23:46 GMT 40.190231 -77.440369 34,000 268 434 64
2022-05-25 23:23:43 GMT 40.190502 -77.431580 34,000 268 434 0
2022-05-25 23:23:41 GMT 40.190689 -77.424744 34,000 268 434 0
2022-05-25 23:23:36 GMT 40.191101 -77.411255 34,000 268 433 0
2022-05-25 23:23:33 GMT 40.191696 -77.393494 34,000 268 433 -64
2022-05-25 23:23:29 GMT 40.191696 -77.393494 34,000 268 433 0
2022-05-25 23:23:26 GMT 40.191898 -77.386635 34,000 268 433 0
2022-05-25 23:23:23 GMT 40.192154 -77.378906 34,000 268 433 0
2022-05-25 23:23:20 GMT 40.192383 -77.371338 34,000 268 433 0
2022-05-25 23:23:16 GMT 40.192783 -77.358360 34,000 268 434 0
2022-05-25 23:23:13 GMT 40.193016 -77.350929 34,000 268 434 0
2022-05-25 23:23:10 GMT 40.193203 -77.344688 34,000 268 434 0
2022-05-25 23:23:06 GMT 40.193714 -77.327896 34,000 268 435 64
2022-05-25 23:23:03 GMT 40.193714 -77.327896 34,000 268 435 -64
2022-05-25 23:23:01 GMT 40.193901 -77.322777 34,000 268 435 -64
2022-05-25 23:22:58 GMT 40.194489 -77.303223 34,000 268 435 0
2022-05-25 23:22:55 GMT 40.194489 -77.303223 34,000 268 435 0
2022-05-25 23:22:50 GMT 40.194946 -77.288452 34,000 268 435 -64
2022-05-25 23:22:47 GMT 40.195110 -77.283760 34,000 268 435 -64
2022-05-25 23:22:45 GMT 40.195267 -77.279053 34,000 268 435 0
2022-05-25 23:22:41 GMT 40.195770 -77.262207 34,000 268 435 64
2022-05-25 23:22:38 GMT 40.195770 -77.262207 34,000 268 435 64
2022-05-25 23:22:35 GMT 40.196091 -77.251709 34,000 268 435 64
2022-05-25 23:22:32 GMT 40.196369 -77.243813 34,000 268 435 0
2022-05-25 23:22:29 GMT 40.196640 -77.234985 34,000 268 435 0
2022-05-25 23:22:25 GMT 40.196972 -77.224960 34,000 268 435 0
2022-05-25 23:22:22 GMT 40.197159 -77.218590 34,000 268 435 0
2022-05-25 23:22:19 GMT 40.197510 -77.207703 34,000 268 435 0
2022-05-25 23:22:16 GMT 40.197720 -77.200737 34,000 268 435 -64
2022-05-25 23:22:13 GMT 40.197876 -77.197083 34,000 268 435 -64
2022-05-25 23:22:10 GMT 40.198151 -77.188721 34,000 268 435 -64
2022-05-25 23:22:07 GMT 40.198418 -77.179832 34,000 268 435 64
2022-05-25 23:22:03 GMT 40.198742 -77.169342 34,000 268 435 0
2022-05-25 23:22:00 GMT 40.198975 -77.161377 34,000 262 435 64
2022-05-25 23:21:57 GMT 40.199207 -77.152550 34,000 268 435 64
2022-05-25 23:21:54 GMT 40.199440 -77.144058 34,000 267 435 -64
2022-05-25 23:21:51 GMT 40.199661 -77.137268 34,000 267 434 -64
2022-05-25 23:21:48 GMT 40.200138 -77.127457 34,000 266 435 0
2022-05-25 23:21:45 GMT 40.200462 -77.122154 34,000 265 435 0
2022-05-25 23:21:43 GMT 40.200932 -77.114723 34,000 264 435 -64
2022-05-25 23:21:39 GMT 40.201630 -77.106544 34,000 257 435 64
2022-05-25 23:21:35 GMT 40.202911 -77.093323 34,000 262 435 64
2022-05-25 23:21:32 GMT 40.203304 -77.089691 34,000 260 435 -64
2022-05-25 23:21:29 GMT 40.204422 -77.080391 34,000 261 435 0
2022-05-25 23:21:25 GMT 40.206024 -77.068665 34,000 260 435 -64
2022-05-25 23:21:22 GMT 40.207306 -77.060242 34,000 258 435 -64
2022-05-25 23:21:18 GMT 40.208565 -77.052673 34,000 258 435 -64
2022-05-25 23:21:15 GMT 40.210327 -77.042908 34,000 257 434 128
2022-05-25 23:21:13 GMT 40.211288 -77.037903 34,000 255 435 64
2022-05-25 23:21:10 GMT 40.213394 -77.027710 34,000 254 435 0
2022-05-25 23:21:07 GMT 40.216461 -77.014587 34,000 252 436 -64
2022-05-25 23:21:04 GMT 40.216461 -77.014587 34,000 253 435 -64
2022-05-25 23:21:00 GMT 40.218388 -77.007103 34,000 252 435 64
2022-05-25 23:20:57 GMT 40.220203 -77.000053 34,000 252 435 64
2022-05-25 23:20:54 GMT 40.223145 -76.988586 34,000 252 435 0
2022-05-25 23:20:51 GMT 40.224068 -76.985069 34,000 252 434 0
2022-05-25 23:20:48 GMT 40.226761 -76.974548 34,000 252 435 0
2022-05-25 23:20:45 GMT 40.228165 -76.969093 34,000 252 435 -64
2022-05-25 23:20:42 GMT 40.230331 -76.960571 34,000 252 435 0
2022-05-25 23:20:37 GMT 40.233398 -76.948608 34,000 252 435 0
2022-05-25 23:20:33 GMT 40.236076 -76.938133 34,000 252 435 0
2022-05-25 23:20:31 GMT 40.237701 -76.931641 34,000 252 434 0
2022-05-25 23:20:28 GMT 40.239258 -76.925659 34,000 252 435 0
2022-05-25 23:20:25 GMT 40.241547 -76.916687 34,000 252 434 0
2022-05-25 23:20:21 GMT 40.243710 -76.908226 34,000 252 434 0
2022-05-25 23:20:18 GMT 40.245991 -76.899429 34,000 252 434 -64
2022-05-25 23:20:15 GMT 40.247295 -76.894310 34,000 252 435 0
2022-05-25 23:20:12 GMT 40.249065 -76.887321 34,000 252 435 0
2022-05-25 23:20:10 GMT 40.250603 -76.881325 34,000 252 435 0
2022-05-25 23:20:07 GMT 40.252762 -76.872864 34,000 252 435 0
2022-05-25 23:20:04 GMT 40.254372 -76.866531 34,000 252 435 0
2022-05-25 23:20:01 GMT 40.256561 -76.857910 34,000 252 434 64
2022-05-25 23:19:57 GMT 40.259212 -76.847496 34,000 252 434 0
2022-05-25 23:19:54 GMT 40.260544 -76.842285 34,000 252 434 0
2022-05-25 23:19:51 GMT 40.262375 -76.835205 34,000 252 433 0
2022-05-25 23:19:49 GMT 40.263542 -76.830574 34,000 252 433 0
2022-05-25 23:19:46 GMT 40.265823 -76.821648 34,000 252 433 -64
2022-05-25 23:19:44 GMT 40.267361 -76.815720 34,000 252 433 0
2022-05-25 23:19:41 GMT 40.268967 -76.809448 34,000 252 433 0
2022-05-25 23:19:38 GMT 40.273411 -76.791809 34,000 252 432 64
2022-05-25 23:19:35 GMT 40.273411 -76.791809 34,000 252 433 -64
2022-05-25 23:19:32 GMT 40.274715 -76.786819 34,000 252 433 -64
2022-05-25 23:19:29 GMT 40.276611 -76.779358 34,000 252 433 -64
2022-05-25 23:19:25 GMT 40.279278 -76.768906 34,000 252 433 64
2022-05-25 23:19:22 GMT 40.280869 -76.762573 34,000 252 432 64
2022-05-25 23:19:19 GMT 40.282928 -76.754517 34,000 252 433 0
2022-05-25 23:19:15 GMT 40.286076 -76.742126 34,000 252 433 -64
2022-05-25 23:19:12 GMT 40.287609 -76.736130 34,000 252 433 0
2022-05-25 23:19:09 GMT 40.289246 -76.729675 34,000 252 434 0
2022-05-25 23:19:06 GMT 40.291382 -76.721336 34,000 252 434 -64
2022-05-25 23:19:03 GMT 40.292770 -76.715820 34,000 252 434 -64
2022-05-25 23:19:01 GMT 40.294052 -76.710693 34,000 252 434 0
2022-05-25 23:18:57 GMT 40.296295 -76.701965 34,000 252 433 0
2022-05-25 23:18:55 GMT 40.297852 -76.695679 34,000 252 433 0
2022-05-25 23:18:52 GMT 40.300274 -76.686195 34,000 252 434 -64
2022-05-25 23:18:49 GMT 40.302155 -76.678894 34,000 252 434 0
2022-05-25 23:18:46 GMT 40.304321 -76.670273 34,000 252 434 -64
2022-05-25 23:18:43 GMT 40.305580 -76.665344 34,000 252 434 -64
2022-05-25 23:18:41 GMT 40.307114 -76.659355 34,000 252 433 0
2022-05-25 23:18:38 GMT 40.308838 -76.652550 34,000 252 433 0
2022-05-25 23:18:35 GMT 40.310989 -76.643921 34,000 252 433 0
2022-05-25 23:18:32 GMT 40.313782 -76.632996 34,000 252 433 0
2022-05-25 23:18:30 GMT 40.313782 -76.632996 34,000 252 433 64
2022-05-25 23:18:26 GMT 40.318428 -76.614594 34,000 252 432 -64
2022-05-25 23:18:23 GMT 40.318428 -76.614594 34,000 252 432 0
2022-05-25 23:18:20 GMT 40.320477 -76.606606 34,000 252 432 -64
2022-05-25 23:18:16 GMT 40.322990 -76.596680 34,000 252 432 0
2022-05-25 23:18:12 GMT 40.325134 -76.588257 34,000 252 431 64
2022-05-25 23:18:09 GMT 40.326992 -76.580826 34,000 252 431 64
2022-05-25 23:18:05 GMT 40.329391 -76.571411 34,000 252 432 0
2022-05-25 23:18:03 GMT 40.330811 -76.565971 34,000 252 431 0
2022-05-25 23:18:00 GMT 40.332962 -76.557556 34,000 252 431 64
2022-05-25 23:17:57 GMT 40.334885 -76.549866 34,000 252 431 64
2022-05-25 23:17:54 GMT 40.337093 -76.541252 34,000 252 430 -64
2022-05-25 23:17:51 GMT 40.338306 -76.536316 34,000 253 428 -64
2022-05-25 23:17:49 GMT 40.339874 -76.530090 34,000 253 428 -64
2022-05-25 23:17:44 GMT 40.342575 -76.519043 34,000 253 428 64
2022-05-25 23:17:41 GMT 40.344772 -76.510315 34,000 252 427 0
2022-05-25 23:17:38 GMT 40.346359 -76.503983 34,000 251 427 0
2022-05-25 23:17:34 GMT 40.348846 -76.494507 34,000 251 427 64
2022-05-25 23:17:31 GMT 40.353149 -76.479065 34,000 250 427 64
2022-05-25 23:17:27 GMT 40.353149 -76.479065 34,000 250 427 0
2022-05-25 23:17:24 GMT 40.355576 -76.470650 34,000 249 426 0
2022-05-25 23:17:21 GMT 40.357681 -76.463684 34,000 248 427 -64
2022-05-25 23:17:18 GMT 40.360703 -76.453857 34,000 248 427 -64
2022-05-25 23:17:15 GMT 40.362980 -76.446739 34,000 247 427 -64
2022-05-25 23:17:11 GMT 40.365726 -76.438316 34,000 244 429 -64
2022-05-25 23:17:07 GMT 40.368565 -76.429886 34,000 246 427 64
2022-05-25 23:17:04 GMT 40.371635 -76.421150 34,000 245 428 0
2022-05-25 23:17:01 GMT 40.374207 -76.414124 34,000 244 428 0
2022-05-25 23:16:58 GMT 40.379471 -76.400208 34,000 244 428 0
2022-05-25 23:16:55 GMT 40.379471 -76.400208 34,000 244 428 64
2022-05-25 23:16:52 GMT 40.382530 -76.392372 34,000 244 429 -64
2022-05-25 23:16:49 GMT 40.386978 -76.380798 34,000 244 429 -64
2022-05-25 23:16:46 GMT 40.390396 -76.371956 34,000 244 428 0
2022-05-25 23:16:43 GMT 40.390396 -76.371956 34,000 244 428 64
2022-05-25 23:16:40 GMT 40.393066 -76.365051 34,000 244 428 0
2022-05-25 23:16:37 GMT 40.395378 -76.358978 34,000 244 428 64
2022-05-25 23:16:34 GMT 40.398590 -76.350670 34,000 244 428 64
2022-05-25 23:16:31 GMT 40.400730 -76.345116 34,000 244 428 64
2022-05-25 23:16:28 GMT 40.402550 -76.340439 34,000 244 428 0
2022-05-25 23:16:25 GMT 40.406616 -76.329834 34,000 244 428 0
2022-05-25 23:16:22 GMT 40.408768 -76.324219 34,000 244 428 0
2022-05-25 23:16:19 GMT 40.412018 -76.315857 34,000 244 428 0
2022-05-25 23:16:16 GMT 40.415222 -76.307495 34,000 244 428 0
2022-05-25 23:16:14 GMT 40.415222 -76.307495 34,000 244 428 0
2022-05-25 23:16:11 GMT 40.418655 -76.298676 34,000 244 428 0
2022-05-25 23:16:08 GMT 40.420624 -76.293579 34,000 244 428 0
2022-05-25 23:16:05 GMT 40.424335 -76.283882 34,000 244 428 64
2022-05-25 23:16:02 GMT 40.426430 -76.278450 34,000 244 428 0
2022-05-25 23:15:56 GMT 40.431503 -76.265282 34,000 244 428 0
2022-05-25 23:15:54 GMT 40.433643 -76.259727 34,000 244 429 0
2022-05-25 23:15:51 GMT 40.436855 -76.251358 34,000 244 429 0
2022-05-25 23:15:48 GMT 40.438301 -76.247681 34,000 244 429 0
2022-05-25 23:15:45 GMT 40.441315 -76.239746 34,000 244 429 0
2022-05-25 23:15:43 GMT 40.443466 -76.234192 34,000 244 430 64
2022-05-25 23:15:40 GMT 40.445747 -76.228264 34,000 244 430 0
2022-05-25 23:15:37 GMT 40.449188 -76.219299 34,000 244 430 64
2022-05-25 23:15:34 GMT 40.451340 -76.213745 34,000 244 430 64
2022-05-25 23:15:31 GMT 40.454033 -76.206726 34,000 244 430 64
2022-05-25 23:15:28 GMT 40.456177 -76.201172 34,000 244 431 0
2022-05-25 23:15:25 GMT 40.459713 -76.191933 34,000 244 430 64
2022-05-25 23:15:22 GMT 40.462738 -76.184082 34,000 244 430 0
2022-05-25 23:15:19 GMT 40.464935 -76.178284 34,000 244 430 64
2022-05-25 23:15:16 GMT 40.467087 -76.172668 34,000 244 430 64
2022-05-25 23:15:13 GMT 40.469971 -76.165222 34,000 244 430 0
2022-05-25 23:15:10 GMT 40.472610 -76.158226 34,000 244 430 -64
2022-05-25 23:15:07 GMT 40.474960 -76.152161 34,000 244 430 -64
2022-05-25 23:15:04 GMT 40.478382 -76.143242 34,000 244 430 0
2022-05-25 23:15:01 GMT 40.481049 -76.136169 34,000 244 430 64
2022-05-25 23:14:58 GMT 40.485992 -76.123352 34,000 244 431 0
2022-05-25 23:14:55 GMT 40.485992 -76.123352 34,000 244 431 -64
2022-05-25 23:14:52 GMT 40.488922 -76.115662 34,000 244 430 64
2022-05-25 23:14:49 GMT 40.491440 -76.109131 34,000 244 430 64
2022-05-25 23:14:46 GMT 40.497608 -76.093056 34,000 244 430 64
2022-05-25 23:14:43 GMT 40.497608 -76.093056 34,000 244 430 64
2022-05-25 23:14:40 GMT 40.499844 -76.087189 34,000 244 430 0
2022-05-25 23:14:37 GMT 40.501518 -76.082756 34,000 244 430 0
2022-05-25 23:14:34 GMT 40.504822 -76.074142 34,000 244 430 0
2022-05-25 23:14:30 GMT 40.509106 -76.062965 34,000 244 430 -64
2022-05-25 23:14:27 GMT 40.510502 -76.059227 34,000 244 430 -64
2022-05-25 23:14:24 GMT 40.514603 -76.048462 34,000 244 430 0
2022-05-25 23:14:21 GMT 40.515858 -76.045181 34,000 244 430 0
2022-05-25 23:14:18 GMT 40.519814 -76.034943 34,000 244 430 0
2022-05-25 23:14:15 GMT 40.521954 -76.029388 34,000 244 430 0
2022-05-25 23:14:12 GMT 40.525074 -76.021080 34,000 244 430 0
2022-05-25 23:14:09 GMT 40.527679 -76.014343 34,000 244 430 0
2022-05-25 23:14:03 GMT 40.532986 -76.000359 34,000 244 430 0
2022-05-25 23:13:59 GMT 40.536346 -75.991577 34,000 244 430 -64
2022-05-25 23:13:56 GMT 40.538132 -75.986877 34,000 244 431 -64
2022-05-25 23:13:52 GMT 40.541878 -75.977013 34,000 244 430 64
2022-05-25 23:13:49 GMT 40.545090 -75.968590 34,000 244 430 0
2022-05-25 23:13:46 GMT 40.547234 -75.963028 34,000 244 430 0
2022-05-25 23:13:42 GMT 40.551842 -75.950859 34,000 244 430 -64
2022-05-25 23:13:39 GMT 40.553238 -75.947113 34,000 244 430 0
2022-05-25 23:13:36 GMT 40.557148 -75.936874 34,000 244 430 0
2022-05-25 23:13:32 GMT 40.561058 -75.926636 34,000 244 430 0
2022-05-25 23:13:29 GMT 40.562828 -75.921890 34,000 244 431 -64
2022-05-25 23:13:26 GMT 40.565342 -75.915337 34,000 244 431 -64
2022-05-25 23:13:22 GMT 40.568756 -75.906433 34,000 244 431 0
2022-05-25 23:13:18 GMT 40.573162 -75.894867 34,000 244 432 0
2022-05-25 23:13:14 GMT 40.576420 -75.886253 34,000 244 432 0
2022-05-25 23:13:11 GMT 40.579308 -75.878639 34,000 244 432 0
2022-05-25 23:13:07 GMT 40.581726 -75.872269 34,000 244 432 64
2022-05-25 23:13:04 GMT 40.586243 -75.860291 34,000 244 432 0
2022-05-25 23:13:01 GMT 40.587502 -75.856972 34,000 244 432 0
2022-05-25 23:12:58 GMT 40.590500 -75.849060 34,000 244 431 0
2022-05-25 23:12:54 GMT 40.593658 -75.840759 34,000 244 431 0
2022-05-25 23:12:50 GMT 40.597595 -75.830444 34,000 244 431 0
2022-05-25 23:12:47 GMT 40.599380 -75.825684 34,000 244 431 0
2022-05-25 23:12:44 GMT 40.602814 -75.816589 34,000 244 431 0
2022-05-25 23:12:42 GMT 40.604958 -75.810844 34,000 244 431 0
2022-05-25 23:12:39 GMT 40.607098 -75.805229 34,000 244 431 0
2022-05-25 23:12:36 GMT 40.610413 -75.796448 34,000 244 430 0
2022-05-25 23:12:33 GMT 40.612778 -75.790245 34,000 244 430 0
2022-05-25 23:12:29 GMT 40.616135 -75.781311 34,000 244 430 0
2022-05-25 23:12:26 GMT 40.617874 -75.776672 34,000 244 430 0
2022-05-25 23:12:24 GMT 40.620552 -75.769585 34,000 244 429 0
2022-05-25 23:12:21 GMT 40.622864 -75.763489 34,000 244 429 0
2022-05-25 23:12:18 GMT 40.625931 -75.755310 34,000 244 429 64
2022-05-25 23:12:15 GMT 40.627808 -75.750366 34,000 244 429 64
2022-05-25 23:12:13 GMT 40.629913 -75.744751 34,000 244 429 0
2022-05-25 23:12:11 GMT 40.631332 -75.741028 34,000 244 429 -64
2022-05-25 23:12:08 GMT 40.634811 -75.731812 34,000 244 429 -128
2022-05-25 23:12:05 GMT 40.637543 -75.724518 34,000 244 429 0
2022-05-25 23:12:02 GMT 40.639435 -75.719543 34,000 244 429 64
2022-05-25 23:11:59 GMT 40.641632 -75.713745 34,000 244 429 64
2022-05-25 23:11:56 GMT 40.645065 -75.704590 34,000 244 429 0
2022-05-25 23:11:53 GMT 40.647949 -75.696899 34,000 244 429 -64
2022-05-25 23:11:50 GMT 40.650158 -75.690933 34,000 244 429 -64
2022-05-25 23:11:47 GMT 40.652893 -75.683716 34,000 244 429 0
2022-05-25 23:11:44 GMT 40.655418 -75.676949 34,000 244 429 0
2022-05-25 23:11:42 GMT 40.657280 -75.672020 34,000 244 429 64
2022-05-25 23:11:39 GMT 40.662216 -75.658913 34,000 244 429 64
2022-05-25 23:11:36 GMT 40.665115 -75.651123 34,000 244 429 0
2022-05-25 23:11:33 GMT 40.668453 -75.642303 34,000 244 429 0
2022-05-25 23:11:30 GMT 40.668453 -75.642303 34,000 244 430 -64
2022-05-25 23:11:27 GMT 40.670746 -75.636169 34,000 244 430 0
2022-05-25 23:11:24 GMT 40.672943 -75.630371 34,000 244 430 -64
2022-05-25 23:11:21 GMT 40.675903 -75.622391 34,000 244 430 0
2022-05-25 23:11:19 GMT 40.678371 -75.615837 34,000 244 430 64
2022-05-25 23:11:16 GMT 40.680267 -75.610840 34,000 244 430 0
2022-05-25 23:11:13 GMT 40.682186 -75.605659 34,000 244 430 0
2022-05-25 23:11:10 GMT 40.685257 -75.597534 34,000 244 431 0
2022-05-25 23:11:08 GMT 40.687447 -75.591682 34,000 244 431 0
2022-05-25 23:11:05 GMT 40.690109 -75.584595 34,000 244 431 0
2022-05-25 23:11:02 GMT 40.693546 -75.575455 34,000 244 431 64
2022-05-25 23:10:59 GMT 40.698109 -75.563217 34,000 244 431 64
2022-05-25 23:10:56 GMT 40.698109 -75.563217 34,000 244 431 -64
2022-05-25 23:10:53 GMT 40.700249 -75.557533 34,000 244 431 0
2022-05-25 23:10:51 GMT 40.705185 -75.544304 34,000 244 431 0
2022-05-25 23:10:48 GMT 40.705185 -75.544304 34,000 244 431 -64
2022-05-25 23:10:45 GMT 40.708145 -75.536316 34,000 244 431 -64
2022-05-25 23:10:42 GMT 40.709747 -75.532066 34,000 244 431 -64
2022-05-25 23:10:39 GMT 40.712910 -75.523643 34,000 244 431 0
2022-05-25 23:10:37 GMT 40.714310 -75.519897 34,000 244 431 64
2022-05-25 23:10:33 GMT 40.717987 -75.510010 34,000 244 430 64
2022-05-25 23:10:30 GMT 40.720047 -75.504456 34,000 245 430 0
2022-05-25 23:10:27 GMT 40.723618 -75.494934 34,000 245 429 0
2022-05-25 23:10:23 GMT 40.727142 -75.485596 34,000 244 430 0
2022-05-25 23:10:20 GMT 40.729935 -75.478088 34,000 244 429 64
2022-05-25 23:10:18 GMT 40.730621 -75.476196 34,000 244 429 64
2022-05-25 23:10:16 GMT 40.736206 -75.461121 34,000 245 429 0
2022-05-25 23:10:13 GMT 40.736206 -75.461121 34,000 245 429 0
2022-05-25 23:10:10 GMT 40.739731 -75.451660 34,000 245 429 0
2022-05-25 23:10:08 GMT 40.739731 -75.451660 34,000 245 429 64
2022-05-25 23:10:06 GMT 40.742432 -75.444275 34,000 244 430 -64
2022-05-25 23:10:03 GMT 40.745079 -75.437126 34,000 244 430 -64
2022-05-25 23:10:00 GMT 40.746735 -75.432800 34,000 242 432 64
2022-05-25 23:09:58 GMT 40.751595 -75.420082 34,000 241 432 -64
2022-05-25 23:09:55 GMT 40.751595 -75.420082 34,000 242 431 64
2022-05-25 23:09:52 GMT 40.756210 -75.408508 34,000 242 431 64
2022-05-25 23:09:49 GMT 40.760376 -75.398315 34,000 242 432 64
2022-05-25 23:09:46 GMT 40.760376 -75.398315 34,000 242 432 64
2022-05-25 23:09:43 GMT 40.762253 -75.393799 34,000 242 432 64
2022-05-25 23:09:40 GMT 40.764816 -75.387688 34,000 241 433 -64
2022-05-25 23:09:37 GMT 40.772823 -75.369209 34,000 234 435 0
2022-05-25 23:09:33 GMT 40.772823 -75.369209 34,000 240 433 64
2022-05-25 23:09:30 GMT 40.775894 -75.362366 34,000 239 434 64
2022-05-25 23:09:26 GMT 40.780472 -75.352417 34,000 239 434 0
2022-05-25 23:09:22 GMT 40.784508 -75.343803 34,000 238 435 -64
2022-05-25 23:09:19 GMT 40.787659 -75.337219 34,000 238 434 -64
2022-05-25 23:09:16 GMT 40.789810 -75.332825 34,000 238 435 0
2022-05-25 23:09:13 GMT 40.796242 -75.319710 34,000 238 434 0
2022-05-25 23:09:10 GMT 40.796242 -75.319710 34,000 238 434 0
2022-05-25 23:09:07 GMT 40.799313 -75.313461 34,000 238 434 0
2022-05-25 23:09:04 GMT 40.804321 -75.303223 34,000 238 434 64
2022-05-25 23:09:00 GMT 40.808437 -75.294739 34,000 238 434 0
2022-05-25 23:08:56 GMT 40.811882 -75.287682 34,000 238 434 -64
2022-05-25 23:08:53 GMT 40.815216 -75.280762 34,000 238 434 0
2022-05-25 23:08:50 GMT 40.819611 -75.271729 34,000 238 434 0
2022-05-25 23:08:47 GMT 40.821609 -75.267647 34,000 238 434 0
2022-05-25 23:08:44 GMT 40.825287 -75.260071 34,000 238 434 0
2022-05-25 23:08:42 GMT 40.826405 -75.257843 34,000 238 434 -64
2022-05-25 23:08:40 GMT 40.829014 -75.252480 34,000 238 435 -64
2022-05-25 23:08:37 GMT 40.832829 -75.244675 34,000 238 435 64
2022-05-25 23:08:33 GMT 40.837006 -75.236023 34,000 238 435 64
2022-05-25 23:08:31 GMT 40.839905 -75.230194 34,000 238 435 64
2022-05-25 23:08:28 GMT 40.842728 -75.224365 34,000 238 435 0
2022-05-25 23:08:24 GMT 40.847534 -75.214417 34,000 238 435 -64
2022-05-25 23:08:21 GMT 40.849731 -75.209961 34,000 238 435 0
2022-05-25 23:08:18 GMT 40.852985 -75.203224 34,000 238 435 0
2022-05-25 23:08:14 GMT 40.857971 -75.192932 34,000 238 435 -64
2022-05-25 23:08:11 GMT 40.860809 -75.187119 34,000 238 436 64
2022-05-25 23:08:08 GMT 40.864517 -75.179504 34,000 238 436 64
2022-05-25 23:08:05 GMT 40.871521 -75.165100 34,000 238 436 0
2022-05-25 23:08:01 GMT 40.871521 -75.165100 34,000 238 436 -64
2022-05-25 23:07:58 GMT 40.875656 -75.156532 34,000 238 437 0
2022-05-25 23:07:55 GMT 40.879475 -75.148605 34,000 238 437 0
2022-05-25 23:07:51 GMT 40.882595 -75.142174 34,000 238 437 0
2022-05-25 23:07:48 GMT 40.886925 -75.133247 34,000 238 437 0
2022-05-25 23:07:45 GMT 40.889576 -75.127754 34,000 238 437 64
2022-05-25 23:07:42 GMT 40.893311 -75.120056 34,000 238 437 64
2022-05-25 23:07:39 GMT 40.896465 -75.113464 34,000 238 437 0
2022-05-25 23:07:36 GMT 40.899399 -75.107422 34,000 238 437 0
2022-05-25 23:07:31 GMT 40.904381 -75.097107 34,000 238 436 64
2022-05-25 23:07:27 GMT 40.909836 -75.085754 34,000 238 436 0
2022-05-25 23:07:23 GMT 40.913773 -75.077698 34,000 238 436 0
2022-05-25 23:07:20 GMT 40.916794 -75.071350 34,000 238 435 0
2022-05-25 23:07:17 GMT 40.920532 -75.063591 34,000 238 435 0
2022-05-25 23:07:14 GMT 40.922630 -75.059219 34,000 238 435 0
2022-05-25 23:07:10 GMT 40.927643 -75.048828 34,000 238 435 0
2022-05-25 23:07:07 GMT 40.930450 -75.042992 34,000 238 435 0
2022-05-25 23:07:03 GMT 40.935570 -75.032188 34,000 238 435 0
2022-05-25 23:07:00 GMT 40.938354 -75.026367 34,000 238 435 -64
2022-05-25 23:06:57 GMT 40.941948 -75.018890 34,000 236 436 64
2022-05-25 23:06:53 GMT 40.945858 -75.010780 34,000 238 435 -64
2022-05-25 23:06:49 GMT 40.953445 -74.995300 34,000 237 436 64
2022-05-25 23:06:46 GMT 40.953445 -74.995300 34,000 237 436 64
2022-05-25 23:06:42 GMT 40.958336 -74.985687 34,000 237 436 64
2022-05-25 23:06:39 GMT 40.961655 -74.979004 34,000 236 436 64
2022-05-25 23:06:36 GMT 40.968109 -74.966492 34,000 236 436 0
2022-05-25 23:06:33 GMT 40.968109 -74.966492 34,000 235 438 64
2022-05-25 23:06:30 GMT 40.971088 -74.960838 34,000 235 437 -64
2022-05-25 23:06:27 GMT 40.974815 -74.953728 34,000 235 437 -64
2022-05-25 23:06:24 GMT 40.978165 -74.947418 34,000 235 438 0
2022-05-25 23:06:21 GMT 40.980541 -74.942986 34,000 235 437 0
2022-05-25 23:06:18 GMT 40.984776 -74.935188 34,000 235 438 64
2022-05-25 23:06:16 GMT 40.988297 -74.928772 34,000 235 438 64
2022-05-25 23:06:13 GMT 40.991943 -74.922073 34,000 234 439 0
2022-05-25 23:06:10 GMT 40.994320 -74.917709 34,000 234 438 -64
2022-05-25 23:06:07 GMT 41.002853 -74.902405 34,000 234 439 0
2022-05-25 23:06:04 GMT 41.002853 -74.902405 34,000 234 438 0
2022-05-25 23:06:01 GMT 41.006004 -74.896736 34,000 234 438 0
2022-05-25 23:05:58 GMT 41.008842 -74.891678 34,000 234 438 0
2022-05-25 23:05:55 GMT 41.013016 -74.884155 34,000 234 438 64
2022-05-25 23:05:51 GMT 41.017319 -74.876404 34,000 234 438 64
2022-05-25 23:05:48 GMT 41.021461 -74.869019 34,000 234 438 0
2022-05-25 23:05:45 GMT 41.025372 -74.861961 34,000 234 438 -64
2022-05-25 23:05:42 GMT 41.029186 -74.855034 34,000 234 438 0
2022-05-25 23:05:39 GMT 41.031189 -74.851479 34,000 234 438 0
2022-05-25 23:05:36 GMT 41.035309 -74.844055 34,000 234 437 0
2022-05-25 23:05:33 GMT 41.039383 -74.836617 34,000 234 438 0
2022-05-25 23:05:30 GMT 41.042999 -74.830139 34,000 234 437 64
2022-05-25 23:05:27 GMT 41.045929 -74.824890 34,000 234 437 64
2022-05-25 23:05:24 GMT 41.051193 -74.815430 34,000 234 437 64
2022-05-25 23:05:21 GMT 41.054169 -74.810059 34,000 234 438 0
2022-05-25 23:05:18 GMT 41.056137 -74.806580 34,000 234 438 0
2022-05-25 23:05:15 GMT 41.060703 -74.798294 34,000 234 437 -64
2022-05-25 23:05:12 GMT 41.064148 -74.792114 34,000 234 438 0
2022-05-25 23:05:09 GMT 41.067719 -74.785645 34,000 234 439 64
2022-05-25 23:05:06 GMT 41.071609 -74.778687 34,000 234 438 -64
2022-05-25 23:05:03 GMT 41.074585 -74.773254 34,000 234 438 0
2022-05-25 23:05:00 GMT 41.078671 -74.765892 34,000 234 438 0
2022-05-25 23:04:57 GMT 41.082584 -74.758842 34,000 234 438 64
2022-05-25 23:04:53 GMT 41.087677 -74.749634 34,000 234 439 64
2022-05-25 23:04:50 GMT 41.091431 -74.742798 34,000 234 438 0
2022-05-25 23:04:47 GMT 41.093243 -74.739555 34,000 234 439 64
2022-05-25 23:04:44 GMT 41.098251 -74.730530 34,000 234 439 64
2022-05-25 23:04:41 GMT 41.104568 -74.719055 34,000 234 439 64
2022-05-25 23:04:38 GMT 41.108791 -74.711403 34,000 234 439 64
2022-05-25 23:04:35 GMT 41.108791 -74.711403 34,000 234 439 0
2022-05-25 23:04:33 GMT 41.110474 -74.708374 34,000 234 439 0
2022-05-25 23:04:30 GMT 41.114098 -74.701721 34,000 234 439 0
2022-05-25 23:04:27 GMT 41.118008 -74.694733 34,000 234 439 0
2022-05-25 23:04:24 GMT 41.121780 -74.687866 34,000 234 440 -64
2022-05-25 23:04:22 GMT 41.128006 -74.676636 34,000 234 440 -64
2022-05-25 23:04:19 GMT 41.128006 -74.676636 34,000 234 440 -64
2022-05-25 23:04:16 GMT 41.131603 -74.670143 34,000 234 440 128
2022-05-25 23:04:13 GMT 41.134022 -74.665771 34,000 234 440 0
2022-05-25 23:04:10 GMT 41.138718 -74.657288 34,000 234 440 128
2022-05-25 23:04:07 GMT 41.141285 -74.652596 34,000 234 441 -64
2022-05-25 23:04:04 GMT 41.145996 -74.644043 34,000 234 441 -64
2022-05-25 23:04:01 GMT 41.150299 -74.636292 34,000 234 441 -64
2022-05-25 23:03:58 GMT 41.152504 -74.632248 34,000 235 442 0
2022-05-25 23:03:55 GMT 41.157391 -74.623383 34,000 235 442 -64
2022-05-25 23:03:52 GMT 41.163940 -74.611450 33,475 235 442 -64
2022-05-25 23:03:49 GMT 41.163940 -74.611450 34,000 235 442 -64
2022-05-25 23:03:46 GMT 41.167168 -74.605530 33,975 234 441 256
2022-05-25 23:03:43 GMT 41.171814 -74.597107 34,000 234 441 192
2022-05-25 23:03:40 GMT 41.173645 -74.593811 33,975 234 441 448
2022-05-25 23:03:38 GMT 41.177170 -74.587341 33,875 234 441 768
2022-05-25 23:03:35 GMT 41.180809 -74.580750 33,900 234 441 1088
2022-05-25 23:03:32 GMT 41.183945 -74.575073 33,825 235 442 1152
2022-05-25 23:03:29 GMT 41.187836 -74.567932 33,750 234 443 1152
2022-05-25 23:03:26 GMT 41.191727 -74.560852 33,750 232 449 768
2022-05-25 23:03:23 GMT 41.194107 -74.556580 33,675 235 444 1088
2022-05-25 23:03:20 GMT 41.201019 -74.543945 33,625 235 444 1088
2022-05-25 23:03:18 GMT 41.201019 -74.543945 33,600 235 444 1024
2022-05-25 23:03:15 GMT 41.209213 -74.528809 33,550 235 445 960
2022-05-25 23:03:12 GMT 41.209213 -74.528809 33,500 235 446 960
2022-05-25 23:03:08 GMT 41.213860 -74.520325 33,425 234 447 896
2022-05-25 23:03:05 GMT 41.217590 -74.513611 33,400 234 447 832
2022-05-25 23:03:01 GMT 41.221775 -74.506027 33,325 234 447 832
2022-05-25 23:02:58 GMT 41.225822 -74.498856 33,250 233 448 768
2022-05-25 23:02:55 GMT 41.229492 -74.492432 33,275 233 448 768
2022-05-25 23:02:51 GMT 41.233318 -74.485741 33,200 231 449 768
2022-05-25 23:02:48 GMT 41.237091 -74.479378 33,200 232 449 768
2022-05-25 23:02:46 GMT 41.240208 -74.474068 32,975 232 449 768
2022-05-25 23:02:42 GMT 41.246201 -74.464172 33,125 232 450 768
2022-05-25 23:02:39 GMT 41.249405 -74.458801 33,100 229 453 896
2022-05-25 23:02:37 GMT 41.256550 -74.447357 33,025 231 450 704
2022-05-25 23:02:33 GMT 41.256550 -74.447357 33,025 231 450 704
2022-05-25 23:02:30 GMT 41.260460 -74.441109 32,975 230 451 768
2022-05-25 23:02:27 GMT 41.266708 -74.431335 32,925 230 451 768
2022-05-25 23:02:24 GMT 41.270840 -74.424942 32,875 230 451 832
2022-05-25 23:02:21 GMT 41.273849 -74.420288 32,850 229 452 832
2022-05-25 23:02:17 GMT 41.282776 -74.406799 32,775 229 452 832
2022-05-25 23:02:14 GMT 41.282776 -74.406799 32,775 229 452 832
2022-05-25 23:02:11 GMT 41.293213 -74.390991 32,700 229 452 832
2022-05-25 23:02:07 GMT 41.293213 -74.390991 32,625 229 453 896
2022-05-25 23:02:03 GMT 41.298889 -74.382385 32,600 229 452 896
2022-05-25 23:02:00 GMT 41.302826 -74.376404 32,525 229 453 896
2022-05-25 23:01:57 GMT 41.307571 -74.369202 32,500 229 453 896
2022-05-25 23:01:54 GMT 41.312347 -74.362000 32,425 229 453 896
2022-05-25 23:01:48 GMT 41.319813 -74.350662 32,375 229 454 896
2022-05-25 23:01:45 GMT 41.325027 -74.342712 32,275 229 454 832
2022-05-25 23:01:42 GMT 41.326469 -74.340485 32,275 229 454 832
2022-05-25 23:01:39 GMT 41.331802 -74.332458 32,225 229 454 704
2022-05-25 23:01:35 GMT 41.337643 -74.323631 32,175 229 454 768
2022-05-25 23:01:32 GMT 41.340435 -74.319389 32,150 229 454 768
2022-05-25 23:01:29 GMT 41.346024 -74.310898 32,125 229 455 640
2022-05-25 23:01:25 GMT 41.350754 -74.303772 32,000 229 455 640
2022-05-25 23:01:22 GMT 41.356430 -74.295166 32,050 229 455 576
2022-05-25 23:01:18 GMT 41.361328 -74.287659 32,000 229 454 0
2022-05-25 23:01:14 GMT 41.366959 -74.279114 32,000 229 454 192
2022-05-25 23:01:10 GMT 41.372231 -74.271072 32,000 229 454 0
2022-05-25 23:01:07 GMT 41.375629 -74.265953 32,000 229 454 0
2022-05-25 23:01:04 GMT 41.380371 -74.258728 32,000 229 454 -64
2022-05-25 23:01:00 GMT 41.387314 -74.248222 32,000 229 454 64
2022-05-25 23:00:56 GMT 41.391598 -74.241646 32,000 229 454 64
2022-05-25 23:00:53 GMT 41.395088 -74.236343 32,000 229 454 64
2022-05-25 23:00:49 GMT 41.401791 -74.226189 32,000 229 454 0
2022-05-25 23:00:46 GMT 41.406120 -74.219543 32,000 229 454 -64
2022-05-25 23:00:42 GMT 41.414886 -74.206215 32,000 229 453 64
2022-05-25 23:00:39 GMT 41.414886 -74.206215 32,000 229 453 64
2022-05-25 23:00:36 GMT 41.419876 -74.198662 32,000 229 452 64
2022-05-25 23:00:32 GMT 41.424225 -74.192047 32,000 229 452 64
2022-05-25 23:00:28 GMT 41.430187 -74.182945 32,000 229 452 -64
2022-05-25 23:00:25 GMT 41.434296 -74.176689 32,000 229 452 0
2022-05-25 23:00:22 GMT 41.439034 -74.169472 32,000 229 452 0
2022-05-25 23:00:19 GMT 41.441128 -74.166275 32,000 229 452 0
2022-05-25 23:00:16 GMT 41.446335 -74.158279 32,000 229 451 0
2022-05-25 23:00:13 GMT 41.449173 -74.153969 32,000 229 451 0
2022-05-25 23:00:10 GMT 41.453705 -74.147041 32,000 229 451 0
2022-05-25 23:00:08 GMT 41.457550 -74.141174 32,000 229 451 -64
2022-05-25 23:00:04 GMT 41.463638 -74.131935 32,000 230 451 -64
2022-05-25 23:00:01 GMT 41.465790 -74.128624 32,000 229 450 -64
2022-05-25 22:59:59 GMT 41.470276 -74.121819 32,000 229 450 -64
2022-05-25 22:59:55 GMT 41.474415 -74.115494 32,000 230 451 0
2022-05-25 22:59:53 GMT 41.477764 -74.110321 32,000 230 451 0
2022-05-25 22:59:50 GMT 41.482956 -74.102348 32,000 230 451 0
2022-05-25 22:59:45 GMT 41.489822 -74.091927 32,000 229 450 0
2022-05-25 22:59:41 GMT 41.493805 -74.085808 32,000 229 450 0
2022-05-25 22:59:39 GMT 41.497192 -74.080620 32,000 229 450 0
2022-05-25 22:59:35 GMT 41.502090 -74.073196 32,000 229 450 0
2022-05-25 22:59:32 GMT 41.507080 -74.065514 32,000 229 450 0
2022-05-25 22:59:29 GMT 41.511795 -74.058327 32,000 229 450 0
2022-05-25 22:59:24 GMT 41.518616 -74.047913 32,000 229 450 0
2022-05-25 22:59:21 GMT 41.522175 -74.042419 32,000 230 450 0
2022-05-25 22:59:18 GMT 41.527359 -74.034492 32,000 230 450 0
2022-05-25 22:59:14 GMT 41.530926 -74.029076 32,000 230 450 0
2022-05-25 22:59:09 GMT 41.538513 -74.017387 32,000 229 449 0
2022-05-25 22:59:06 GMT 41.542427 -74.011444 32,000 229 449 0
2022-05-25 22:59:02 GMT 41.548431 -74.002182 32,000 229 449 0
2022-05-25 22:58:59 GMT 41.552536 -73.995918 32,000 229 449 0
2022-05-25 22:58:56 GMT 41.556625 -73.989662 32,000 229 449 0
2022-05-25 22:58:53 GMT 41.560440 -73.983788 32,000 230 449 -64
2022-05-25 22:58:50 GMT 41.563477 -73.979126 32,000 230 448 0
2022-05-25 22:58:47 GMT 41.571075 -73.967392 32,000 230 448 64
2022-05-25 22:58:45 GMT 41.571075 -73.967392 32,000 230 448 64
2022-05-25 22:58:42 GMT 41.575199 -73.961113 32,000 230 448 0
2022-05-25 22:58:38 GMT 41.580368 -73.953094 32,000 230 448 0
2022-05-25 22:58:35 GMT 41.584671 -73.946480 32,000 230 448 0
2022-05-25 22:58:32 GMT 41.592865 -73.933929 32,000 230 448 0
2022-05-25 22:58:28 GMT 41.592865 -73.933929 32,000 230 448 0
2022-05-25 22:58:26 GMT 41.595566 -73.929749 32,000 230 448 0
2022-05-25 22:58:23 GMT 41.600849 -73.921638 32,000 230 448 64
2022-05-25 22:58:20 GMT 41.607101 -73.911957 32,000 230 448 64
2022-05-25 22:58:17 GMT 41.607101 -73.911957 32,000 230 448 64
2022-05-25 22:58:15 GMT 41.611359 -73.905403 32,000 230 448 0
2022-05-25 22:58:12 GMT 41.614956 -73.899857 32,000 230 448 -64
2022-05-25 22:58:09 GMT 41.620010 -73.892044 32,000 229 447 0
2022-05-25 22:58:06 GMT 41.623901 -73.886116 32,000 229 447 0
2022-05-25 22:58:04 GMT 41.626648 -73.881935 32,000 229 447 0
2022-05-25 22:58:00 GMT 41.632271 -73.873222 32,000 230 447 64
2022-05-25 22:57:57 GMT 41.635254 -73.868637 32,000 230 446 0
2022-05-25 22:57:55 GMT 41.638458 -73.863518 32,000 232 445 0
2022-05-25 22:57:52 GMT 41.643585 -73.854965 32,000 233 445 0
2022-05-25 22:57:49 GMT 41.646843 -73.849266 32,000 238 441 0
2022-05-25 22:57:46 GMT 41.649536 -73.844353 32,000 235 443 0
2022-05-25 22:57:43 GMT 41.653965 -73.836044 32,000 236 442 0
2022-05-25 22:57:40 GMT 41.661179 -73.821358 32,000 237 441 0
2022-05-25 22:57:36 GMT 41.661179 -73.821358 32,000 239 441 0
2022-05-25 22:57:34 GMT 41.666519 -73.809586 32,000 240 439 -64
2022-05-25 22:57:31 GMT 41.668945 -73.803970 32,000 243 437 64
2022-05-25 22:57:29 GMT 41.672215 -73.795868 32,000 243 437 64
2022-05-25 22:57:25 GMT 41.672215 -73.795868 32,000 245 436 64
2022-05-25 22:57:22 GMT 41.675705 -73.786415 32,000 245 436 64
2022-05-25 22:57:18 GMT 41.678123 -73.779388 32,000 247 434 -64
2022-05-25 22:57:15 GMT 41.680965 -73.770508 32,000 249 433 64
2022-05-25 22:57:12 GMT 41.683228 -73.763016 32,000 249 433 64
2022-05-25 22:57:09 GMT 41.685516 -73.755341 32,000 249 433 64
2022-05-25 22:57:05 GMT 41.687988 -73.747162 32,000 249 433 0
2022-05-25 22:57:02 GMT 41.690643 -73.738235 32,000 249 433 0
2022-05-25 22:56:59 GMT 41.692429 -73.732246 32,000 249 433 -64
2022-05-25 22:56:55 GMT 41.695538 -73.721840 32,000 249 432 -64
2022-05-25 22:56:52 GMT 41.697865 -73.714043 32,000 249 432 0
2022-05-25 22:56:48 GMT 41.700283 -73.705933 32,000 249 432 0
2022-05-25 22:56:45 GMT 41.703217 -73.696037 32,000 249 432 64
2022-05-25 22:56:41 GMT 41.706196 -73.686134 32,000 249 432 0
2022-05-25 22:56:38 GMT 41.708851 -73.677193 32,000 249 431 0
2022-05-25 22:56:35 GMT 41.710293 -73.672272 32,000 249 431 64
2022-05-25 22:56:32 GMT 41.713272 -73.662308 32,000 249 431 0
2022-05-25 22:56:29 GMT 41.714714 -73.657387 32,000 249 431 -64
2022-05-25 22:56:26 GMT 41.716965 -73.649971 32,000 249 431 -64
2022-05-25 22:56:23 GMT 41.718861 -73.643463 32,000 249 431 -64
2022-05-25 22:56:21 GMT 41.720348 -73.638481 32,000 249 431 -64
2022-05-25 22:56:18 GMT 41.723145 -73.629059 32,000 249 430 0
2022-05-25 22:56:15 GMT 41.724930 -73.623131 32,000 249 431 0
2022-05-25 22:56:12 GMT 41.727097 -73.615746 32,000 249 431 0
2022-05-25 22:56:09 GMT 41.729752 -73.606804 32,000 249 431 0
2022-05-25 22:56:07 GMT 41.730869 -73.603096 32,000 249 430 0
2022-05-25 22:56:04 GMT 41.732529 -73.597473 32,000 249 430 0
2022-05-25 22:56:01 GMT 41.735619 -73.587128 32,000 249 430 0
2022-05-25 22:55:58 GMT 41.737385 -73.581123 32,000 249 430 64
2022-05-25 22:55:55 GMT 41.742508 -73.563828 32,000 249 430 64
2022-05-25 22:55:51 GMT 41.744415 -73.557365 32,000 249 430 -64
2022-05-25 22:55:48 GMT 41.744415 -73.557365 32,000 249 430 -64
2022-05-25 22:55:46 GMT 41.746307 -73.550972 32,000 249 430 -64
2022-05-25 22:55:43 GMT 41.748367 -73.544044 32,000 249 430 0
2022-05-25 22:55:40 GMT 41.750839 -73.535645 32,000 249 430 64
2022-05-25 22:55:37 GMT 41.753494 -73.526764 32,000 249 429 64
2022-05-25 22:55:33 GMT 41.755692 -73.519325 32,000 249 429 -64
2022-05-25 22:55:30 GMT 41.760242 -73.503967 32,000 249 429 -64
2022-05-25 22:55:27 GMT 41.760242 -73.503967 32,000 249 429 0
2022-05-25 22:55:24 GMT 41.762741 -73.495598 32,000 249 428 64
2022-05-25 22:55:20 GMT 41.765224 -73.487167 32,000 249 428 0
2022-05-25 22:55:17 GMT 41.767834 -73.478287 32,000 249 428 -64
2022-05-25 22:55:14 GMT 41.770294 -73.469887 32,000 249 428 -64
2022-05-25 22:55:11 GMT 41.774689 -73.455154 32,000 249 428 0
2022-05-25 22:55:08 GMT 41.774689 -73.455154 32,000 249 429 64
2022-05-25 22:55:03 GMT 41.777748 -73.444756 32,000 249 429 0
2022-05-25 22:54:57 GMT 41.781693 -73.431366 32,000 249 429 0
2022-05-25 22:54:55 GMT 41.783848 -73.424126 32,000 249 429 64
2022-05-25 22:54:52 GMT 41.785336 -73.419075 32,000 249 428 0
2022-05-25 22:54:49 GMT 41.788219 -73.409302 32,000 249 428 0
2022-05-25 22:54:45 GMT 41.790596 -73.401321 32,000 249 429 -64
2022-05-25 22:54:42 GMT 41.793484 -73.391418 32,000 249 429 64
2022-05-25 22:54:37 GMT 41.796844 -73.380119 32,000 249 429 64
2022-05-25 22:54:32 GMT 41.800186 -73.368744 32,000 249 429 0
2022-05-25 22:54:27 GMT 41.804234 -73.355011 32,000 249 429 -64
2022-05-25 22:54:24 GMT 41.806458 -73.347473 32,000 249 429 0
2022-05-25 22:54:21 GMT 41.808472 -73.340546 32,000 249 429 -64
2022-05-25 22:54:16 GMT 41.811401 -73.330620 32,000 249 429 64
2022-05-25 22:54:14 GMT 41.813267 -73.324226 32,000 249 429 64
2022-05-25 22:54:10 GMT 41.816071 -73.314697 32,000 249 429 64
2022-05-25 22:54:06 GMT 41.818897 -73.305191 32,000 249 429 -64
2022-05-25 22:54:04 GMT 41.820900 -73.298355 32,000 249 429 -128
2022-05-25 22:54:01 GMT 41.822754 -73.291977 32,000 249 429 64
2022-05-25 22:53:58 GMT 41.825134 -73.283928 32,000 249 429 64
2022-05-25 22:53:55 GMT 41.827103 -73.277184 32,000 249 429 64
2022-05-25 22:53:52 GMT 41.829712 -73.268196 32,000 249 429 0
2022-05-25 22:53:49 GMT 41.831177 -73.263138 32,000 249 429 0
2022-05-25 22:53:45 GMT 41.835052 -73.249939 32,000 249 428 -64
2022-05-25 22:53:42 GMT 41.836823 -73.243874 32,000 249 428 -64
2022-05-25 22:53:38 GMT 41.838871 -73.236969 32,000 249 428 64
2022-05-25 22:53:35 GMT 41.842083 -73.226112 32,000 249 428 64
2022-05-25 22:53:30 GMT 41.845528 -73.214294 32,000 249 428 64
2022-05-25 22:53:26 GMT 41.848087 -73.205544 32,000 249 428 64
2022-05-25 22:53:21 GMT 41.853470 -73.187172 32,000 249 428 -64
2022-05-25 22:53:18 GMT 41.853470 -73.187172 32,000 249 428 -64
2022-05-25 22:53:15 GMT 41.858047 -73.171509 32,000 249 428 0
2022-05-25 22:53:10 GMT 41.859833 -73.165390 32,000 249 428 64
2022-05-25 22:53:07 GMT 41.861298 -73.160454 32,000 249 428 64
2022-05-25 22:53:04 GMT 41.864658 -73.149017 32,000 249 428 -64
2022-05-25 22:53:01 GMT 41.868618 -73.135414 32,000 249 428 -64
2022-05-25 22:52:58 GMT 41.870384 -73.129471 32,000 249 428 64
2022-05-25 22:52:55 GMT 41.870384 -73.129471 32,000 249 428 64
2022-05-25 22:52:52 GMT 41.872879 -73.120880 32,000 249 429 -64
2022-05-25 22:52:48 GMT 41.875366 -73.112419 32,000 249 429 -64
2022-05-25 22:52:45 GMT 41.877777 -73.104149 32,000 249 429 -64
2022-05-25 22:52:42 GMT 41.879974 -73.096642 32,000 249 429 0
2022-05-25 22:52:39 GMT 41.882305 -73.088593 32,000 249 429 64
2022-05-25 22:52:35 GMT 41.885605 -73.077248 32,000 249 430 64
2022-05-25 22:52:32 GMT 41.887516 -73.070770 32,000 249 430 0
2022-05-25 22:52:28 GMT 41.889954 -73.062325 32,000 249 430 -128
2022-05-25 22:52:25 GMT 41.892517 -73.053589 32,000 249 430 -64
2022-05-25 22:52:22 GMT 41.894302 -73.047470 32,000 249 429 64
2022-05-25 22:52:19 GMT 41.898010 -73.034615 32,000 249 428 0
2022-05-25 22:52:13 GMT 41.902180 -73.020309 32,000 249 427 0
2022-05-25 22:52:11 GMT 41.902180 -73.020309 32,000 249 426 0
2022-05-25 22:52:08 GMT 41.904743 -73.011559 32,000 249 426 0
2022-05-25 22:52:04 GMT 41.907486 -73.002029 32,000 249 423 64
2022-05-25 22:52:01 GMT 41.909630 -72.994637 32,000 249 423 64
2022-05-25 22:51:57 GMT 41.914856 -72.976624 32,000 249 421 0
2022-05-25 22:51:53 GMT 41.914856 -72.976624 32,000 249 421 -64
2022-05-25 22:51:50 GMT 41.916660 -72.970299 32,000 249 420 -64
2022-05-25 22:51:47 GMT 41.919067 -72.962074 32,000 249 418 64
2022-05-25 22:51:44 GMT 41.921265 -72.954338 32,000 249 417 0
2022-05-25 22:51:41 GMT 41.923641 -72.946152 32,000 249 415 0
2022-05-25 22:51:38 GMT 41.927834 -72.931778 32,000 249 415 0
2022-05-25 22:51:35 GMT 41.927834 -72.931778 32,000 249 413 0
2022-05-25 22:51:32 GMT 41.930252 -72.923347 32,000 249 412 0
2022-05-25 22:51:29 GMT 41.931564 -72.918884 32,000 249 411 -64
2022-05-25 22:51:26 GMT 41.933605 -72.911728 32,000 249 409 -64
2022-05-25 22:51:23 GMT 41.935867 -72.903900 32,000 249 409 -64
2022-05-25 22:51:18 GMT 41.940811 -72.886734 31,800 249 406 256
2022-05-25 22:51:15 GMT 41.940811 -72.886734 32,000 249 406 256
2022-05-25 22:51:12 GMT 41.943008 -72.879181 31,975 249 406 384
2022-05-25 22:51:10 GMT 41.944729 -72.873146 31,950 249 405 960
2022-05-25 22:51:07 GMT 41.946762 -72.866074 31,875 249 405 1152
2022-05-25 22:51:04 GMT 41.950733 -72.852516 31,800 249 405 1152
2022-05-25 22:51:01 GMT 41.950733 -72.852516 31,775 249 406 1088
2022-05-25 22:50:58 GMT 41.952366 -72.846893 31,550 249 406 1088
2022-05-25 22:50:55 GMT 41.955067 -72.837502 31,675 249 406 1024
2022-05-25 22:50:52 GMT 41.956558 -72.832298 31,650 249 406 960
2022-05-25 22:50:48 GMT 41.958984 -72.823875 31,575 249 406 832
2022-05-25 22:50:45 GMT 41.964935 -72.803276 31,525 249 406 768
2022-05-25 22:50:41 GMT 41.964935 -72.803276 31,450 249 406 704
2022-05-25 22:50:38 GMT 41.966702 -72.797134 31,450 249 405 704
2022-05-25 22:50:34 GMT 41.968735 -72.790039 31,300 249 405 896
2022-05-25 22:50:31 GMT 41.971870 -72.779182 31,375 249 405 768
2022-05-25 22:50:28 GMT 41.972809 -72.775932 31,300 249 403 896
2022-05-25 22:50:25 GMT 41.977783 -72.758621 31,250 249 403 960
2022-05-25 22:50:21 GMT 41.977783 -72.758621 31,200 249 403 896
2022-05-25 22:50:18 GMT 41.979923 -72.751144 31,150 249 403 896
2022-05-25 22:50:15 GMT 41.981644 -72.745163 31,125 249 403 896
2022-05-25 22:50:12 GMT 41.986221 -72.729240 31,050 249 403 896
2022-05-25 22:50:09 GMT 41.986221 -72.729240 31,025 249 403 896
2022-05-25 22:50:05 GMT 41.988922 -72.719818 30,975 249 402 832
2022-05-25 22:50:02 GMT 41.989975 -72.716194 30,025 249 402 832
2022-05-25 22:49:58 GMT 41.993843 -72.702728 30,825 249 402 832
2022-05-25 22:49:53 GMT 41.998856 -72.685234 30,800 250 402 896
2022-05-25 22:49:50 GMT 41.998856 -72.685234 30,750 249 401 960
2022-05-25 22:49:47 GMT 42.000591 -72.679161 30,500 249 401 960
2022-05-25 22:49:44 GMT 42.002289 -72.673309 30,600 249 401 896
2022-05-25 22:49:41 GMT 42.004486 -72.665695 30,625 249 401 960
2022-05-25 22:49:38 GMT 42.006821 -72.657516 30,525 249 401 960
2022-05-25 22:49:35 GMT 42.008835 -72.650543 30,525 249 401 896
2022-05-25 22:49:31 GMT 42.011398 -72.641541 30,475 249 401 896
2022-05-25 22:49:26 GMT 42.014465 -72.630875 30,375 250 400 896
2022-05-25 22:49:23 GMT 42.016838 -72.622505 30,350 250 400 896
2022-05-25 22:49:19 GMT 42.019493 -72.613243 30,300 250 399 960
2022-05-25 22:49:16 GMT 42.021469 -72.606270 30,250 250 399 960
2022-05-25 22:49:13 GMT 42.022892 -72.601295 30,150 249 398 960
2022-05-25 22:49:10 GMT 42.024902 -72.594223 30,175 249 398 960
2022-05-25 22:49:07 GMT 42.029549 -72.578049 30,075 249 398 960
2022-05-25 22:49:03 GMT 42.029549 -72.578049 30,025 250 398 960
2022-05-25 22:49:00 GMT 42.031769 -72.570251 30,000 250 398 960
2022-05-25 22:48:55 GMT 42.034882 -72.559387 29,825 250 397 960
2022-05-25 22:48:51 GMT 42.038391 -72.546944 29,825 250 397 896
2022-05-25 22:48:48 GMT 42.042984 -72.530800 29,775 250 396 960
2022-05-25 22:48:43 GMT 42.042984 -72.530800 29,725 250 395 960
2022-05-25 22:48:39 GMT 42.045235 -72.522926 29,675 250 395 1024
2022-05-25 22:48:35 GMT 42.048634 -72.510918 29,550 250 395 960
2022-05-25 22:48:32 GMT 42.049660 -72.507469 29,550 250 395 960
2022-05-25 22:48:29 GMT 42.052032 -72.499039 29,500 250 395 896
2022-05-25 22:48:26 GMT 42.054405 -72.490791 29,450 250 393 896
2022-05-25 22:48:22 GMT 42.056580 -72.483047 29,400 250 393 960
2022-05-25 22:48:18 GMT 42.058914 -72.474869 29,325 250 392 1024
2022-05-25 22:48:16 GMT 42.060471 -72.469315 29,325 250 392 1024
2022-05-25 22:48:13 GMT 42.062851 -72.461075 29,225 250 391 1024
2022-05-25 22:48:08 GMT 42.065460 -72.451965 29,175 250 391 1024
2022-05-25 22:48:03 GMT 42.068527 -72.441040 29,050 250 391 1088
2022-05-25 22:48:00 GMT 42.071167 -72.431778 29,025 250 391 1024
2022-05-25 22:47:57 GMT 42.072144 -72.428307 29,000 250 391 1024
2022-05-25 22:47:54 GMT 42.074612 -72.419701 28,875 250 390 1024
2022-05-25 22:47:51 GMT 42.076263 -72.413826 28,850 250 390 1024
2022-05-25 22:47:48 GMT 42.078941 -72.404503 28,825 250 389 1024
2022-05-25 22:47:42 GMT 42.082851 -72.390701 28,000 250 382 1280
2022-05-25 22:47:37 GMT 42.085598 -72.380936 28,650 250 389 1024
2022-05-25 22:47:31 GMT 42.089230 -72.368095 28,000 250 382 1280
2022-05-25 22:47:28 GMT 42.091415 -72.360390 28,500 250 387 832
2022-05-25 22:47:24 GMT 42.096222 -72.343346 28,425 250 386 768
2022-05-25 22:47:21 GMT 42.096222 -72.343346 28,400 250 386 768
2022-05-25 22:47:17 GMT 42.098583 -72.334946 28,350 250 385 768
2022-05-25 22:47:12 GMT 42.101379 -72.325172 28,300 250 383 832
2022-05-25 22:47:09 GMT 42.103043 -72.319252 28,250 250 383 896
2022-05-25 22:47:06 GMT 42.105011 -72.312202 28,025 250 382 1216
2022-05-25 22:47:02 GMT 42.108078 -72.301460 28,100 250 382 1216
2022-05-25 22:46:59 GMT 42.109039 -72.297966 27,500 250 381 1216
2022-05-25 22:46:56 GMT 42.110924 -72.291321 28,025 250 382 1280
2022-05-25 22:46:54 GMT 42.112793 -72.284737 27,925 250 382 1280
2022-05-25 22:46:50 GMT 42.115669 -72.274521 27,800 250 381 1280
2022-05-25 22:46:47 GMT 42.116974 -72.269920 27,800 250 381 1280
2022-05-25 22:46:44 GMT 42.118694 -72.263725 27,725 250 381 1280
2022-05-25 22:46:40 GMT 42.120975 -72.255737 27,675 250 381 1280
2022-05-25 22:46:37 GMT 42.123444 -72.246986 27,600 250 381 1216
2022-05-25 22:46:34 GMT 42.125214 -72.240662 27,325 250 379 896
2022-05-25 22:46:30 GMT 42.127960 -72.230888 27,450 250 381 1024
2022-05-25 22:46:27 GMT 42.130096 -72.223373 27,400 250 380 960
2022-05-25 22:46:23 GMT 42.132294 -72.215508 27,350 250 380 960
2022-05-25 22:46:20 GMT 42.134663 -72.207069 27,250 250 379 896
2022-05-25 22:46:17 GMT 42.135921 -72.202599 27,275 250 379 896
2022-05-25 22:46:14 GMT 42.138016 -72.195091 27,225 250 378 832
2022-05-25 22:46:09 GMT 42.140991 -72.184547 27,150 250 377 832
2022-05-25 22:46:06 GMT 42.142227 -72.180054 27,125 250 377 832
2022-05-25 22:46:03 GMT 42.144344 -72.172577 27,075 250 375 768
2022-05-25 22:45:59 GMT 42.147125 -72.162514 27,025 250 375 704
2022-05-25 22:45:55 GMT 42.149094 -72.155579 27,000 250 374 704
2022-05-25 22:45:52 GMT 42.151016 -72.148590 26,900 250 373 704
2022-05-25 22:45:49 GMT 42.153214 -72.140785 26,900 250 371 832
2022-05-25 22:45:46 GMT 42.155239 -72.133614 26,875 250 371 832
2022-05-25 22:45:42 GMT 42.157192 -72.126518 26,825 250 370 896
2022-05-25 22:45:37 GMT 42.159897 -72.116570 26,725 253 368 960
2022-05-25 22:45:34 GMT 42.161430 -72.110237 26,675 254 367 960
2022-05-25 22:45:31 GMT 42.163010 -72.103462 26,650 255 366 960
2022-05-25 22:45:28 GMT 42.164875 -72.094269 26,600 257 364 960
2022-05-25 22:45:25 GMT 42.165947 -72.088066 26,575 258 364 896
2022-05-25 22:45:22 GMT 42.166946 -72.081673 26,500 260 362 960
2022-05-25 22:45:19 GMT 42.167904 -72.074974 26,450 263 359 1024
2022-05-25 22:45:16 GMT 42.168549 -72.069252 26,425 263 360 1024
2022-05-25 22:45:14 GMT 42.169098 -72.063698 26,375 264 359 1024
2022-05-25 22:45:11 GMT 42.169624 -72.057030 26,325 266 359 1024
2022-05-25 22:45:08 GMT 42.169903 -72.051918 26,250 268 357 1088
2022-05-25 22:45:05 GMT 42.170090 -72.046555 26,250 268 357 1088
2022-05-25 22:45:03 GMT 42.170231 -72.041954 26,225 269 357 1088
2022-05-25 22:44:59 GMT 42.170322 -72.032181 26,100 270 356 1152
2022-05-25 22:44:55 GMT 42.170425 -72.023811 26,050 270 356 1216
2022-05-25 22:44:53 GMT 42.170425 -72.019379 25,775 270 356 1216
2022-05-25 22:44:49 GMT 42.170563 -72.008705 25,925 270 356 1216
2022-05-25 22:44:46 GMT 42.170700 -71.994530 25,850 270 355 1152
2022-05-25 22:44:43 GMT 42.170700 -71.994530 25,800 270 355 1152
2022-05-25 22:44:39 GMT 42.170742 -71.988937 25,725 270 355 1152
2022-05-25 22:44:35 GMT 42.170792 -71.978615 25,650 270 355 1216
2022-05-25 22:44:33 GMT 42.170879 -71.965942 25,600 270 355 1152
2022-05-25 22:44:30 GMT 42.170879 -71.965942 25,525 270 354 1088
2022-05-25 22:44:27 GMT 42.170925 -71.960709 25,500 270 354 1088
2022-05-25 22:44:24 GMT 42.170975 -71.953957 25,450 270 354 1024
2022-05-25 22:44:21 GMT 42.171021 -71.947838 25,400 270 354 960
2022-05-25 22:44:18 GMT 42.171066 -71.941658 25,325 270 353 960
2022-05-25 22:44:15 GMT 42.171112 -71.933792 25,275 270 353 1024
2022-05-25 22:44:12 GMT 42.171207 -71.928001 25,250 270 352 1088
2022-05-25 22:44:09 GMT 42.171249 -71.920685 25,175 270 352 1152
2022-05-25 22:44:06 GMT 42.171341 -71.909325 25,100 270 352 1216
2022-05-25 22:44:02 GMT 42.171341 -71.909325 25,100 270 352 1216
2022-05-25 22:44:00 GMT 42.171394 -71.901878 25,025 270 352 1280
2022-05-25 22:43:56 GMT 42.171486 -71.891914 24,925 270 351 1280
2022-05-25 22:43:53 GMT 42.171524 -71.887978 24,850 270 351 1280
2022-05-25 22:43:51 GMT 42.171577 -71.882271 24,825 270 351 1280
2022-05-25 22:43:48 GMT 42.171616 -71.874809 24,750 270 351 1280
2022-05-25 22:43:45 GMT 42.171661 -71.870438 24,700 270 351 1280
2022-05-25 22:43:42 GMT 42.171719 -71.862915 24,600 270 351 1280
2022-05-25 22:43:39 GMT 42.171753 -71.856453 24,575 270 351 1280
2022-05-25 22:43:36 GMT 42.171810 -71.848099 24,450 270 350 1216
2022-05-25 22:43:33 GMT 42.171860 -71.843750 24,450 270 350 1216
2022-05-25 22:43:29 GMT 42.171936 -71.834602 24,400 270 350 1216
2022-05-25 22:43:26 GMT 42.172047 -71.820183 24,300 270 350 1216
2022-05-25 22:43:23 GMT 42.172047 -71.820183 24,250 270 350 1216
2022-05-25 22:43:21 GMT 42.172047 -71.816032 24,225 270 350 1152
2022-05-25 22:43:18 GMT 42.172092 -71.811623 24,100 270 350 1024
2022-05-25 22:43:15 GMT 42.172165 -71.804016 24,025 270 349 704
2022-05-25 22:43:12 GMT 42.172211 -71.796150 24,075 270 349 704
2022-05-25 22:43:09 GMT 42.172256 -71.790039 24,050 270 349 576
2022-05-25 22:43:04 GMT 42.172302 -71.779610 24,000 270 349 256
2022-05-25 22:43:01 GMT 42.172348 -71.773491 24,000 270 349 192
2022-05-25 22:42:58 GMT 42.172371 -71.766975 24,000 270 348 0
2022-05-25 22:42:54 GMT 42.172462 -71.757462 24,000 270 348 0
2022-05-25 22:42:51 GMT 42.172485 -71.750961 24,000 270 348 64
2022-05-25 22:42:47 GMT 42.172558 -71.741936 24,000 270 349 0
2022-05-25 22:42:44 GMT 42.172604 -71.736633 24,000 270 349 -128
2022-05-25 22:42:41 GMT 42.172649 -71.729866 24,000 270 349 192
2022-05-25 22:42:38 GMT 42.172714 -71.721619 24,000 270 348 320
2022-05-25 22:42:34 GMT 42.172760 -71.708641 23,950 270 347 960
2022-05-25 22:42:31 GMT 42.172760 -71.708641 23,925 270 347 1152
2022-05-25 22:42:29 GMT 42.172791 -71.703033 23,825 270 346 1152
2022-05-25 22:42:26 GMT 42.172882 -71.691605 23,725 270 346 1152
2022-05-25 22:42:23 GMT 42.172882 -71.691605 23,750 270 346 1152
2022-05-25 22:42:20 GMT 42.172897 -71.683296 23,725 270 346 1152
2022-05-25 22:42:17 GMT 42.172977 -71.676720 23,625 270 346 1280
2022-05-25 22:42:12 GMT 42.173023 -71.666374 23,500 270 345 1472
2022-05-25 22:42:09 GMT 42.173023 -71.661263 23,425 270 346 1536
2022-05-25 22:42:06 GMT 42.173080 -71.654770 23,375 270 346 1536
2022-05-25 22:42:02 GMT 42.173115 -71.644142 23,225 270 346 1536
2022-05-25 22:41:59 GMT 42.173172 -71.638535 23,150 270 346 1536
2022-05-25 22:41:56 GMT 42.173206 -71.632774 23,125 270 346 1536
2022-05-25 22:41:52 GMT 42.173218 -71.624619 23,000 270 347 1472
2022-05-25 22:41:49 GMT 42.173264 -71.619438 22,950 270 347 1408
2022-05-25 22:41:46 GMT 42.173309 -71.609886 22,875 270 347 1344
2022-05-25 22:41:43 GMT 42.173355 -71.603828 22,800 270 346 1344
2022-05-25 22:41:39 GMT 42.173393 -71.597389 22,700 270 346 1408
2022-05-25 22:41:36 GMT 42.173443 -71.588959 22,625 270 346 1408
2022-05-25 22:41:33 GMT 42.173489 -71.583595 22,600 270 346 1408
2022-05-25 22:41:29 GMT 42.173534 -71.575165 22,450 270 346 1408
2022-05-25 22:41:27 GMT 42.173534 -71.569862 22,450 270 346 1408
2022-05-25 22:41:23 GMT 42.173580 -71.561234 22,350 270 346 1408
2022-05-25 22:41:19 GMT 42.173630 -71.552399 22,250 270 345 1344
2022-05-25 22:41:16 GMT 42.173630 -71.547028 22,175 270 345 1280
2022-05-25 22:41:13 GMT 42.173721 -71.533356 22,125 270 345 1280
2022-05-25 22:41:10 GMT 42.173721 -71.533356 22,050 270 345 1280
2022-05-25 22:41:06 GMT 42.173767 -71.526039 21,950 270 344 1280
2022-05-25 22:41:03 GMT 42.173767 -71.518745 21,900 270 344 1280
2022-05-25 22:41:00 GMT 42.173813 -71.512375 21,850 270 343 1280
2022-05-25 22:40:57 GMT 42.173859 -71.505951 21,800 270 343 1280
2022-05-25 22:40:54 GMT 42.173859 -71.500427 21,700 270 342 1280
2022-05-25 22:40:51 GMT 42.173908 -71.494423 21,600 270 342 1280
2022-05-25 22:40:47 GMT 42.173954 -71.483376 21,550 270 341 1280
2022-05-25 22:40:44 GMT 42.173950 -71.476990 21,475 270 341 1216
2022-05-25 22:40:40 GMT 42.173996 -71.471931 21,450 270 341 1216
2022-05-25 22:40:37 GMT 42.174046 -71.464722 21,375 270 340 1216
2022-05-25 22:40:35 GMT 42.174046 -71.459610 20,375 270 340 1280
2022-05-25 22:40:31 GMT 42.174088 -71.449959 21,250 270 339 1344
2022-05-25 22:40:27 GMT 42.174133 -71.443153 21,150 270 339 1408
2022-05-25 22:40:25 GMT 42.174133 -71.438103 21,050 270 338 1408
2022-05-25 22:40:20 GMT 42.174179 -71.428795 20,950 270 338 1408
2022-05-25 22:40:17 GMT 42.174179 -71.421242 20,925 270 338 1472
2022-05-25 22:40:15 GMT 42.174232 -71.417587 20,850 270 338 1472
2022-05-25 22:40:12 GMT 42.174225 -71.411255 20,800 270 338 1536
2022-05-25 22:40:09 GMT 42.174271 -71.406136 20,750 270 338 1664
2022-05-25 22:40:06 GMT 42.174278 -71.399765 20,650 270 338 1664
2022-05-25 22:40:02 GMT 42.174328 -71.388138 20,500 270 337 1600
2022-05-25 22:39:59 GMT 42.174316 -71.385040 20,375 270 337 1536
2022-05-25 22:39:56 GMT 42.174316 -71.378296 20,400 270 337 1600
2022-05-25 22:39:54 GMT 42.174374 -71.368591 20,300 270 337 1600
2022-05-25 22:39:51 GMT 42.174374 -71.368591 20,200 270 337 1600
2022-05-25 22:39:48 GMT 42.174408 -71.359947 20,150 270 337 1536
2022-05-25 22:39:45 GMT 42.174408 -71.353889 20,100 270 337 1536
2022-05-25 22:39:42 GMT 42.174465 -71.349434 20,000 270 336 1472
2022-05-25 22:39:39 GMT 42.174465 -71.341827 19,950 270 336 1472
2022-05-25 22:39:35 GMT 42.174500 -71.333855 19,750 270 335 1600
2022-05-25 22:39:31 GMT 42.174500 -71.325424 19,725 270 335 1600
2022-05-25 22:39:28 GMT 42.174545 -71.320374 19,675 270 335 1600
2022-05-25 22:39:25 GMT 42.174545 -71.313065 19,600 270 334 1472
2022-05-25 22:39:23 GMT 42.174557 -71.307465 19,525 270 334 1408
2022-05-25 22:39:19 GMT 42.174591 -71.299583 19,450 270 333 1280
2022-05-25 22:39:15 GMT 42.174606 -71.290092 19,350 270 332 1216
2022-05-25 22:39:11 GMT 42.174637 -71.282234 19,275 270 331 1216
2022-05-25 22:39:08 GMT 42.174652 -71.277702 19,150 270 328 1216
2022-05-25 22:39:05 GMT 42.174683 -71.270622 19,175 270 329 1216
2022-05-25 22:39:02 GMT 42.174652 -71.265305 19,125 270 328 1280
2022-05-25 22:38:59 GMT 42.174698 -71.260582 19,075 270 328 1344
2022-05-25 22:38:56 GMT 42.174683 -71.255074 19,000 270 327 1408
2022-05-25 22:38:53 GMT 42.174698 -71.248894 18,950 270 327 1600
2022-05-25 22:38:50 GMT 42.174744 -71.240143 18,800 270 326 1792
2022-05-25 22:38:47 GMT 42.174744 -71.235992 18,725 270 326 1920
2022-05-25 22:38:44 GMT 42.174774 -71.228920 18,600 270 326 1984
2022-05-25 22:38:42 GMT 42.174774 -71.224930 18,500 270 327 1984
2022-05-25 22:38:39 GMT 42.174774 -71.219185 18,500 270 327 1984
2022-05-25 22:38:35 GMT 42.174820 -71.205261 18,300 270 327 1856
2022-05-25 22:38:29 GMT 42.174839 -71.198303 18,150 270 328 1920
2022-05-25 22:38:26 GMT 42.174820 -71.193031 18,050 270 328 1984
2022-05-25 22:38:23 GMT 42.174820 -71.186600 17,950 270 328 2048
2022-05-25 22:38:20 GMT 42.174839 -71.178696 17,750 270 329 2176
2022-05-25 22:38:17 GMT 42.174866 -71.172554 17,725 270 329 1984
2022-05-25 22:38:13 GMT 42.174885 -71.165535 17,600 270 329 2048
2022-05-25 22:38:10 GMT 42.174911 -71.158508 17,425 270 330 2368
2022-05-25 22:38:07 GMT 42.174885 -71.152313 17,350 270 330 2496
2022-05-25 22:38:04 GMT 42.174885 -71.146500 17,250 270 331 2752
2022-05-25 22:38:01 GMT 42.174911 -71.141159 17,050 270 333 3136
2022-05-25 22:37:58 GMT 42.174911 -71.134605 16,950 270 334 3456
2022-05-25 22:37:55 GMT 42.174957 -71.129417 16,800 270 335 3648
2022-05-25 22:37:52 GMT 42.174931 -71.123062 16,550 270 340 3904
2022-05-25 22:37:49 GMT 42.174976 -71.114693 16,250 270 344 3392
2022-05-25 22:37:46 GMT 42.174957 -71.109009 16,200 270 346 2880
2022-05-25 22:37:42 GMT 42.174976 -71.100067 16,050 270 348 2112
2022-05-25 22:37:38 GMT 42.174957 -71.092590 15,875 270 348 1664
2022-05-25 22:37:35 GMT 42.174976 -71.084351 15,825 270 348 1664
2022-05-25 22:37:32 GMT 42.174976 -71.079948 15,775 270 348 1664
2022-05-25 22:37:30 GMT 42.175003 -71.075111 15,675 270 347 1600
2022-05-25 22:37:27 GMT 42.175003 -71.061256 15,575 270 347 1600
2022-05-25 22:37:24 GMT 42.175003 -71.061256 15,525 270 347 1664
2022-05-25 22:37:21 GMT 42.175022 -71.056503 15,475 270 347 1664
2022-05-25 22:37:18 GMT 42.175049 -71.048462 15,350 270 346 1536
2022-05-25 22:37:15 GMT 42.175049 -71.041405 15,300 270 346 1472
2022-05-25 22:37:12 GMT 42.175049 -71.036285 15,200 270 344 1344
2022-05-25 22:37:09 GMT 42.175049 -71.023300 15,175 270 344 1280
2022-05-25 22:37:06 GMT 42.175049 -71.023300 15,125 270 343 1216
2022-05-25 22:37:03 GMT 42.175072 -71.014351 15,050 270 341 1152
2022-05-25 22:37:00 GMT 42.175072 -71.011024 14,975 270 339 960
2022-05-25 22:36:57 GMT 42.175049 -71.002953 14,925 270 337 768
2022-05-25 22:36:54 GMT 42.175072 -70.996651 14,925 270 337 768
2022-05-25 22:36:50 GMT 42.175049 -70.988411 14,875 270 333 512
2022-05-25 22:36:46 GMT 42.175049 -70.980232 14,825 270 330 384
2022-05-25 22:36:43 GMT 42.175049 -70.974365 14,825 270 327 320
2022-05-25 22:36:40 GMT 42.175049 -70.970306 14,800 270 323 576
2022-05-25 22:36:38 GMT 42.175072 -70.962738 14,775 270 322 640
2022-05-25 22:36:35 GMT 42.175022 -70.956863 14,750 270 319 1088
2022-05-25 22:36:32 GMT 42.175022 -70.953796 14,725 270 319 1152
2022-05-25 22:36:29 GMT 42.175049 -70.948586 14,650 270 318 1536
2022-05-25 22:36:27 GMT 42.175049 -70.943031 14,550 271 317 2112
2022-05-25 22:36:24 GMT 42.175003 -70.936722 14,425 270 317 2304
2022-05-25 22:36:20 GMT 42.175003 -70.922493 14,225 270 318 2432
2022-05-25 22:36:17 GMT 42.175003 -70.922493 14,150 270 318 2496
2022-05-25 22:36:13 GMT 42.175022 -70.913490 13,825 270 319 2560
2022-05-25 22:36:10 GMT 42.175022 -70.910362 13,775 270 320 2496
2022-05-25 22:36:07 GMT 42.175003 -70.904266 13,725 270 320 2496
2022-05-25 22:36:04 GMT 42.175003 -70.897835 13,600 270 321 2496
2022-05-25 22:36:01 GMT 42.175003 -70.892220 13,500 271 321 2496
2022-05-25 22:35:58 GMT 42.174976 -70.882957 13,325 271 321 2368
2022-05-25 22:35:54 GMT 42.174957 -70.876236 13,200 271 321 2176
2022-05-25 22:35:51 GMT 42.174885 -70.870949 13,100 271 321 1984
2022-05-25 22:35:48 GMT 42.174866 -70.865875 13,025 270 321 1984
2022-05-25 22:35:46 GMT 42.174839 -70.860664 12,950 270 320 1920
2022-05-25 22:35:43 GMT 42.174911 -70.854576 12,850 269 320 1920
2022-05-25 22:35:40 GMT 42.175163 -70.843040 12,725 268 319 1728
2022-05-25 22:35:37 GMT 42.175163 -70.843040 12,625 268 318 1728
2022-05-25 22:35:33 GMT 42.175491 -70.835114 12,525 266 316 1984
2022-05-25 22:35:30 GMT 42.175781 -70.830040 12,450 265 317 2112
2022-05-25 22:35:27 GMT 42.176373 -70.820869 12,300 265 316 2304
2022-05-25 22:35:23 GMT 42.176788 -70.815811 12,200 264 316 2304
2022-05-25 22:35:20 GMT 42.177212 -70.811485 12,125 263 316 2240
2022-05-25 22:35:17 GMT 42.177750 -70.805634 12,025 263 315 1664
2022-05-25 22:35:14 GMT 42.178436 -70.798584 11,875 263 315 1600
2022-05-25 22:35:11 GMT 42.178982 -70.792770 11,825 261 314 1408
2022-05-25 22:35:08 GMT 42.179585 -70.788170 11,675 258 313 1408
2022-05-25 22:35:05 GMT 42.180702 -70.781273 11,675 255 313 1472
2022-05-25 22:35:02 GMT 42.182327 -70.774239 11,600 251 311 1472
2022-05-25 22:34:58 GMT 42.183868 -70.768753 11,525 248 310 1536
2022-05-25 22:34:55 GMT 42.189468 -70.754822 11,425 243 310 1600
2022-05-25 22:34:51 GMT 42.189468 -70.754822 11,300 234 310 1984
2022-05-25 22:34:46 GMT 42.192806 -70.749016 11,175 230 311 2176
2022-05-25 22:34:44 GMT 42.194763 -70.746201 11,050 224 312 2368
2022-05-25 22:34:41 GMT 42.199139 -70.741028 10,950 213 314 1664
2022-05-25 22:34:38 GMT 42.202698 -70.737595 10,850 214 315 1856
2022-05-25 22:34:35 GMT 42.203934 -70.736496 10,825 209 315 1472
2022-05-25 22:34:33 GMT 42.207516 -70.733810 10,750 207 315 1280
2022-05-25 22:34:29 GMT 42.212311 -70.731003 10,650 196 313 960
2022-05-25 22:34:25 GMT 42.218922 -70.728317 10,625 195 312 1024
2022-05-25 22:34:22 GMT 42.222153 -70.727425 10,525 188 308 1088
2022-05-25 22:34:19 GMT 42.226685 -70.726547 10,500 188 308 1088
2022-05-25 22:34:16 GMT 42.234333 -70.725189 10,350 188 303 1664
2022-05-25 22:34:14 GMT 42.238495 -70.724487 10,350 188 303 1664
2022-05-25 22:34:11 GMT 42.238495 -70.724487 10,275 188 301 1536
2022-05-25 22:34:08 GMT 42.242844 -70.723679 10,200 188 299 1536
2022-05-25 22:34:05 GMT 42.246017 -70.723145 10,150 188 298 1600
2022-05-25 22:34:01 GMT 42.251556 -70.722122 10,025 188 296 2240
2022-05-25 22:33:58 GMT 42.256954 -70.721100 9,775 188 296 3008
2022-05-25 22:33:55 GMT 42.261333 -70.720268 9,675 189 297 3008
2022-05-25 22:33:52 GMT 42.264816 -70.719620 9,575 188 298 2752
2022-05-25 22:33:48 GMT 42.271339 -70.718674 9,350 183 298 2240
2022-05-25 22:33:45 GMT 42.274086 -70.718544 9,300 181 298 2240
2022-05-25 22:33:43 GMT 42.277393 -70.718613 8,725 153 296 2688
2022-05-25 22:33:40 GMT 42.280975 -70.719055 9,075 166 296 2624
2022-05-25 22:33:37 GMT 42.284821 -70.719994 8,900 164 295 2624
2022-05-25 22:33:34 GMT 42.288799 -70.721420 8,850 162 296 2688
2022-05-25 22:33:31 GMT 42.292694 -70.723236 8,450 157 296 2752
2022-05-25 22:33:28 GMT 42.296432 -70.725380 8,450 128 292 1984
2022-05-25 22:33:24 GMT 42.300900 -70.728706 8,425 146 295 2688
2022-05-25 22:33:13 GMT 42.328899 -70.737282 6,500 89 288 2496
2022-05-25 22:33:11 GMT 42.329010 -70.740868 6,500 89 288 2496
2022-05-25 22:33:10 GMT 42.329071 -70.742661 6,500 89 288 2496
2022-05-25 22:33:09 GMT 42.329128 -70.744461 6,500 89 288 2496
2022-05-25 22:33:07 GMT 42.329239 -70.748047 6,500 89 288 2496
2022-05-25 22:33:06 GMT 42.329300 -70.749840 6,500 89 288 2496
2022-05-25 22:33:05 GMT 42.329361 -70.751633 6,500 89 288 2496
2022-05-25 22:33:03 GMT 42.329472 -70.755219 6,500 89 288 2496
2022-05-25 22:33:02 GMT 42.329529 -70.757019 6,500 89 288 2496
2022-05-25 22:33:01 GMT 42.329590 -70.758812 6,500 89 288 2496
2022-05-25 22:33:00 GMT 42.329700 -70.762398 6,500 89 288 2496
2022-05-25 22:32:58 GMT 42.329762 -70.764191 6,500 89 288 2496
2022-05-25 22:32:57 GMT 42.329819 -70.765991 6,500 89 288 2496
2022-05-25 22:32:55 GMT 42.329929 -70.769569 6,500 89 288 2496
2022-05-25 22:32:54 GMT 42.330051 -70.773163 6,500 89 288 2496
2022-05-25 22:32:52 GMT 42.330101 -70.774963 6,500 89 288 2496
2022-05-25 22:32:50 GMT 42.330219 -70.778549 6,500 89 288 2496
2022-05-25 22:32:49 GMT 42.330269 -70.780342 6,500 89 288 2496
2022-05-25 22:32:48 GMT 42.330330 -70.782127 6,500 89 288 2496
2022-05-25 22:32:47 GMT 42.330441 -70.785721 6,500 89 288 2496
2022-05-25 22:32:45 GMT 42.330559 -70.789307 6,500 89 288 2496
2022-05-25 22:32:43 GMT 42.330620 -70.791100 6,500 89 288 2496
2022-05-25 22:32:42 GMT 42.331821 -70.792801 6,200 83 286 2496
2022-05-25 22:32:41 GMT 42.331631 -70.796356 6,200 83 286 2496
2022-05-25 22:32:39 GMT 42.331532 -70.798141 6,200 83 286 2496
2022-05-25 22:32:36 GMT 42.332310 -70.803871 6,200 77 274 2496
2022-05-25 22:32:34 GMT 42.331799 -70.807220 6,200 77 274 2496
2022-05-25 22:32:33 GMT 42.331650 -70.810921 6,000 76 270 2496
2022-05-25 22:32:31 GMT 42.331371 -70.812561 6,000 76 270 2496
2022-05-25 22:32:30 GMT 42.331089 -70.814201 6,000 76 270 2496
2022-05-25 22:32:28 GMT 42.330551 -70.817497 5,800 76 269 2496
2022-05-25 22:32:27 GMT 42.330269 -70.819138 5,800 76 269 1824
2022-05-25 22:32:26 GMT 42.329708 -70.822411 5,800 76 269 1824
2022-05-25 22:32:24 GMT 42.329510 -70.823967 5,600 76 271 1824
2022-05-25 22:32:22 GMT 42.328941 -70.827263 5,600 76 271 1824
2022-05-25 22:32:21 GMT 42.328369 -70.830551 5,600 76 271 1824
2022-05-25 22:32:19 GMT 42.328178 -70.832413 5,200 76 268 1824
2022-05-25 22:32:18 GMT 42.327881 -70.834030 5,200 76 268 1824
2022-05-25 22:32:16 GMT 42.327301 -70.837280 5,200 76 268 1824
2022-05-25 22:32:15 GMT 42.327229 -70.838921 5,200 75 268 1824
2022-05-25 22:32:14 GMT 42.326931 -70.840538 5,200 75 268 1824
2022-05-25 22:32:12 GMT 42.326309 -70.843781 5,200 75 268 1824
2022-05-25 22:32:11 GMT 42.326000 -70.845398 5,200 75 268 1824
2022-05-25 22:32:10 GMT 42.325401 -70.848839 5,100 75 265 1824
2022-05-25 22:32:08 GMT 42.325089 -70.850441 5,100 75 265 1824
2022-05-25 22:32:07 GMT 42.324478 -70.853653 5,100 75 265 1824
2022-05-25 22:32:05 GMT 42.324059 -70.855560 4,900 76 261 1824
2022-05-25 22:32:04 GMT 42.323761 -70.857132 4,900 76 261 1824
2022-05-25 22:32:02 GMT 42.323151 -70.860283 4,900 76 261 1824
2022-05-25 22:32:01 GMT 42.322250 -70.861931 4,700 77 256 1824
2022-05-25 22:32:00 GMT 42.321758 -70.865059 4,700 77 256 1824
2022-05-25 22:31:58 GMT 42.321522 -70.866631 4,700 77 256 1824
2022-05-25 22:31:57 GMT 42.321281 -70.868202 4,700 77 256 1824
2022-05-25 22:31:56 GMT 42.320782 -70.871407 4,400 76 254 1824
2022-05-25 22:31:54 GMT 42.320518 -70.872963 4,400 76 254 1824
2022-05-25 22:31:53 GMT 42.320271 -70.874512 4,400 76 254 1824
2022-05-25 22:31:51 GMT 42.319801 -70.877228 4,400 75 262 1824
2022-05-25 22:31:49 GMT 42.319248 -70.880417 4,400 75 262 1824
2022-05-25 22:31:48 GMT 42.318970 -70.882011 4,400 75 262 1824
2022-05-25 22:31:47 GMT 42.318890 -70.883652 4,000 73 260 1824
2022-05-25 22:31:45 GMT 42.318260 -70.886780 4,000 73 260 1824
2022-05-25 22:31:44 GMT 42.317951 -70.888351 4,000 73 260 1824
2022-05-25 22:31:43 GMT 42.317600 -70.891579 4,000 70 256 1824
2022-05-25 22:31:41 GMT 42.317230 -70.893097 4,000 70 256 1824
2022-05-25 22:31:40 GMT 42.316502 -70.896141 4,000 70 256 1824
2022-05-25 22:31:38 GMT 42.316601 -70.897942 3,900 67 251 1824
2022-05-25 22:31:37 GMT 42.316181 -70.899399 3,900 67 251 1824
2022-05-25 22:31:35 GMT 42.315331 -70.902313 3,900 67 251 1824
2022-05-25 22:31:34 GMT 42.314899 -70.903770 3,900 67 251 1824
2022-05-25 22:31:32 GMT 42.314251 -70.906937 3,600 66 244 1824
2022-05-25 22:31:31 GMT 42.313808 -70.908340 3,600 66 244 1824
2022-05-25 22:31:30 GMT 42.313370 -70.909737 3,600 66 244 1824
2022-05-25 22:31:28 GMT 42.312889 -70.912971 3,600 66 236 1824
2022-05-25 22:31:27 GMT 42.312431 -70.914299 3,600 66 236 1248
2022-05-25 22:31:26 GMT 42.311501 -70.916962 3,600 66 236 1248
2022-05-25 22:31:24 GMT 42.310719 -70.918114 3,300 71 234 1248
2022-05-25 22:31:23 GMT 42.310349 -70.919479 3,300 71 234 1248
2022-05-25 22:31:22 GMT 42.309608 -70.922218 3,300 71 234 1248
2022-05-25 22:31:20 GMT 42.308949 -70.923157 3,475 76 237 1248
2022-05-25 22:31:19 GMT 42.308380 -70.926010 3,300 76 237 1248
2022-05-25 22:31:17 GMT 42.308090 -70.927429 3,300 76 237 1248
2022-05-25 22:31:16 GMT 42.307800 -70.928864 3,300 76 237 1248
2022-05-25 22:31:14 GMT 42.307201 -70.931587 3,200 80 234 1248
2022-05-25 22:31:13 GMT 42.306992 -70.933022 3,200 80 234 1248
2022-05-25 22:31:12 GMT 42.306568 -70.935883 3,200 80 234 1248
2022-05-25 22:31:10 GMT 42.306149 -70.937241 2,900 85 230 1248
2022-05-25 22:31:09 GMT 42.305950 -70.940086 2,900 85 230 1248
2022-05-25 22:31:07 GMT 42.305840 -70.941513 2,900 85 230 1248
2022-05-25 22:31:06 GMT 42.305580 -70.944366 2,900 89 225 1248
2022-05-25 22:31:04 GMT 42.305561 -70.945770 2,900 89 225 1248
2022-05-25 22:31:03 GMT 42.305489 -70.947128 2,900 91 225 1248
2022-05-25 22:31:01 GMT 42.305519 -70.949921 2,500 94 224 1248
2022-05-25 22:31:00 GMT 42.305561 -70.951286 2,500 96 223 1248
2022-05-25 22:30:59 GMT 42.305740 -70.954132 2,500 101 215 1248
2022-05-25 22:30:57 GMT 42.306061 -70.956688 2,500 107 219 1248
2022-05-25 22:30:55 GMT 42.306301 -70.958031 2,500 109 217 1248
2022-05-25 22:30:54 GMT 42.306561 -70.959312 2,500 112 218 1248
2022-05-25 22:30:52 GMT 42.307201 -70.961853 2,400 117 219 1248
2022-05-25 22:30:51 GMT 42.307510 -70.963097 2,400 120 222 1248
2022-05-25 22:30:50 GMT 42.308479 -70.965508 2,400 123 220 1248
2022-05-25 22:30:48 GMT 42.309010 -70.966698 2,300 124 218 1248
2022-05-25 22:30:47 GMT 42.309528 -70.967873 2,200 126 217 1248
2022-05-25 22:30:45 GMT 42.310780 -70.970200 2,200 126 203 1248
2022-05-25 22:30:44 GMT 42.311230 -70.971130 2,200 127 214 1248
2022-05-25 22:30:43 GMT 42.311810 -70.972137 2,175 128 216 1248
2022-05-25 22:30:41 GMT 42.313099 -70.974312 2,100 127 207 1248
2022-05-25 22:30:40 GMT 42.313709 -70.975403 2,100 127 203 1248
2022-05-25 22:30:38 GMT 42.314869 -70.977371 1,900 127 200 1248
2022-05-25 22:30:37 GMT 42.315418 -70.978340 1,900 127 202 1248
2022-05-25 22:30:36 GMT 42.316051 -70.979362 1,900 126 198 1248
2022-05-25 22:30:34 GMT 42.317150 -70.981361 1,900 126 195 1248
2022-05-25 22:30:33 GMT 42.317669 -70.982368 1,900 128 194 1248
2022-05-25 22:30:31 GMT 42.318748 -70.984261 1,900 128 196 1248
2022-05-25 22:30:30 GMT 42.319321 -70.985229 1,900 127 193 1248
2022-05-25 22:30:29 GMT 42.319881 -70.986160 1,700 127 193 1248
2022-05-25 22:30:27 GMT 42.320938 -70.988091 1,700 126 192 1856
2022-05-25 22:30:26 GMT 42.321480 -70.989052 1,700 125 191 1856
2022-05-25 22:30:25 GMT 42.322609 -70.990952 1,700 123 187 1856
2022-05-25 22:30:23 GMT 42.323139 -70.991951 1,700 123 183 1856
2022-05-25 22:30:22 GMT 42.323528 -70.992897 1,700 124 186 1856
2022-05-25 22:30:21 GMT 42.324551 -70.994781 1,650 122 184 1856
2022-05-25 22:30:19 GMT 42.325020 -70.995750 1,475 122 183 1856
2022-05-25 22:30:17 GMT 42.325909 -70.997704 1,475 123 182 1856
2022-05-25 22:30:16 GMT 42.326439 -70.998558 1,475 121 181 1856
2022-05-25 22:30:15 GMT 42.327400 -71.000443 1,475 119 182 1856
2022-05-25 22:30:14 GMT 42.327831 -71.001411 1,475 119 182 1856
2022-05-25 22:30:11 GMT 42.329189 -71.004257 1,400 118 178 1856
2022-05-25 22:30:09 GMT 42.329609 -71.005211 1,300 119 177 1856
2022-05-25 22:30:08 GMT 42.330002 -71.006126 1,300 120 179 1856
2022-05-25 22:30:06 GMT 42.330818 -71.007942 1,200 123 182 0
2022-05-25 22:30:05 GMT 42.331291 -71.008911 1,200 124 178 0
2022-05-25 22:30:03 GMT 42.332211 -71.010719 1,200 129 174 2720
2022-05-25 22:30:02 GMT 42.332619 -71.011513 1,100 132 179 2720
2022-05-25 22:30:00 GMT 42.333710 -71.013100 1,100 136 175 2720
2022-05-25 22:29:59 GMT 42.334290 -71.013863 1,100 138 172 2720
2022-05-25 22:29:58 GMT 42.334820 -71.014587 1,100 142 169 2720
2022-05-25 22:29:57 GMT 42.336021 -71.015877 1,075 146 164 2720
2022-05-25 22:29:55 GMT 42.336620 -71.016533 1,000 151 161 2720
2022-05-25 22:29:53 GMT 42.337799 -71.017540 1,025 157 163 2720
2022-05-25 22:29:52 GMT 42.338451 -71.017982 975 160 161 2720
2022-05-25 22:29:51 GMT 42.339859 -71.018646 950 165 153 2720
2022-05-25 22:29:49 GMT 42.340408 -71.018929 925 168 159 2720
2022-05-25 22:29:47 GMT 42.341850 -71.019432 800 177 150 2720
2022-05-25 22:29:46 GMT 42.342560 -71.019539 800 179 147 2720
2022-05-25 22:29:44 GMT 42.343819 -71.019669 775 185 150 2720
2022-05-25 22:29:43 GMT 42.344528 -71.019638 725 188 147 2720
2022-05-25 22:29:42 GMT 42.345970 -71.019348 650 191 137 2720
2022-05-25 22:29:40 GMT 42.346489 -71.019279 625 193 144 2720
2022-05-25 22:29:39 GMT 42.347130 -71.019127 550 195 144 2720
2022-05-25 22:29:37 GMT 42.348480 -71.018646 525 197 138 2720
2022-05-25 22:29:35 GMT 42.349621 -71.018257 400 200 145 2720
2022-05-25 22:29:34 GMT 42.350220 -71.017960 400 199 149 2720
2022-05-25 22:29:33 GMT 42.350941 -71.017601 300 198 137 2720
2022-05-25 22:29:31 GMT 42.352112 -71.017059 175 199 138 2720
2022-05-25 22:29:30 GMT 42.352699 -71.016792 175 199 145 2720
2022-05-25 22:29:28 GMT 42.353981 -71.016182 100 198 141 2720
2022-05-25 22:29:27 GMT 42.354568 -71.015930 75 199 145 2720
2022-05-25 22:29:26 GMT 42.355839 -71.015320 -25 199 144 0
2022-05-25 22:29:24 GMT 42.356468 -71.015053 -150 200 146 0
2022-05-25 22:29:23 GMT 42.357731 -71.014420 -150 199 151 0
2022-05-25 22:29:21 GMT 42.358410 -71.014122 -200 199 148 0
2022-05-25 22:29:20 GMT 42.359058 -71.013802 -250 199 146 0
2022-05-25 22:29:18 GMT 42.360359 -71.013199 -350 200 149 0
2022-05-25 22:29:17 GMT 42.360970 -71.012863 -350 199 153 0
2022-05-25 22:29:15 GMT 42.362289 -71.012238 -350 199 151 0
2022-05-25 22:29:14 GMT 42.362930 -71.011917 -350 199 151 0
2022-05-25 22:29:13 GMT 42.363579 -71.011612 -375 199 149 -96
2022-05-25 22:29:11 GMT 42.364891 -71.011009 -350 200 142 -96
2022-05-25 22:29:10 GMT 42.365520 -71.010689 -350 200 138 0
2022-05-25 22:29:09 GMT 42.366131 -71.010422 -350 200 136 0
2022-05-25 22:29:07 GMT 42.367290 -71.009789 -350 199 131 0
2022-05-25 22:29:06 GMT 42.368431 -71.009247 -350 199 125 0
2022-05-25 22:29:04 GMT 42.368961 -71.008957 -350 198 123 0
2022-05-25 22:29:03 GMT 42.370029 -71.008492 -350 199 115 0
2022-05-25 22:29:01 GMT 42.370541 -71.008217 -350 199 111 0
2022-05-25 22:29:00 GMT 42.371040 -71.007973 -350 198 108 0
2022-05-25 22:28:58 GMT 42.371979 -71.007530 -350 199 102 0
2022-05-25 22:28:57 GMT 42.372421 -71.007317 -350 199 98 0
2022-05-25 22:28:55 GMT 42.373280 -71.006943 -350 199 91 0
2022-05-25 22:28:53 GMT 42.374069 -71.006554 -350 200 82 0
2022-05-25 22:28:52 GMT 42.374790 -71.006210 -350 202 74 0
2022-05-25 22:28:50 GMT 42.375099 -71.006050 -350 201 70 0
2022-05-25 22:28:49 GMT 42.375690 -71.005737 -350 200 61 0
2022-05-25 22:28:47 GMT 42.375950 -71.005539 -350 196 57 0
2022-05-25 22:28:46 GMT 42.376202 -71.005417 -350 195 53 0
2022-05-25 22:28:45 GMT 42.376469 -71.005341 0 197 44 0
2022-05-25 22:28:43 GMT 42.376911 -71.005157 0 198 31
2022-05-25 22:28:42 GMT 42.377430 -71.005043 0 220 11
2022-05-25 22:28:40 GMT 42.377499 -71.004990 0 222 8
2022-05-25 22:28:39 GMT 42.377529 -71.004959 0 222 7
2022-05-25 22:28:38 GMT 42.377628 -71.004822 0 222 0
2022-05-25 22:28:36 GMT 42.377628 -71.004822 0 222 0
2022-05-25 22:28:35 GMT 42.377628 -71.004799 0 222 1
2022-05-25 22:28:33 GMT 42.377628 -71.004784 0 223 1
2022-05-25 22:28:31 GMT 42.377659 -71.004807 0 221 0
2022-05-25 22:28:29 GMT 42.377651 -71.004807 0 220 0
2022-05-25 22:28:26 GMT 42.377651 -71.004799 0 220 0
2022-05-25 22:28:25 GMT 42.377628 -71.004822 0 220 1
2022-05-25 22:28:23 GMT 42.377628 -71.004822 0 220 1
2022-05-25 22:28:22 GMT 42.377640 -71.004822 0 220 1
2022-05-25 22:28:19 GMT 42.377628 -71.004791 0 220 1
2022-05-25 22:28:18 GMT 42.377640 -71.004791 0 220 0
2022-05-25 22:28:16 GMT 42.377651 -71.004799 0 219 1
2022-05-25 22:28:15 GMT 42.377640 -71.004799 0 213 1
2022-05-25 22:28:12 GMT 42.377651 -71.004807 0 207 1
2022-05-25 22:28:11 GMT 42.377628 -71.004799 0 206 1
2022-05-25 22:28:09 GMT 42.377621 -71.004799 0 205 0
2022-05-25 22:28:07 GMT 42.377621 -71.004807 0 203 0
2022-05-25 22:28:06 GMT 42.377651 -71.004799 0 201 0
2022-05-25 22:28:04 GMT 42.377640 -71.004822 0 199 1
2022-05-25 22:28:03 GMT 42.377628 -71.004807 0 198 1
2022-05-25 22:28:02 GMT 42.377628 -71.004799 0 198 1
2022-05-25 22:28:01 GMT 42.377628 -71.004791 0 198 0
2022-05-25 22:27:59 GMT 42.377628 -71.004799 0 200 1
2022-05-25 22:27:58 GMT 42.377628 -71.004807 0 201 1
2022-05-25 22:27:57 GMT 42.377651 -71.004799 0 201 0
2022-05-25 22:27:55 GMT 42.377651 -71.004799 0 203 0
2022-05-25 22:27:54 GMT 42.377659 -71.004791 0 204 1
2022-05-25 22:27:51 GMT 42.377659 -71.004807 0 203 0
2022-05-25 22:27:50 GMT 42.377640 -71.004807 0 204 1
2022-05-25 22:27:48 GMT 42.377640 -71.004807 0 204 1
2022-05-25 22:27:47 GMT 42.377659 -71.004829 0 201 0
2022-05-25 22:27:41 GMT 42.377628 -71.004799 0 196 1
2022-05-25 22:27:39 GMT 42.377651 -71.004784 0 196 1
2022-05-25 22:27:37 GMT 42.377659 -71.004829 0 196 2
2022-05-25 22:27:36 GMT 42.377651 -71.004807 0 194 1
2022-05-25 22:27:35 GMT 42.377651 -71.004761 0 194 1
2022-05-25 22:27:33 GMT 42.377640 -71.004730 0 198 2
2022-05-25 22:27:32 GMT 42.377640 -71.004738 0 199 2
2022-05-25 22:27:30 GMT 42.377628 -71.004784 0 201 1
2022-05-25 22:27:25 GMT 42.377640 -71.004799 0 198 1
2022-05-25 22:27:24 GMT 42.377640 -71.004791 0 198 0
2022-05-25 22:27:22 GMT 42.377651 -71.004791 0 198 0
2022-05-25 22:27:20 GMT 42.377651 -71.004791 0 198 0
2022-05-25 22:27:18 GMT 42.377651 -71.004799 0 198 0
2022-05-25 22:27:17 GMT 42.377659 -71.004807 0 198 1
2022-05-25 22:27:16 GMT 42.377651 -71.004791 0 194 1
2022-05-25 22:27:13 GMT 42.377640 -71.004791 0 193 0
2022-05-25 22:27:11 GMT 42.377651 -71.004799 0 193 0
2022-05-25 22:27:10 GMT 42.377628 -71.004799 0 193 0
2022-05-25 22:27:09 GMT 42.377651 -71.004799 0 193 0
2022-05-25 22:27:07 GMT 42.377651 -71.004807 0 193 0
2022-05-25 22:27:05 GMT 42.377640 -71.004852 0 192 3
2022-05-25 22:27:04 GMT 42.377659 -71.004807 0 188 1
2022-05-25 22:27:02 GMT 42.377659 -71.004791 0 184 1
2022-05-25 22:27:01 GMT 42.377670 -71.004799 0 176 2
2022-05-25 22:26:59 GMT 42.377640 -71.004768 0 170 1
2022-05-25 22:26:58 GMT 42.377621 -71.004761 0 173 1
2022-05-25 22:26:57 GMT 42.377621 -71.004784 0 186 2
2022-05-25 22:26:55 GMT 42.377628 -71.004791 0 197 3
2022-05-25 22:26:54 GMT 42.377640 -71.004807 0 200 4
2022-05-25 22:26:53 GMT 42.377670 -71.004799 0 203 5
2022-05-25 22:26:51 GMT 42.377708 -71.004768 0 206 2
2022-05-25 22:26:50 GMT 42.377689 -71.004768 0 195 8
2022-05-25 22:26:48 GMT 42.377731 -71.004730 0 195 8
2022-05-25 22:26:47 GMT 42.377800 -71.004753 0 197 6
2022-05-25 22:26:45 GMT 42.377800 -71.004707 0 183 8
2022-05-25 22:26:43 GMT 42.377880 -71.004707 0 168 7
2022-05-25 22:26:42 GMT 42.377911 -71.004692 0 149 7
2022-05-25 22:26:41 GMT 42.377960 -71.004677 0 133 10
2022-05-25 22:26:39 GMT 42.377991 -71.004677 0 126 13
2022-05-25 22:26:38 GMT 42.378090 -71.004807 0 113 9
2022-05-25 22:26:36 GMT 42.378101 -71.004837 0 115 11
2022-05-25 22:26:34 GMT 42.378201 -71.005043 0 109 7
2022-05-25 22:26:33 GMT 42.378208 -71.005119 0 110 8
2022-05-25 22:26:31 GMT 42.378208 -71.005150 0 110 9
2022-05-25 22:26:30 GMT 42.378220 -71.005180 0 110 10
2022-05-25 22:26:28 GMT 42.378281 -71.005363 0 109 7
2022-05-25 22:26:27 GMT 42.378281 -71.005379 0 109 7
2022-05-25 22:26:26 GMT 42.378288 -71.005440 0 108 10
2022-05-25 22:26:24 GMT 42.378342 -71.005577 0 104 6
2022-05-25 22:26:22 GMT 42.378349 -71.005638 0 101 6
2022-05-25 22:26:21 GMT 42.378361 -71.005669 0 99 7
2022-05-25 22:26:20 GMT 42.378361 -71.005699 0 95 7
2022-05-25 22:26:19 GMT 42.378422 -71.005814 0 81 5
2022-05-25 22:26:17 GMT 42.378422 -71.005836 0 80 6
2022-05-25 22:26:16 GMT 42.378410 -71.005882 0 79 8
2022-05-25 22:26:14 GMT 42.378429 -71.005989 0 74 6
2022-05-25 22:26:13 GMT 42.378391 -71.006027 0 83 7
2022-05-25 22:26:11 GMT 42.378368 -71.006042 0 80 9
2022-05-25 22:26:10 GMT 42.378361 -71.006248 0 53 5
2022-05-25 22:26:08 GMT 42.378361 -71.006302 0 43 5
2022-05-25 22:26:07 GMT 42.378361 -71.006310 0 36 7
2022-05-25 22:26:06 GMT 42.378330 -71.006348 0 29 11
2022-05-25 22:26:04 GMT 42.378300 -71.006393 0 23 12
2022-05-25 22:26:03 GMT 42.378288 -71.006477 0 18 14
2022-05-25 22:26:01 GMT 42.378201 -71.006531 0 16 17
2022-05-25 22:26:00 GMT 42.378052 -71.006599 0 15 19
2022-05-25 22:25:58 GMT 42.377972 -71.006622 0 17 19
2022-05-25 22:25:57 GMT 42.377892 -71.006638 0 18 20
2022-05-25 22:25:55 GMT 42.377720 -71.006683 0 24 21
2022-05-25 22:25:54 GMT 42.377628 -71.006721 0 25 21
2022-05-25 22:25:52 GMT 42.377480 -71.006882 0 17 22
2022-05-25 22:25:51 GMT 42.377399 -71.006897 0 19 23
2022-05-25 22:25:50 GMT 42.377300 -71.006943 0 20 23
2022-05-25 22:25:48 GMT 42.377079 -71.007080 0 17 21
2022-05-25 22:25:46 GMT 42.376888 -71.007149 0 18 22
2022-05-25 22:25:45 GMT 42.376801 -71.007179 0 19 22
2022-05-25 22:25:44 GMT 42.376591 -71.007271 0 21 21
2022-05-25 22:25:42 GMT 42.376499 -71.007309 0 22 22
2022-05-25 22:25:40 GMT 42.376301 -71.007431 0 21 21
2022-05-25 22:25:39 GMT 42.376221 -71.007507 0 14 21
2022-05-25 22:25:37 GMT 42.376030 -71.007599 0 9 20
2022-05-25 22:25:36 GMT 42.375931 -71.007599 0 13 21
2022-05-25 22:25:35 GMT 42.375740 -71.007660 0 18 21
2022-05-25 22:25:33 GMT 42.375641 -71.007690 0 23 22
2022-05-25 22:25:31 GMT 42.375431 -71.007767 0 29 18
2022-05-25 22:25:30 GMT 42.375381 -71.007843 0 24 20
2022-05-25 22:25:29 GMT 42.375290 -71.007889 0 25 20
2022-05-25 22:25:28 GMT 42.375221 -71.007942 0 25 21
2022-05-25 22:25:26 GMT 42.375050 -71.008080 0 17 19
2022-05-25 22:25:25 GMT 42.374882 -71.008186 0 9 19
2022-05-25 22:25:23 GMT 42.374802 -71.008209 0 9 19
2022-05-25 22:25:22 GMT 42.374699 -71.008217 0 13 18
2022-05-25 22:25:20 GMT 42.374550 -71.008263 0 19 19
2022-05-25 22:25:19 GMT 42.374439 -71.008293 0 22 17
2022-05-25 22:25:17 GMT 42.374298 -71.008392 0 15 18
2022-05-25 22:25:16 GMT 42.374210 -71.008400 0 22 18
2022-05-25 22:25:15 GMT 42.374062 -71.008499 0 21 17
2022-05-25 22:25:13 GMT 42.373981 -71.008522 0 27 17
2022-05-25 22:25:11 GMT 42.373852 -71.008690 0 1 16
2022-05-25 22:25:10 GMT 42.373772 -71.008682 0 5 17
2022-05-25 22:25:09 GMT 42.373669 -71.008659 0 18 14
2022-05-25 22:25:07 GMT 42.373562 -71.008720 0 23 15
2022-05-25 22:25:06 GMT 42.373482 -71.008759 0 26 15
2022-05-25 22:25:05 GMT 42.373348 -71.008842 0 25 12
2022-05-25 22:25:03 GMT 42.373329 -71.008942 0 10 13
2022-05-25 22:25:01 GMT 42.373211 -71.008987 0 6 12
2022-05-25 22:25:00 GMT 42.373138 -71.008987 0 14 11
2022-05-25 22:24:59 GMT 42.373058 -71.009018 0 14 15
2022-05-25 22:24:57 GMT 42.372971 -71.009010 0 26 12
2022-05-25 22:24:56 GMT 42.372890 -71.009033 0 33 7
2022-05-25 22:24:54 GMT 42.372791 -71.009117 0 20 7
2022-05-25 22:24:53 GMT 42.372780 -71.009140 0 21 9
2022-05-25 22:24:52 GMT 42.372681 -71.009163 0 30 6
2022-05-25 22:24:50 GMT 42.372669 -71.009232 0 35 5
2022-05-25 22:24:49 GMT 42.372662 -71.009239 0 68 6
2022-05-25 22:24:48 GMT 42.372570 -71.009216 0 81 3
2022-05-25 22:24:46 GMT 42.372532 -71.009232 0 81 2
2022-05-25 22:24:44 GMT 42.372520 -71.009239 0 81 4
2022-05-25 22:24:43 GMT 42.372509 -71.009270 0 77 3
2022-05-25 22:24:42 GMT 42.372551 -71.009323 0 78 2
2022-05-25 22:24:40 GMT 42.372551 -71.009331 0 80 3
2022-05-25 22:24:39 GMT 42.372520 -71.009323 0 84 2
2022-05-25 22:24:38 GMT 42.372501 -71.009300 0 83 0
2022-05-25 22:24:36 GMT 42.372501 -71.009300 0 83 0
2022-05-25 22:24:35 GMT 42.372509 -71.009300 0 83 0
2022-05-25 22:24:33 GMT 42.372532 -71.009300 0 83 1
2022-05-25 22:24:32 GMT 42.372532 -71.009308 0 84 2
2022-05-25 22:24:30 GMT 42.372501 -71.009323 0 86 2
2022-05-25 22:24:29 GMT 42.372459 -71.009270 0 86 2
2022-05-25 22:24:28 GMT 42.372490 -71.009300 0 86 0
2022-05-25 22:24:26 GMT 42.372509 -71.009293 0 86 0
2022-05-25 22:24:25 GMT 42.372490 -71.009300 0 86 0
2022-05-25 22:24:24 GMT 42.372490 -71.009300 0 84 1
2022-05-25 22:24:21 GMT 42.372509 -71.009300 0 84 0
2022-05-25 22:24:19 GMT 42.372478 -71.009300 0 84 1
2022-05-25 22:24:18 GMT 42.372429 -71.009300 0 81 4
2022-05-25 22:24:16 GMT 42.372540 -71.009262 0 54 2
2022-05-25 22:24:15 GMT 42.372532 -71.009270 0 54 2
2022-05-25 22:24:13 GMT 42.372501 -71.009308 0 54 0
2022-05-25 22:24:12 GMT 42.372532 -71.009331 0 55 3
2022-05-25 22:24:11 GMT 42.372520 -71.009323 0 56 3
2022-05-25 22:24:09 GMT 42.372471 -71.009300 0 57 1
2022-05-25 22:24:08 GMT 42.372478 -71.009277 0 57 0
2022-05-25 22:24:07 GMT 42.372452 -71.009277 0 56 3
2022-05-25 22:24:05 GMT 42.372501 -71.009293 0 54 0
2022-05-25 22:24:04 GMT 42.372501 -71.009277 0 54 0
2022-05-25 22:24:01 GMT 42.372501 -71.009277 0 54 0
2022-05-25 22:24:00 GMT 42.372501 -71.009293 0 54 0
2022-05-25 22:23:56 GMT 42.372478 -71.009270 0 54 0
2022-05-25 22:23:54 GMT 42.372490 -71.009270 0 51 0
2022-05-25 22:23:51 GMT 42.372490 -71.009277 0 51 0
2022-05-25 22:23:47 GMT 42.372501 -71.009277 0 51 0
2022-05-25 22:23:46 GMT 42.372490 -71.009277 0 51 1
2022-05-25 22:23:44 GMT 42.372509 -71.009277 0 51 0
2022-05-25 22:23:43 GMT 42.372509 -71.009293 0 51 0
2022-05-25 22:23:42 GMT 42.372509 -71.009277 0 51 1
2022-05-25 22:23:40 GMT 42.372501 -71.009293 0 51 1
2022-05-25 22:23:39 GMT 42.372520 -71.009338 0 344 3
2022-05-25 22:23:37 GMT 42.372509 -71.009361 0 359 4
2022-05-25 22:23:35 GMT 42.372459 -71.009331 0 1 1
2022-05-25 22:23:34 GMT 42.372452 -71.009338 0 1 0
2022-05-25 22:23:32 GMT 42.372440 -71.009323 0 1 2
2022-05-25 22:23:31 GMT 42.372429 -71.009354 0 1 0
2022-05-25 22:23:29 GMT 42.372452 -71.009377 0 1 3
2022-05-25 22:23:28 GMT 42.372421 -71.009361 0 35 4
2022-05-25 22:23:27 GMT 42.372398 -71.009323 0 32 6
2022-05-25 22:23:25 GMT 42.372398 -71.009407 0 11 6
2022-05-25 22:23:24 GMT 42.372360 -71.009392 0 23 5
2022-05-25 22:23:22 GMT 42.372341 -71.009453 0 9 6
2022-05-25 22:23:21 GMT 42.372318 -71.009430 0 22 7
2022-05-25 22:23:20 GMT 42.372261 -71.009460 0 42 7
2022-05-25 22:23:18 GMT 42.372211 -71.009438 0 47 7
2022-05-25 22:23:16 GMT 42.372189 -71.009537 0 29 8
2022-05-25 22:23:15 GMT 42.372139 -71.009537 0 25 7
2022-05-25 22:23:13 GMT 42.372108 -71.009628 0 13 8
2022-05-25 22:23:12 GMT 42.372089 -71.009583 0 19 11
2022-05-25 22:23:11 GMT 42.372059 -71.009613 0 20 12
2022-05-25 22:23:09 GMT 42.371861 -71.009659 0 36 4
2022-05-25 22:23:08 GMT 42.371861 -71.009666 0 27 6
2022-05-25 22:23:06 GMT 42.371861 -71.009727 0 18 10
2022-05-25 22:23:05 GMT 42.371811 -71.009750 0 25 9
2022-05-25 22:23:04 GMT 42.371731 -71.009789 0 29 10
2022-05-25 22:23:02 GMT 42.371689 -71.009827 0 28 9
2022-05-25 22:23:01 GMT 42.371658 -71.009819 0 35 11
2022-05-25 22:22:59 GMT 42.371590 -71.009911 0 30 12
2022-05-25 22:22:58 GMT 42.371552 -71.009972 0 23 12
2022-05-25 22:22:56 GMT 42.371460 -71.010040 0 17 13
2022-05-25 22:22:55 GMT 42.371410 -71.010033 0 25 15
2022-05-25 22:22:53 GMT 42.371269 -71.010117 0 25 14
2022-05-25 22:22:52 GMT 42.371220 -71.010162 0 25 15
2022-05-25 22:22:50 GMT 42.371101 -71.010239 0 26 15
2022-05-25 22:22:49 GMT 42.371040 -71.010269 0 29 15
2022-05-25 22:22:48 GMT 42.370991 -71.010307 0 29 16
2022-05-25 22:22:46 GMT 42.370869 -71.010437 0 16 18
2022-05-25 22:22:45 GMT 42.370800 -71.010460 0 17 19
2022-05-25 22:22:44 GMT 42.370609 -71.010513 0 28 16
2022-05-25 22:22:42 GMT 42.370548 -71.010559 0 28 16
2022-05-25 22:22:41 GMT 42.370499 -71.010590 0 31 18
2022-05-25 22:22:40 GMT 42.370338 -71.010719 0 21 16
2022-05-25 22:22:38 GMT 42.370251 -71.010727 0 32 15
2022-05-25 22:22:36 GMT 42.370140 -71.010818 0 37 16
2022-05-25 22:22:35 GMT 42.370071 -71.010910 0 31 14
2022-05-25 22:22:34 GMT 42.369968 -71.011002 0 27 16
2022-05-25 22:22:32 GMT 42.369881 -71.011040 0 36 14
2022-05-25 22:22:31 GMT 42.369831 -71.011078 0 40 13
2022-05-25 22:22:30 GMT 42.369740 -71.011200 0 33 13
2022-05-25 22:22:28 GMT 42.369701 -71.011238 0 32 15
2022-05-25 22:22:27 GMT 42.369629 -71.011299 0 33 13
2022-05-25 22:22:26 GMT 42.369518 -71.011383 0 39 12
2022-05-25 22:22:24 GMT 42.369469 -71.011398 0 46 14
2022-05-25 22:22:22 GMT 42.369370 -71.011543 0 44 11
2022-05-25 22:22:21 GMT 42.369320 -71.011581 0 54 11
2022-05-25 22:22:19 GMT 42.369270 -71.011681 0 50 13
2022-05-25 22:22:18 GMT 42.369240 -71.011719 0 47 16
2022-05-25 22:22:16 GMT 42.369141 -71.011871 0 42 13
2022-05-25 22:22:15 GMT 42.369080 -71.011932 0 42 12
2022-05-25 22:22:14 GMT 42.368999 -71.012016 0 41 11
2022-05-25 22:22:12 GMT 42.368980 -71.012077 0 30 12
2022-05-25 22:22:11 GMT 42.368950 -71.012123 0 21 12
2022-05-25 22:22:09 GMT 42.368881 -71.012199 0 6 14
2022-05-25 22:22:08 GMT 42.368809 -71.012238 0 350 13
2022-05-25 22:22:06 GMT 42.368671 -71.012222 0 345 10
2022-05-25 22:22:05 GMT 42.368629 -71.012207 0 341 11
2022-05-25 22:22:04 GMT 42.368580 -71.012199 0 335 11
2022-05-25 22:22:02 GMT 42.368481 -71.012177 0 319 13
2022-05-25 22:22:01 GMT 42.368439 -71.012123 0 321 14
2022-05-25 22:21:59 GMT 42.368320 -71.012009 0 313 10
2022-05-25 22:21:58 GMT 42.368290 -71.011971 0 313 11
2022-05-25 22:21:57 GMT 42.368221 -71.011902 0 311 14
2022-05-25 22:21:55 GMT 42.368198 -71.011780 0 324 11
2022-05-25 22:21:54 GMT 42.368149 -71.011749 0 321 12
2022-05-25 22:21:52 GMT 42.368069 -71.011650 0 327 12
2022-05-25 22:21:51 GMT 42.368019 -71.011597 0 328 11
2022-05-25 22:21:49 GMT 42.367931 -71.011528 0 339 10
2022-05-25 22:21:48 GMT 42.367870 -71.011497 0 337 6
2022-05-25 22:21:47 GMT 42.367821 -71.011452 0 341 4
2022-05-25 22:21:45 GMT 42.367790 -71.011436 0 346 5
2022-05-25 22:21:43 GMT 42.367661 -71.011360 0 348 2
2022-05-25 22:21:42 GMT 42.367649 -71.011360 0 348 2
2022-05-25 22:21:41 GMT 42.367641 -71.011360 0 348 2
2022-05-25 22:21:39 GMT 42.367641 -71.011368 0 347 2
2022-05-25 22:21:38 GMT 42.367630 -71.011383 0 346 2
2022-05-25 22:21:35 GMT 42.367592 -71.011383 0 347 0
2022-05-25 22:21:34 GMT 42.367580 -71.011391 0 347 0
2022-05-25 22:21:30 GMT 42.367599 -71.011360 0 347 0
2022-05-25 22:21:29 GMT 42.367592 -71.011353 0 347 0
2022-05-25 22:21:28 GMT 42.367580 -71.011353 0 347 0
2022-05-25 22:21:25 GMT 42.367580 -71.011353 0 348 0
2022-05-25 22:21:22 GMT 42.367580 -71.011337 0 348 0
2022-05-25 22:21:20 GMT 42.367580 -71.011330 0 348 0
2022-05-25 22:21:19 GMT 42.367569 -71.011330 0 348 1
2022-05-25 22:21:15 GMT 42.367592 -71.011330 0 349 0
2022-05-25 22:21:13 GMT 42.367592 -71.011330 0 349 0
2022-05-25 22:21:12 GMT 42.367599 -71.011337 0 349 0
2022-05-25 22:21:11 GMT 42.367592 -71.011322 0 349 2
2022-05-25 22:21:09 GMT 42.367599 -71.011353 0 347 0
2022-05-25 22:21:05 GMT 42.367569 -71.011391 0 341 1
2022-05-25 22:21:03 GMT 42.367569 -71.011391 0 341 2
2022-05-25 22:21:02 GMT 42.367569 -71.011383 0 342 3
2022-05-25 22:20:59 GMT 42.367538 -71.011383 0 345 3
2022-05-25 22:20:58 GMT 42.367512 -71.011360 0 6 4
2022-05-25 22:20:56 GMT 42.367470 -71.011299 0 6 2
2022-05-25 22:20:54 GMT 42.367470 -71.011353 0 6 2
2022-05-25 22:20:53 GMT 42.367451 -71.011330 0 6 1
2022-05-25 22:20:51 GMT 42.367470 -71.011337 0 6 2
2022-05-25 22:20:49 GMT 42.367458 -71.011353 0 7 0
2022-05-25 22:20:48 GMT 42.367470 -71.011337 0 12 4
2022-05-25 22:20:47 GMT 42.367439 -71.011353 0 13 4
2022-05-25 22:20:45 GMT 42.367432 -71.011322 0 19 5
2022-05-25 22:20:44 GMT 42.367420 -71.011337 0 8 5
2022-05-25 22:20:43 GMT 42.367390 -71.011337 0 15 8
2022-05-25 22:20:41 GMT 42.367359 -71.011353 0 14 9
2022-05-25 22:20:40 GMT 42.367321 -71.011368 0 15 9
2022-05-25 22:20:38 GMT 42.367229 -71.011383 0 22 9
2022-05-25 22:20:37 GMT 42.367210 -71.011398 0 20 12
2022-05-25 22:20:36 GMT 42.367161 -71.011436 0 17 12
2022-05-25 22:20:35 GMT 42.367039 -71.011490 0 18 9
2022-05-25 22:20:33 GMT 42.367001 -71.011490 0 21 10
2022-05-25 22:20:32 GMT 42.366982 -71.011497 0 24 12
2022-05-25 22:20:30 GMT 42.366871 -71.011559 0 23 12
2022-05-25 22:20:29 GMT 42.366829 -71.011589 0 23 13
2022-05-25 22:20:28 GMT 42.366760 -71.011620 0 23 12
2022-05-25 22:20:27 GMT 42.366669 -71.011681 0 24 13
2022-05-25 22:20:25 GMT 42.366600 -71.011711 0 27 12
2022-05-25 22:20:24 GMT 42.366508 -71.011803 0 13 11
2022-05-25 22:20:22 GMT 42.366459 -71.011818 0 9 10
2022-05-25 22:20:21 GMT 42.366421 -71.011848 0 7 11
2022-05-25 22:20:19 GMT 42.366310 -71.011864 0 16 9
2022-05-25 22:20:18 GMT 42.366280 -71.011864 0 22 10
2022-05-25 22:20:17 GMT 42.366192 -71.011902 0 24 10
2022-05-25 22:20:14 GMT 42.366100 -71.011940 0 24 9
2022-05-25 22:20:13 GMT 42.366058 -71.011978 0 23 9
2022-05-25 22:20:12 GMT 42.366039 -71.011993 0 25 10
2022-05-25 22:20:10 GMT 42.365940 -71.012047 0 30 7
2022-05-25 22:20:09 GMT 42.365891 -71.012100 0 21 8
2022-05-25 22:20:08 GMT 42.365860 -71.012123 0 16 8
2022-05-25 22:20:06 GMT 42.365829 -71.012138 0 14 8
2022-05-25 22:20:04 GMT 42.365761 -71.012177 0 13 7
2022-05-25 22:20:03 GMT 42.365711 -71.012161 0 16 6
2022-05-25 22:20:02 GMT 42.365681 -71.012199 0 12 6
2022-05-25 22:20:01 GMT 42.365650 -71.012207 0 16 6
2022-05-25 22:19:59 GMT 42.365620 -71.012192 0 23 12
2022-05-25 22:19:58 GMT 42.365551 -71.012253 0 18 16
2022-05-25 22:19:56 GMT 42.365490 -71.012283 0 18 18
2022-05-25 22:19:55 GMT 42.365429 -71.012306 0 17 18
2022-05-25 22:19:53 GMT 42.365250 -71.012367 0 23 17
2022-05-25 22:19:52 GMT 42.365170 -71.012413 0 23 16
2022-05-25 22:19:51 GMT 42.365040 -71.012482 0 24 17
2022-05-25 22:19:49 GMT 42.364971 -71.012543 0 20 17
2022-05-25 22:19:47 GMT 42.364811 -71.012619 0 21 17
2022-05-25 22:19:46 GMT 42.364761 -71.012680 0 12 19
2022-05-25 22:19:45 GMT 42.364590 -71.012741 0 12 20
2022-05-25 22:19:43 GMT 42.364491 -71.012749 0 18 18
2022-05-25 22:19:41 GMT 42.364319 -71.012833 0 21 17
2022-05-25 22:19:40 GMT 42.364239 -71.012871 0 23 16
2022-05-25 22:19:39 GMT 42.364109 -71.012947 0 19 17
2022-05-25 22:19:37 GMT 42.364021 -71.012970 0 24 17
2022-05-25 22:19:35 GMT 42.363880 -71.013062 0 21 16
2022-05-25 22:19:34 GMT 42.363811 -71.013107 0 18 16
2022-05-25 22:19:32 GMT 42.363670 -71.013168 0 20 16
2022-05-25 22:19:31 GMT 42.363602 -71.013191 0 24 17
2022-05-25 22:19:30 GMT 42.363461 -71.013290 0 14 17
2022-05-25 22:19:28 GMT 42.363380 -71.013313 0 17 16
2022-05-25 22:19:27 GMT 42.363300 -71.013329 0 23 15
2022-05-25 22:19:25 GMT 42.363178 -71.013412 0 19 16
2022-05-25 22:19:24 GMT 42.363091 -71.013451 0 20 15
2022-05-25 22:19:22 GMT 42.362968 -71.013542 0 10 15
2022-05-25 22:19:21 GMT 42.362900 -71.013557 0 13 13
2022-05-25 22:19:19 GMT 42.362759 -71.013580 0 22 12
2022-05-25 22:19:18 GMT 42.362709 -71.013618 0 19 12
2022-05-25 22:19:17 GMT 42.362671 -71.013641 0 19 13
2022-05-25 22:19:15 GMT 42.362560 -71.013702 0 18 12
2022-05-25 22:19:14 GMT 42.362499 -71.013710 0 22 12
2022-05-25 22:19:12 GMT 42.362400 -71.013779 0 17 11
2022-05-25 22:19:11 GMT 42.362350 -71.013786 0 21 12
2022-05-25 22:19:10 GMT 42.362289 -71.013817 0 23 11
2022-05-25 22:19:09 GMT 42.362190 -71.013870 0 30 9
2022-05-25 22:19:07 GMT 42.362148 -71.013870 0 33 10
2022-05-25 22:19:06 GMT 42.362099 -71.013977 0 13 11
2022-05-25 22:19:04 GMT 42.362061 -71.014023 0 18 10
2022-05-25 22:19:03 GMT 42.362011 -71.013992 0 37 10
2022-05-25 22:19:02 GMT 42.361912 -71.014023 0 63 11
2022-05-25 22:19:00 GMT 42.361870 -71.014069 0 72 10
2022-05-25 22:18:59 GMT 42.361832 -71.014191 0 78 9
2022-05-25 22:18:57 GMT 42.361820 -71.014236 0 84 10
2022-05-25 22:18:56 GMT 42.361801 -71.014374 0 94 10
2022-05-25 22:18:55 GMT 42.361778 -71.014442 0 101 9
2022-05-25 22:18:53 GMT 42.361778 -71.014473 0 95 11
2022-05-25 22:18:51 GMT 42.361809 -71.014603 0 77 10
2022-05-25 22:18:50 GMT 42.361832 -71.014687 0 65 9
2022-05-25 22:18:49 GMT 42.361801 -71.014793 0 64 9
2022-05-25 22:18:47 GMT 42.361759 -71.014832 0 66 10
2022-05-25 22:18:45 GMT 42.361778 -71.015007 0 28 10
2022-05-25 22:18:44 GMT 42.361752 -71.015038 0 27 11
2022-05-25 22:18:43 GMT 42.361710 -71.015060 0 29 11
2022-05-25 22:18:42 GMT 42.361610 -71.015129 0 24 9
2022-05-25 22:18:40 GMT 42.361591 -71.015167 0 17 12
2022-05-25 22:18:38 GMT 42.361488 -71.015228 0 11 11
2022-05-25 22:18:37 GMT 42.361431 -71.015244 0 17 10
2022-05-25 22:18:36 GMT 42.361370 -71.015228 0 27 9
2022-05-25 22:18:34 GMT 42.361309 -71.015312 0 15 11
2022-05-25 22:18:33 GMT 42.361252 -71.015320 0 15 11
2022-05-25 22:18:31 GMT 42.361160 -71.015373 0 14 11
2022-05-25 22:18:30 GMT 42.361099 -71.015358 0 21 9
2022-05-25 22:18:29 GMT 42.361061 -71.015373 0 24 10
2022-05-25 22:18:28 GMT 42.360958 -71.015427 0 23 9
2022-05-25 22:18:26 GMT 42.360931 -71.015457 0 20 10
2022-05-25 22:18:25 GMT 42.360851 -71.015503 0 20 11
2022-05-25 22:18:23 GMT 42.360809 -71.015503 0 22 12
2022-05-25 22:18:22 GMT 42.360760 -71.015541 0 23 11
2022-05-25 22:18:20 GMT 42.360668 -71.015579 0 21 12
2022-05-25 22:18:19 GMT 42.360619 -71.015617 0 16 11
2022-05-25 22:18:17 GMT 42.360519 -71.015640 0 22 12
2022-05-25 22:18:16 GMT 42.360470 -71.015694 0 19 11
2022-05-25 22:18:14 GMT 42.360371 -71.015739 0 20 13
2022-05-25 22:18:13 GMT 42.360260 -71.015793 0 21 11
2022-05-25 22:18:12 GMT 42.360222 -71.015800 0 23 12
2022-05-25 22:18:10 GMT 42.360161 -71.015839 0 20 11
2022-05-25 22:18:08 GMT 42.360081 -71.015923 0 10 13
2022-05-25 22:18:07 GMT 42.360020 -71.015930 0 11 12
2022-05-25 22:18:06 GMT 42.359890 -71.015953 0 21 10
2022-05-25 22:18:04 GMT 42.359859 -71.015961 0 22 11
2022-05-25 22:18:02 GMT 42.359749 -71.015999 0 21 10
2022-05-25 22:18:01 GMT 42.359711 -71.016052 0 18 10
2022-05-25 22:18:00 GMT 42.359661 -71.016083 0 20 10
2022-05-25 22:17:59 GMT 42.359570 -71.016098 0 23 10
2022-05-25 22:17:57 GMT 42.359520 -71.016151 0 24 9
2022-05-25 22:17:55 GMT 42.359451 -71.016182 0 24 11
2022-05-25 22:17:54 GMT 42.359402 -71.016220 0 20 9
2022-05-25 22:17:53 GMT 42.359329 -71.016281 0 15 10
2022-05-25 22:17:51 GMT 42.359268 -71.016289 0 18 9
2022-05-25 22:17:50 GMT 42.359192 -71.016319 0 19 8
2022-05-25 22:17:48 GMT 42.359161 -71.016342 0 17 9
2022-05-25 22:17:47 GMT 42.359081 -71.016380 0 19 10
2022-05-25 22:17:46 GMT 42.359032 -71.016380 0 22 10
2022-05-25 22:17:44 GMT 42.358990 -71.016403 0 22 9
2022-05-25 22:17:43 GMT 42.358910 -71.016457 0 20 9
2022-05-25 22:17:41 GMT 42.358871 -71.016457 0 22 9
2022-05-25 22:17:40 GMT 42.358829 -71.016487 0 18 9
2022-05-25 22:17:38 GMT 42.358761 -71.016563 0 10 8
2022-05-25 22:17:37 GMT 42.358711 -71.016533 0 20 7
2022-05-25 22:17:36 GMT 42.358650 -71.016563 0 29 7
2022-05-25 22:17:34 GMT 42.358639 -71.016586 0 28 9
2022-05-25 22:17:33 GMT 42.358601 -71.016586 0 34 8
2022-05-25 22:17:31 GMT 42.358528 -71.016632 0 47 9
2022-05-25 22:17:30 GMT 42.358501 -71.016663 0 57 9
2022-05-25 22:17:29 GMT 42.358440 -71.016693 0 72 8
2022-05-25 22:17:28 GMT 42.358421 -71.016800 0 67 7
2022-05-25 22:17:26 GMT 42.358410 -71.016830 0 69 8
2022-05-25 22:17:25 GMT 42.358372 -71.016922 0 75 7
2022-05-25 22:17:23 GMT 42.358360 -71.016968 0 82 5
2022-05-25 22:17:21 GMT 42.358349 -71.016998 0 93 10
2022-05-25 22:17:20 GMT 42.358318 -71.017052 0 102 10
2022-05-25 22:17:19 GMT 42.358330 -71.017128 0 111 9
2022-05-25 22:17:17 GMT 42.358341 -71.017250 0 111 5
2022-05-25 22:17:16 GMT 42.358341 -71.017242 0 112 9
2022-05-25 22:17:14 GMT 42.358360 -71.017380 0 108 5
2022-05-25 22:17:13 GMT 42.358410 -71.017372 0 94 7
2022-05-25 22:17:12 GMT 42.358410 -71.017448 0 98 8
2022-05-25 22:17:10 GMT 42.358391 -71.017509 0 110 8
2022-05-25 22:17:08 GMT 42.358410 -71.017616 0 100 6
2022-05-25 22:17:07 GMT 42.358452 -71.017632 0 88 6
2022-05-25 22:17:05 GMT 42.358459 -71.017708 0 108 6
2022-05-25 22:17:04 GMT 42.358429 -71.017761 0 125 5
2022-05-25 22:17:03 GMT 42.358421 -71.017822 0 112 6
2022-05-25 22:17:02 GMT 42.358459 -71.017830 0 100 7
2022-05-25 22:17:00 GMT 42.358471 -71.017883 0 98 6
2022-05-25 22:16:59 GMT 42.358490 -71.017952 0 95 6
2022-05-25 22:16:57 GMT 42.358501 -71.017960 0 94 8
2022-05-25 22:16:56 GMT 42.358490 -71.018051 0 100 8
2022-05-25 22:16:54 GMT 42.358501 -71.018112 0 98 8
2022-05-25 22:16:53 GMT 42.358501 -71.018158 0 94 8
2022-05-25 22:16:52 GMT 42.358521 -71.018242 0 91 9
2022-05-25 22:16:50 GMT 42.358509 -71.018311 0 106 8
2022-05-25 22:16:49 GMT 42.358501 -71.018349 0 106 9
2022-05-25 22:16:47 GMT 42.358521 -71.018440 0 113 11
2022-05-25 22:16:46 GMT 42.358509 -71.018532 0 122 11
2022-05-25 22:16:44 GMT 42.358551 -71.018623 0 123 9
2022-05-25 22:16:43 GMT 42.358570 -71.018677 0 122 9
2022-05-25 22:16:42 GMT 42.358631 -71.018753 0 114 10
2022-05-25 22:16:40 GMT 42.358650 -71.018822 0 116 10
2022-05-25 22:16:39 GMT 42.358662 -71.018860 0 117 11
2022-05-25 22:16:37 GMT 42.358700 -71.018967 0 121 11
2022-05-25 22:16:36 GMT 42.358719 -71.019028 0 122 12
2022-05-25 22:16:34 GMT 42.358768 -71.019150 0 125 12
2022-05-25 22:16:33 GMT 42.358791 -71.019211 0 126 14
2022-05-25 22:16:32 GMT 42.358891 -71.019363 0 118 11
2022-05-25 22:16:30 GMT 42.358910 -71.019432 0 119 10
2022-05-25 22:16:29 GMT 42.358971 -71.019547 0 117 10
2022-05-25 22:16:27 GMT 42.358978 -71.019600 0 118 11
2022-05-25 22:16:26 GMT 42.359032 -71.019676 0 118 8
2022-05-25 22:16:24 GMT 42.359020 -71.019768 0 129 12
2022-05-25 22:16:23 GMT 42.359081 -71.019798 0 122 13
2022-05-25 22:16:22 GMT 42.359112 -71.019852 0 121 14
2022-05-25 22:16:20 GMT 42.359180 -71.019997 0 122 13
2022-05-25 22:16:19 GMT 42.359230 -71.020088 0 118 11
2022-05-25 22:16:17 GMT 42.359268 -71.020210 0 123 11
2022-05-25 22:16:16 GMT 42.359291 -71.020271 0 126 12
2022-05-25 22:16:15 GMT 42.359348 -71.020370 0 120 12
2022-05-25 22:16:13 GMT 42.359390 -71.020439 0 117 11
2022-05-25 22:16:12 GMT 42.359440 -71.020554 0 117 12
2022-05-25 22:16:10 GMT 42.359482 -71.020630 0 117 11
2022-05-25 22:16:09 GMT 42.359520 -71.020760 0 120 11
2022-05-25 22:16:07 GMT 42.359550 -71.020851 0 127 9
2022-05-25 22:16:06 GMT 42.359581 -71.020950 0 133 10
2022-05-25 22:16:04 GMT 42.359612 -71.020958 0 127 12
2022-05-25 22:16:03 GMT 42.359650 -71.021019 0 118 12
2022-05-25 22:16:01 GMT 42.359730 -71.021172 0 110 10
2022-05-25 22:15:59 GMT 42.359760 -71.021294 0 118 9
2022-05-25 22:15:58 GMT 42.359760 -71.021309 0 119 12
2022-05-25 22:15:57 GMT 42.359779 -71.021347 0 120 13
2022-05-25 22:15:55 GMT 42.359829 -71.021538 0 132 10
2022-05-25 22:15:54 GMT 42.359879 -71.021568 0 124 10
2022-05-25 22:15:53 GMT 42.359921 -71.021622 0 123 9
2022-05-25 22:15:52 GMT 42.359940 -71.021652 0 118 11
2022-05-25 22:15:50 GMT 42.359982 -71.021759 0 119 11
2022-05-25 22:15:49 GMT 42.360008 -71.021812 0 120 11
2022-05-25 22:15:48 GMT 42.360062 -71.021957 0 123 10
2022-05-25 22:15:46 GMT 42.360111 -71.022018 0 119 8
2022-05-25 22:15:44 GMT 42.360142 -71.022110 0 116 9
2022-05-25 22:15:42 GMT 42.360180 -71.022247 0 120 9
2022-05-25 22:15:40 GMT 42.360222 -71.022293 0 116 9
2022-05-25 22:15:38 GMT 42.360271 -71.022377 0 111 9
2022-05-25 22:15:37 GMT 42.360291 -71.022430 0 117 9
2022-05-25 22:15:36 GMT 42.360271 -71.022507 0 129 8
2022-05-25 22:15:34 GMT 42.360298 -71.022591 0 134 9
2022-05-25 22:15:33 GMT 42.360321 -71.022629 0 132 10
2022-05-25 22:15:32 GMT 42.360409 -71.022720 0 132 8
2022-05-25 22:15:30 GMT 42.360470 -71.022774 0 135 6
2022-05-25 22:15:28 GMT 42.360489 -71.022873 0 140 5
2022-05-25 22:15:27 GMT 42.360512 -71.022888 0 140 5
2022-05-25 22:15:26 GMT 42.360519 -71.022888 0 141 6
2022-05-25 22:15:24 GMT 42.360561 -71.022957 0 151 7
2022-05-25 22:15:23 GMT 42.360611 -71.023010 0 152 8
2022-05-25 22:15:21 GMT 42.360630 -71.023018 0 148 9
2022-05-25 22:15:19 GMT 42.360710 -71.023079 0 146 8
2022-05-25 22:15:18 GMT 42.360760 -71.023087 0 139 7
2022-05-25 22:15:16 GMT 42.360802 -71.023170 0 148 6
2022-05-25 22:15:15 GMT 42.360828 -71.023178 0 152 6
2022-05-25 22:15:13 GMT 42.360870 -71.023232 0 150 6
2022-05-25 22:15:11 GMT 42.360889 -71.023232 0 147 10
2022-05-25 22:15:10 GMT 42.360950 -71.023247 0 148 10
2022-05-25 22:15:08 GMT 42.361019 -71.023338 0 159 8
2022-05-25 22:15:07 GMT 42.361038 -71.023376 0 165 9
2022-05-25 22:15:04 GMT 42.361279 -71.023491 0 173 11
2022-05-25 22:15:03 GMT 42.361149 -71.023422 0 173 11
2022-05-25 22:15:02 GMT 42.361252 -71.023468 0 173 11
2022-05-25 22:15:00 GMT 42.361309 -71.023552 0 179 7
2022-05-25 22:14:59 GMT 42.361450 -71.023582 0 179 3
2022-05-25 22:14:57 GMT 42.361462 -71.023560 0 179 3
2022-05-25 22:14:55 GMT 42.361431 -71.023491 0 179 3
2022-05-25 22:14:54 GMT 42.361439 -71.023453 0 177 3
2022-05-25 22:14:53 GMT 42.361462 -71.023453 0 179 3
2022-05-25 22:14:51 GMT 42.361462 -71.023491 0 180 5
2022-05-25 22:14:50 GMT 42.361481 -71.023468 0 177 6
2022-05-25 22:14:48 GMT 42.361549 -71.023460 0 173 4
2022-05-25 22:14:47 GMT 42.361568 -71.023438 0 172 5
2022-05-25 22:14:46 GMT 42.361610 -71.023453 0 174 5
2022-05-25 22:14:44 GMT 42.361629 -71.023460 0 174 5
2022-05-25 22:14:43 GMT 42.361599 -71.023438 0 176 9
2022-05-25 22:14:41 GMT 42.361679 -71.023438 0 178 8
2022-05-25 22:14:40 GMT 42.361759 -71.023514 0 178 4
2022-05-25 22:14:38 GMT 42.361801 -71.023491 0 174 4
2022-05-25 22:14:37 GMT 42.361790 -71.023460 0 170 5
2022-05-25 22:14:35 GMT 42.361809 -71.023453 0 168 8
2022-05-25 22:14:34 GMT 42.361900 -71.023499 0 183 7
2022-05-25 22:14:32 GMT 42.361889 -71.023438 0 186 10
2022-05-25 22:14:31 GMT 42.361969 -71.023552 0 199 7
2022-05-25 22:14:30 GMT 42.362049 -71.023560 0 205 5
2022-05-25 22:14:28 GMT 42.362068 -71.023529 0 210 5
2022-05-25 22:14:17 GMT 42.362385 -71.023453 0 185 6
2022-05-25 22:12:17 GMT 42.362598 -71.023209 0 96 4
2022-05-25 22:12:16 GMT 42.362572 -71.023460 0 96 4
2022-05-25 22:12:15 GMT 42.362598 -71.023209 0 96 4
2022-05-25 22:12:13 GMT 42.362598 -71.023209 0 96 4
2022-05-25 22:12:12 GMT 42.362572 -71.023460 0 96 4
2022-05-25 22:12:11 GMT 42.362598 -71.023209 0 96 4
2022-05-25 22:12:09 GMT 42.362610 -71.023132 0 96 4
2022-05-25 22:12:08 GMT 42.362572 -71.023460 0 96 4
2022-05-25 22:12:07 GMT 42.362598 -71.023178 0 96 4
2022-05-25 22:12:05 GMT 42.362572 -71.023460 0 99 3
2022-05-25 22:12:04 GMT 42.362591 -71.023277 0 99 3
2022-05-25 22:12:03 GMT 42.362572 -71.023460 0 99 3
2022-05-25 22:11:47 GMT 42.362572 -71.023460 0 44 4
2022-05-25 22:11:46 GMT 42.362610 -71.023514 0 44 4
2022-05-25 22:11:45 GMT 42.362598 -71.023491 0 44 4
2022-05-25 22:11:43 GMT 42.362511 -71.023392 0 44 2
2022-05-25 22:11:42 GMT 42.362518 -71.023407 0 44 2
2022-05-25 22:11:41 GMT 42.362530 -71.023407 0 44 1
2022-05-25 22:11:39 GMT 42.362530 -71.023369 0 44 2
2022-05-25 22:11:38 GMT 42.362530 -71.023323 0 44 4
2022-05-25 22:11:37 GMT 42.362530 -71.023369 0 42 4
2022-05-25 22:11:35 GMT 42.362499 -71.023392 0 40 4
2022-05-25 22:11:34 GMT 42.362530 -71.023438 0 22 4
2022-05-25 22:11:32 GMT 42.362530 -71.023483 0 22 3
2022-05-25 22:11:31 GMT 42.362560 -71.023514 0 22 4
2022-05-25 22:11:30 GMT 42.362541 -71.023537 0 19 4
2022-05-25 22:11:28 GMT 42.362518 -71.023560 0 18 3
2022-05-25 22:11:27 GMT 42.362499 -71.023567 0 16 3
2022-05-25 22:11:26 GMT 42.362469 -71.023567 0 16 2
2022-05-25 22:11:24 GMT 42.362450 -71.023560 0 15 3
2022-05-25 22:11:22 GMT 42.362492 -71.023621 0 6 6
2022-05-25 22:11:21 GMT 42.362431 -71.023621 0 3 5
2022-05-25 22:11:19 GMT 42.362400 -71.023651 0 3 3
2022-05-25 22:11:18 GMT 42.362370 -71.023659 0 2 3
2022-05-25 22:11:16 GMT 42.362370 -71.023659 0 0 4
2022-05-25 22:11:15 GMT 42.362370 -71.023682 0 0 4
2022-05-25 22:11:14 GMT 42.362370 -71.023773 0 0 1
2022-05-25 22:11:10 GMT 42.362301 -71.023560 0 100 11
2022-05-25 22:11:09 GMT 42.362309 -71.023628 0 100 11
2022-05-25 22:11:08 GMT 42.362331 -71.023758 0 100 11

Making use of Plane Finder data

You are free to use the raw flight data, aircraft information and images provided in this report for your own purposes provided the data is correctly attributed to Plane Finder. We ask that you please credit Plane Finder and link to planefinder.net in close proximity to the content.

Optionally one of the following logos (no smaller then 150x24px) can be used and must link to planefinder.net

Embedding the Plane Finder map

You are welcome to embed the Plane Finder playback map on your website to offer visitors a more interactive experience. We suggest using the following HTML code:

<iframe src="//planefinder.net/data/report/DL5637-N878RW-7700-squawk-2022-05-25/map" width="800" height="600" seamless="seamless"></iframe>

Where our data comes from

Plane Finder has a global network of data feeds and antenna radars that receive data broadcast directly from aircraft. The primary technologies used are ADS-B and MLAT. We also show feeds from the FAA and a FLARM glider feed.

Click here to find out more about the Plane Finder network.

How we collect our data